<?xml version='1.0' encoding='UTF-8'?>
<gpx version="1.1" creator="https://www.komoot.de" xmlns="http://www.topografix.com/GPX/1/1" xmlns:xsi="http://www.w3.org/2001/XMLSchema-instance" xsi:schemaLocation="http://www.topografix.com/GPX/1/1 http://www.topografix.com/GPX/1/1/gpx.xsd">
  <metadata>
    <name>2025Milsbeek</name>
    <author>
      <link href="https://www.komoot.de">
        <text>komoot</text>
        <type>text/html</type>
      </link>
    </author>
  </metadata>
  <trk>
    <name>2025Milsbeek</name>
    <trkseg>
      <trkpt lat="51.696524" lon="5.673774">
        <ele>20.381930</ele>
        <time>2025-05-16T12:50:27.848Z</time>
      </trkpt>
      <trkpt lat="51.696495" lon="5.673967">
        <ele>20.381930</ele>
        <time>2025-05-16T12:50:30.198Z</time>
      </trkpt>
      <trkpt lat="51.696632" lon="5.674017">
        <ele>20.381930</ele>
        <time>2025-05-16T12:50:32.910Z</time>
      </trkpt>
      <trkpt lat="51.696792" lon="5.674146">
        <ele>20.381930</ele>
        <time>2025-05-16T12:50:36.313Z</time>
      </trkpt>
      <trkpt lat="51.696847" lon="5.674221">
        <ele>20.381930</ele>
        <time>2025-05-16T12:50:37.683Z</time>
      </trkpt>
      <trkpt lat="51.697048" lon="5.674330">
        <ele>20.381930</ele>
        <time>2025-05-16T12:50:41.623Z</time>
      </trkpt>
      <trkpt lat="51.697354" lon="5.674400">
        <ele>20.318994</ele>
        <time>2025-05-16T12:50:47.247Z</time>
      </trkpt>
      <trkpt lat="51.697507" lon="5.674467">
        <ele>20.245750</ele>
        <time>2025-05-16T12:50:50.086Z</time>
      </trkpt>
      <trkpt lat="51.697561" lon="5.674504">
        <ele>20.218645</ele>
        <time>2025-05-16T12:50:51.148Z</time>
      </trkpt>
      <trkpt lat="51.697643" lon="5.674570">
        <ele>20.176309</ele>
        <time>2025-05-16T12:50:52.826Z</time>
      </trkpt>
      <trkpt lat="51.697705" lon="5.674619">
        <ele>20.144412</ele>
        <time>2025-05-16T12:50:54.092Z</time>
      </trkpt>
      <trkpt lat="51.697968" lon="5.674779">
        <ele>20.014554</ele>
        <time>2025-05-16T12:50:59.381Z</time>
      </trkpt>
      <trkpt lat="51.697987" lon="5.674790">
        <ele>20.005228</ele>
        <time>2025-05-16T12:50:59.752Z</time>
      </trkpt>
      <trkpt lat="51.698480" lon="5.675070">
        <ele>19.763760</ele>
        <time>2025-05-16T12:51:09.626Z</time>
      </trkpt>
      <trkpt lat="51.698757" lon="5.675142">
        <ele>19.634134</ele>
        <time>2025-05-16T12:51:14.851Z</time>
      </trkpt>
      <trkpt lat="51.698984" lon="5.675192">
        <ele>19.544390</ele>
        <time>2025-05-16T12:51:19.087Z</time>
      </trkpt>
      <trkpt lat="51.699143" lon="5.675326">
        <ele>19.520401</ele>
        <time>2025-05-16T12:51:22.425Z</time>
      </trkpt>
      <trkpt lat="51.699113" lon="5.675470">
        <ele>19.507810</ele>
        <time>2025-05-16T12:51:23.682Z</time>
      </trkpt>
      <trkpt lat="51.699084" lon="5.676400">
        <ele>19.430633</ele>
        <time>2025-05-16T12:51:31.977Z</time>
      </trkpt>
      <trkpt lat="51.699044" lon="5.677217">
        <ele>19.362708</ele>
        <time>2025-05-16T12:51:39.599Z</time>
      </trkpt>
      <trkpt lat="51.699022" lon="5.677346">
        <ele>19.351619</ele>
        <time>2025-05-16T12:51:40.822Z</time>
      </trkpt>
      <trkpt lat="51.698941" lon="5.677558">
        <ele>19.330977</ele>
        <time>2025-05-16T12:51:43.100Z</time>
      </trkpt>
      <trkpt lat="51.698777" lon="5.677823">
        <ele>19.304702</ele>
        <time>2025-05-16T12:51:46.548Z</time>
      </trkpt>
      <trkpt lat="51.698680" lon="5.677960">
        <ele>19.295294</ele>
        <time>2025-05-16T12:51:48.470Z</time>
      </trkpt>
      <trkpt lat="51.698519" lon="5.678049">
        <ele>19.282872</ele>
        <time>2025-05-16T12:51:51.031Z</time>
      </trkpt>
      <trkpt lat="51.698283" lon="5.678148">
        <ele>19.265075</ele>
        <time>2025-05-16T12:51:54.721Z</time>
      </trkpt>
      <trkpt lat="51.698142" lon="5.678207">
        <ele>19.254444</ele>
        <time>2025-05-16T12:51:56.954Z</time>
      </trkpt>
      <trkpt lat="51.697395" lon="5.679268">
        <ele>19.181807</ele>
        <time>2025-05-16T12:52:11.091Z</time>
      </trkpt>
      <trkpt lat="51.697039" lon="5.679725">
        <ele>19.106346</ele>
        <time>2025-05-16T12:52:17.348Z</time>
      </trkpt>
      <trkpt lat="51.696930" lon="5.679844">
        <ele>19.083453</ele>
        <time>2025-05-16T12:52:19.198Z</time>
      </trkpt>
      <trkpt lat="51.696456" lon="5.680387">
        <ele>18.982332</ele>
        <time>2025-05-16T12:52:27.617Z</time>
      </trkpt>
      <trkpt lat="51.695861" lon="5.681067">
        <ele>18.859660</ele>
        <time>2025-05-16T12:52:37.950Z</time>
      </trkpt>
      <trkpt lat="51.695735" lon="5.681215">
        <ele>18.843012</ele>
        <time>2025-05-16T12:52:40.163Z</time>
      </trkpt>
      <trkpt lat="51.695676" lon="5.681205">
        <ele>18.836675</ele>
        <time>2025-05-16T12:52:41.028Z</time>
      </trkpt>
      <trkpt lat="51.695637" lon="5.681258">
        <ele>18.831228</ele>
        <time>2025-05-16T12:52:41.756Z</time>
      </trkpt>
      <trkpt lat="51.695629" lon="5.681330">
        <ele>18.826385</ele>
        <time>2025-05-16T12:52:42.400Z</time>
      </trkpt>
      <trkpt lat="51.695652" lon="5.681399">
        <ele>18.821198</ele>
        <time>2025-05-16T12:52:43.108Z</time>
      </trkpt>
      <trkpt lat="51.695665" lon="5.681414">
        <ele>18.819491</ele>
        <time>2025-05-16T12:52:43.344Z</time>
      </trkpt>
      <trkpt lat="51.695669" lon="5.681509">
        <ele>18.813186</ele>
        <time>2025-05-16T12:52:44.514Z</time>
      </trkpt>
      <trkpt lat="51.695877" lon="5.682003">
        <ele>18.773646</ele>
        <time>2025-05-16T12:52:51.866Z</time>
      </trkpt>
      <trkpt lat="51.696134" lon="5.682501">
        <ele>18.730742</ele>
        <time>2025-05-16T12:52:59.882Z</time>
      </trkpt>
      <trkpt lat="51.696654" lon="5.683398">
        <ele>18.569963</ele>
        <time>2025-05-16T12:53:15.087Z</time>
      </trkpt>
      <trkpt lat="51.696793" lon="5.683627">
        <ele>18.480561</ele>
        <time>2025-05-16T12:53:19.020Z</time>
      </trkpt>
      <trkpt lat="51.697252" lon="5.684813">
        <ele>18.090563</ele>
        <time>2025-05-16T12:53:35.137Z</time>
      </trkpt>
      <trkpt lat="51.697507" lon="5.685448">
        <ele>17.879522</ele>
        <time>2025-05-16T12:53:43.484Z</time>
      </trkpt>
      <trkpt lat="51.697610" lon="5.685826">
        <ele>17.812334</ele>
        <time>2025-05-16T12:53:48.064Z</time>
      </trkpt>
      <trkpt lat="51.697839" lon="5.686458">
        <ele>17.705735</ele>
        <time>2025-05-16T12:53:53.896Z</time>
      </trkpt>
      <trkpt lat="51.698269" lon="5.687620">
        <ele>17.508671</ele>
        <time>2025-05-16T12:54:06.077Z</time>
      </trkpt>
      <trkpt lat="51.698351" lon="5.687731">
        <ele>17.483524</ele>
        <time>2025-05-16T12:54:07.802Z</time>
      </trkpt>
      <trkpt lat="51.699404" lon="5.690444">
        <ele>17.835418</ele>
        <time>2025-05-16T12:54:40.130Z</time>
      </trkpt>
      <trkpt lat="51.698609" lon="5.691850">
        <ele>17.328286</ele>
        <time>2025-05-16T12:54:55.053Z</time>
      </trkpt>
      <trkpt lat="51.697490" lon="5.693850">
        <ele>16.992141</ele>
        <time>2025-05-16T12:55:18.524Z</time>
      </trkpt>
      <trkpt lat="51.697330" lon="5.694050">
        <ele>16.978007</ele>
        <time>2025-05-16T12:55:21.678Z</time>
      </trkpt>
      <trkpt lat="51.693915" lon="5.696395">
        <ele>17.609940</ele>
        <time>2025-05-16T12:56:20.019Z</time>
      </trkpt>
      <trkpt lat="51.691820" lon="5.697830">
        <ele>17.745720</ele>
        <time>2025-05-16T12:56:53.950Z</time>
      </trkpt>
      <trkpt lat="51.687881" lon="5.700606">
        <ele>18.315557</ele>
        <time>2025-05-16T12:58:00.899Z</time>
      </trkpt>
      <trkpt lat="51.687837" lon="5.700654">
        <ele>18.312574</ele>
        <time>2025-05-16T12:58:01.649Z</time>
      </trkpt>
      <trkpt lat="51.687787" lon="5.700721">
        <ele>18.308924</ele>
        <time>2025-05-16T12:58:02.927Z</time>
      </trkpt>
      <trkpt lat="51.687952" lon="5.701382">
        <ele>18.284121</ele>
        <time>2025-05-16T12:58:11.449Z</time>
      </trkpt>
      <trkpt lat="51.688084" lon="5.701886">
        <ele>18.265076</ele>
        <time>2025-05-16T12:58:17.901Z</time>
      </trkpt>
      <trkpt lat="51.689162" lon="5.705420">
        <ele>17.668002</ele>
        <time>2025-05-16T12:59:04.853Z</time>
      </trkpt>
      <trkpt lat="51.689515" lon="5.706525">
        <ele>17.541120</ele>
        <time>2025-05-16T12:59:19.926Z</time>
      </trkpt>
      <trkpt lat="51.689650" lon="5.706948">
        <ele>17.492558</ele>
        <time>2025-05-16T12:59:25.817Z</time>
      </trkpt>
      <trkpt lat="51.689836" lon="5.707350">
        <ele>17.459808</ele>
        <time>2025-05-16T12:59:32.054Z</time>
      </trkpt>
      <trkpt lat="51.689958" lon="5.707566">
        <ele>17.472710</ele>
        <time>2025-05-16T12:59:35.716Z</time>
      </trkpt>
      <trkpt lat="51.690354" lon="5.708173">
        <ele>17.511616</ele>
        <time>2025-05-16T12:59:46.876Z</time>
      </trkpt>
      <trkpt lat="51.690344" lon="5.708250">
        <ele>17.515090</ele>
        <time>2025-05-16T12:59:47.890Z</time>
      </trkpt>
      <trkpt lat="51.690257" lon="5.708187">
        <ele>17.521882</ele>
        <time>2025-05-16T12:59:49.359Z</time>
      </trkpt>
      <trkpt lat="51.690030" lon="5.707910">
        <ele>17.542154</ele>
        <time>2025-05-16T12:59:53.799Z</time>
      </trkpt>
      <trkpt lat="51.689599" lon="5.708326">
        <ele>17.577926</ele>
        <time>2025-05-16T13:00:04.263Z</time>
      </trkpt>
      <trkpt lat="51.689442" lon="5.708539">
        <ele>17.587069</ele>
        <time>2025-05-16T13:00:08.552Z</time>
      </trkpt>
      <trkpt lat="51.688723" lon="5.709805">
        <ele>17.622224</ele>
        <time>2025-05-16T13:00:30.400Z</time>
      </trkpt>
      <trkpt lat="51.688650" lon="5.709995">
        <ele>17.626801</ele>
        <time>2025-05-16T13:00:33.202Z</time>
      </trkpt>
      <trkpt lat="51.688248" lon="5.714355">
        <ele>17.424320</ele>
        <time>2025-05-16T13:01:27.202Z</time>
      </trkpt>
      <trkpt lat="51.688119" lon="5.715750">
        <ele>17.372897</ele>
        <time>2025-05-16T13:01:44.563Z</time>
      </trkpt>
      <trkpt lat="51.688110" lon="5.715989">
        <ele>17.364168</ele>
        <time>2025-05-16T13:01:47.542Z</time>
      </trkpt>
      <trkpt lat="51.688145" lon="5.716462">
        <ele>17.347070</ele>
        <time>2025-05-16T13:01:53.537Z</time>
      </trkpt>
      <trkpt lat="51.688230" lon="5.717424">
        <ele>17.475781</ele>
        <time>2025-05-16T13:02:06.008Z</time>
      </trkpt>
      <trkpt lat="51.686869" lon="5.717833">
        <ele>17.770182</ele>
        <time>2025-05-16T13:02:35.529Z</time>
      </trkpt>
      <trkpt lat="51.683731" lon="5.718807">
        <ele>18.250646</ele>
        <time>2025-05-16T13:03:42.688Z</time>
      </trkpt>
      <trkpt lat="51.683666" lon="5.718864">
        <ele>18.257571</ele>
        <time>2025-05-16T13:03:44.147Z</time>
      </trkpt>
      <trkpt lat="51.683646" lon="5.718995">
        <ele>18.265400</ele>
        <time>2025-05-16T13:03:45.799Z</time>
      </trkpt>
      <trkpt lat="51.683810" lon="5.722099">
        <ele>17.636301</ele>
        <time>2025-05-16T13:04:22.145Z</time>
      </trkpt>
      <trkpt lat="51.683790" lon="5.722380">
        <ele>17.602266</ele>
        <time>2025-05-16T13:04:25.448Z</time>
      </trkpt>
      <trkpt lat="51.683730" lon="5.722680">
        <ele>17.564335</ele>
        <time>2025-05-16T13:04:29.159Z</time>
      </trkpt>
      <trkpt lat="51.683550" lon="5.723110">
        <ele>17.501904</ele>
        <time>2025-05-16T13:04:35.336Z</time>
      </trkpt>
      <trkpt lat="51.683320" lon="5.723377">
        <ele>17.446905</ele>
        <time>2025-05-16T13:04:40.849Z</time>
      </trkpt>
      <trkpt lat="51.681449" lon="5.725028">
        <ele>17.309431</ele>
        <time>2025-05-16T13:05:23.894Z</time>
      </trkpt>
      <trkpt lat="51.681483" lon="5.725395">
        <ele>17.310607</ele>
        <time>2025-05-16T13:05:28.585Z</time>
      </trkpt>
      <trkpt lat="51.681525" lon="5.729930">
        <ele>17.384073</ele>
        <time>2025-05-16T13:06:25.814Z</time>
      </trkpt>
      <trkpt lat="51.681510" lon="5.730287">
        <ele>17.387732</ele>
        <time>2025-05-16T13:06:30.210Z</time>
      </trkpt>
      <trkpt lat="51.681414" lon="5.730433">
        <ele>17.389907</ele>
        <time>2025-05-16T13:06:32.838Z</time>
      </trkpt>
      <trkpt lat="51.681259" lon="5.730566">
        <ele>17.392802</ele>
        <time>2025-05-16T13:06:36.335Z</time>
      </trkpt>
      <trkpt lat="51.681226" lon="5.730663">
        <ele>17.393934</ele>
        <time>2025-05-16T13:06:37.727Z</time>
      </trkpt>
      <trkpt lat="51.681522" lon="5.731872">
        <ele>17.401407</ele>
        <time>2025-05-16T13:06:54.173Z</time>
      </trkpt>
      <trkpt lat="51.681757" lon="5.732944">
        <ele>17.403672</ele>
        <time>2025-05-16T13:07:08.481Z</time>
      </trkpt>
      <trkpt lat="51.681820" lon="5.733342">
        <ele>17.404490</ele>
        <time>2025-05-16T13:07:13.638Z</time>
      </trkpt>
      <trkpt lat="51.681860" lon="5.733820">
        <ele>17.405451</ele>
        <time>2025-05-16T13:07:19.735Z</time>
      </trkpt>
      <trkpt lat="51.681790" lon="5.734030">
        <ele>17.408553</ele>
        <time>2025-05-16T13:07:22.732Z</time>
      </trkpt>
      <trkpt lat="51.681690" lon="5.734130">
        <ele>17.415648</ele>
        <time>2025-05-16T13:07:25.102Z</time>
      </trkpt>
      <trkpt lat="51.681476" lon="5.734266">
        <ele>17.429519</ele>
        <time>2025-05-16T13:07:29.700Z</time>
      </trkpt>
      <trkpt lat="51.681991" lon="5.738145">
        <ele>17.608075</ele>
        <time>2025-05-16T13:08:20.117Z</time>
      </trkpt>
      <trkpt lat="51.682411" lon="5.741310">
        <ele>17.710411</ele>
        <time>2025-05-16T13:09:01.403Z</time>
      </trkpt>
      <trkpt lat="51.684786" lon="5.740457">
        <ele>17.644888</ele>
        <time>2025-05-16T13:09:36.653Z</time>
      </trkpt>
      <trkpt lat="51.686333" lon="5.739904">
        <ele>18.159066</ele>
        <time>2025-05-16T13:10:02.710Z</time>
      </trkpt>
      <trkpt lat="51.687070" lon="5.739620">
        <ele>18.305722</ele>
        <time>2025-05-16T13:10:18.975Z</time>
      </trkpt>
      <trkpt lat="51.688440" lon="5.738931">
        <ele>18.526363</ele>
        <time>2025-05-16T13:10:48.480Z</time>
      </trkpt>
      <trkpt lat="51.688438" lon="5.739338">
        <ele>18.548133</ele>
        <time>2025-05-16T13:10:52.269Z</time>
      </trkpt>
      <trkpt lat="51.688422" lon="5.742894">
        <ele>18.921150</ele>
        <time>2025-05-16T13:11:25.673Z</time>
      </trkpt>
      <trkpt lat="51.688410" lon="5.743401">
        <ele>19.009656</ele>
        <time>2025-05-16T13:11:30.805Z</time>
      </trkpt>
      <trkpt lat="51.688446" lon="5.743644">
        <ele>19.053238</ele>
        <time>2025-05-16T13:11:33.414Z</time>
      </trkpt>
      <trkpt lat="51.689430" lon="5.745390">
        <ele>19.421736</ele>
        <time>2025-05-16T13:11:58.485Z</time>
      </trkpt>
      <trkpt lat="51.689582" lon="5.745656">
        <ele>19.475810</ele>
        <time>2025-05-16T13:12:01.957Z</time>
      </trkpt>
      <trkpt lat="51.689370" lon="5.746832">
        <ele>19.445210</ele>
        <time>2025-05-16T13:12:16.554Z</time>
      </trkpt>
      <trkpt lat="51.689066" lon="5.748993">
        <ele>18.627398</ele>
        <time>2025-05-16T13:12:41.273Z</time>
      </trkpt>
      <trkpt lat="51.688989" lon="5.749483">
        <ele>18.457581</ele>
        <time>2025-05-16T13:12:47.002Z</time>
      </trkpt>
      <trkpt lat="51.688622" lon="5.751977">
        <ele>17.696457</ele>
        <time>2025-05-16T13:13:16.463Z</time>
      </trkpt>
      <trkpt lat="51.688581" lon="5.752182">
        <ele>17.661036</ele>
        <time>2025-05-16T13:13:19.022Z</time>
      </trkpt>
      <trkpt lat="51.688468" lon="5.752445">
        <ele>17.649459</ele>
        <time>2025-05-16T13:13:22.836Z</time>
      </trkpt>
      <trkpt lat="51.688419" lon="5.752596">
        <ele>17.643292</ele>
        <time>2025-05-16T13:13:24.893Z</time>
      </trkpt>
      <trkpt lat="51.688328" lon="5.753089">
        <ele>17.624681</ele>
        <time>2025-05-16T13:13:31.160Z</time>
      </trkpt>
      <trkpt lat="51.687690" lon="5.754467">
        <ele>17.562454</ele>
        <time>2025-05-16T13:13:52.954Z</time>
      </trkpt>
      <trkpt lat="51.687620" lon="5.754709">
        <ele>17.577837</ele>
        <time>2025-05-16T13:13:56.418Z</time>
      </trkpt>
      <trkpt lat="51.686965" lon="5.756627">
        <ele>17.772986</ele>
        <time>2025-05-16T13:14:24.417Z</time>
      </trkpt>
      <trkpt lat="51.686885" lon="5.756794">
        <ele>17.791794</ele>
        <time>2025-05-16T13:14:27.131Z</time>
      </trkpt>
      <trkpt lat="51.686812" lon="5.756995">
        <ele>17.812555</ele>
        <time>2025-05-16T13:14:30.129Z</time>
      </trkpt>
      <trkpt lat="51.686734" lon="5.757265">
        <ele>17.887140</ele>
        <time>2025-05-16T13:14:33.984Z</time>
      </trkpt>
      <trkpt lat="51.686059" lon="5.759284">
        <ele>18.570175</ele>
        <time>2025-05-16T13:15:05.555Z</time>
      </trkpt>
      <trkpt lat="51.685765" lon="5.760127">
        <ele>18.738361</ele>
        <time>2025-05-16T13:15:19.539Z</time>
      </trkpt>
      <trkpt lat="51.685625" lon="5.760687">
        <ele>18.795556</ele>
        <time>2025-05-16T13:15:27.954Z</time>
      </trkpt>
      <trkpt lat="51.685602" lon="5.761026">
        <ele>18.827858</ele>
        <time>2025-05-16T13:15:32.575Z</time>
      </trkpt>
      <trkpt lat="51.685841" lon="5.764384">
        <ele>18.489958</ele>
        <time>2025-05-16T13:16:12.640Z</time>
      </trkpt>
      <trkpt lat="51.685907" lon="5.764399">
        <ele>18.465012</ele>
        <time>2025-05-16T13:16:15.023Z</time>
      </trkpt>
      <trkpt lat="51.685990" lon="5.765484">
        <ele>18.154480</ele>
        <time>2025-05-16T13:16:24.046Z</time>
      </trkpt>
      <trkpt lat="51.686117" lon="5.767140">
        <ele>17.464619</ele>
        <time>2025-05-16T13:16:37.284Z</time>
      </trkpt>
      <trkpt lat="51.686161" lon="5.767751">
        <ele>17.210314</ele>
        <time>2025-05-16T13:16:42.040Z</time>
      </trkpt>
      <trkpt lat="51.686231" lon="5.768735">
        <ele>16.875120</ele>
        <time>2025-05-16T13:16:49.866Z</time>
      </trkpt>
      <trkpt lat="51.686191" lon="5.768753">
        <ele>16.854676</ele>
        <time>2025-05-16T13:16:50.640Z</time>
      </trkpt>
      <trkpt lat="51.686200" lon="5.768999">
        <ele>16.779465</ele>
        <time>2025-05-16T13:16:53.420Z</time>
      </trkpt>
      <trkpt lat="51.686246" lon="5.768955">
        <ele>16.753138</ele>
        <time>2025-05-16T13:16:54.378Z</time>
      </trkpt>
      <trkpt lat="51.686324" lon="5.770107">
        <ele>16.399451</ele>
        <time>2025-05-16T13:17:04.274Z</time>
      </trkpt>
      <trkpt lat="51.686427" lon="5.771629">
        <ele>15.836226</ele>
        <time>2025-05-16T13:17:16.972Z</time>
      </trkpt>
      <trkpt lat="51.686432" lon="5.772453">
        <ele>15.494349</ele>
        <time>2025-05-16T13:17:23.405Z</time>
      </trkpt>
      <trkpt lat="51.686434" lon="5.772767">
        <ele>15.364071</ele>
        <time>2025-05-16T13:17:25.793Z</time>
      </trkpt>
      <trkpt lat="51.686419" lon="5.773599">
        <ele>15.018746</ele>
        <time>2025-05-16T13:17:32.125Z</time>
      </trkpt>
      <trkpt lat="51.686418" lon="5.773899">
        <ele>14.978791</ele>
        <time>2025-05-16T13:17:34.549Z</time>
      </trkpt>
      <trkpt lat="51.686370" lon="5.773904">
        <ele>14.973470</ele>
        <time>2025-05-16T13:17:35.455Z</time>
      </trkpt>
      <trkpt lat="51.686361" lon="5.774850">
        <ele>14.908593</ele>
        <time>2025-05-16T13:17:47.266Z</time>
      </trkpt>
      <trkpt lat="51.686367" lon="5.775134">
        <ele>14.889107</ele>
        <time>2025-05-16T13:17:50.756Z</time>
      </trkpt>
      <trkpt lat="51.686373" lon="5.775449">
        <ele>14.867496</ele>
        <time>2025-05-16T13:17:54.576Z</time>
      </trkpt>
      <trkpt lat="51.686436" lon="5.775999">
        <ele>14.829143</ele>
        <time>2025-05-16T13:18:01.591Z</time>
      </trkpt>
      <trkpt lat="51.686469" lon="5.776525">
        <ele>14.817478</ele>
        <time>2025-05-16T13:18:08.472Z</time>
      </trkpt>
      <trkpt lat="51.686476" lon="5.776580">
        <ele>14.839271</ele>
        <time>2025-05-16T13:18:09.202Z</time>
      </trkpt>
      <trkpt lat="51.686490" lon="5.776694">
        <ele>14.884378</ele>
        <time>2025-05-16T13:18:10.759Z</time>
      </trkpt>
      <trkpt lat="51.686492" lon="5.776938">
        <ele>14.979091</ele>
        <time>2025-05-16T13:18:14.046Z</time>
      </trkpt>
      <trkpt lat="51.686469" lon="5.777080">
        <ele>15.036056</ele>
        <time>2025-05-16T13:18:16.029Z</time>
      </trkpt>
      <trkpt lat="51.686456" lon="5.777226">
        <ele>15.093305</ele>
        <time>2025-05-16T13:18:18.026Z</time>
      </trkpt>
      <trkpt lat="51.686456" lon="5.777311">
        <ele>15.126297</ele>
        <time>2025-05-16T13:18:19.170Z</time>
      </trkpt>
      <trkpt lat="51.686478" lon="5.777574">
        <ele>15.229302</ele>
        <time>2025-05-16T13:18:22.765Z</time>
      </trkpt>
      <trkpt lat="51.686483" lon="5.777965">
        <ele>15.381095</ele>
        <time>2025-05-16T13:18:28.122Z</time>
      </trkpt>
      <trkpt lat="51.686449" lon="5.778221">
        <ele>15.482712</ele>
        <time>2025-05-16T13:18:31.750Z</time>
      </trkpt>
      <trkpt lat="51.686472" lon="5.778363">
        <ele>15.539677</ele>
        <time>2025-05-16T13:18:33.795Z</time>
      </trkpt>
      <trkpt lat="51.686456" lon="5.778374">
        <ele>15.550566</ele>
        <time>2025-05-16T13:18:34.094Z</time>
      </trkpt>
      <trkpt lat="51.686418" lon="5.778429">
        <ele>15.582530</ele>
        <time>2025-05-16T13:18:35.013Z</time>
      </trkpt>
      <trkpt lat="51.686402" lon="5.778588">
        <ele>15.645051</ele>
        <time>2025-05-16T13:18:36.802Z</time>
      </trkpt>
      <trkpt lat="51.686467" lon="5.778703">
        <ele>15.705453</ele>
        <time>2025-05-16T13:18:38.648Z</time>
      </trkpt>
      <trkpt lat="51.686515" lon="5.778718">
        <ele>15.736062</ele>
        <time>2025-05-16T13:18:39.587Z</time>
      </trkpt>
      <trkpt lat="51.686556" lon="5.779323">
        <ele>15.984176</ele>
        <time>2025-05-16T13:18:47.089Z</time>
      </trkpt>
      <trkpt lat="51.686559" lon="5.779337">
        <ele>15.991303</ele>
        <time>2025-05-16T13:18:47.262Z</time>
      </trkpt>
      <trkpt lat="51.686600" lon="5.779707">
        <ele>16.172141</ele>
        <time>2025-05-16T13:18:51.858Z</time>
      </trkpt>
      <trkpt lat="51.686676" lon="5.780155">
        <ele>16.395609</ele>
        <time>2025-05-16T13:18:57.571Z</time>
      </trkpt>
      <trkpt lat="51.686780" lon="5.780490">
        <ele>16.575864</ele>
        <time>2025-05-16T13:19:02.089Z</time>
      </trkpt>
      <trkpt lat="51.687070" lon="5.781320">
        <ele>17.034249</ele>
        <time>2025-05-16T13:19:12.469Z</time>
      </trkpt>
      <trkpt lat="51.687118" lon="5.781445">
        <ele>17.104991</ele>
        <time>2025-05-16T13:19:13.965Z</time>
      </trkpt>
      <trkpt lat="51.687160" lon="5.781556">
        <ele>17.167556</ele>
        <time>2025-05-16T13:19:15.310Z</time>
      </trkpt>
      <trkpt lat="51.687491" lon="5.782439">
        <ele>16.871390</ele>
        <time>2025-05-16T13:19:25.171Z</time>
      </trkpt>
      <trkpt lat="51.687645" lon="5.782857">
        <ele>16.568673</ele>
        <time>2025-05-16T13:19:29.192Z</time>
      </trkpt>
      <trkpt lat="51.687702" lon="5.783042">
        <ele>16.440058</ele>
        <time>2025-05-16T13:19:30.794Z</time>
      </trkpt>
      <trkpt lat="51.687776" lon="5.783534">
        <ele>16.124871</ele>
        <time>2025-05-16T13:19:34.419Z</time>
      </trkpt>
      <trkpt lat="51.687840" lon="5.783909">
        <ele>15.882725</ele>
        <time>2025-05-16T13:19:37.056Z</time>
      </trkpt>
      <trkpt lat="51.687971" lon="5.784724">
        <ele>15.253067</ele>
        <time>2025-05-16T13:19:42.752Z</time>
      </trkpt>
      <trkpt lat="51.687962" lon="5.784864">
        <ele>15.105297</ele>
        <time>2025-05-16T13:19:43.719Z</time>
      </trkpt>
      <trkpt lat="51.687942" lon="5.784977">
        <ele>14.981921</ele>
        <time>2025-05-16T13:19:44.512Z</time>
      </trkpt>
      <trkpt lat="51.687872" lon="5.785005">
        <ele>14.859785</ele>
        <time>2025-05-16T13:19:45.320Z</time>
      </trkpt>
      <trkpt lat="51.687834" lon="5.785105">
        <ele>14.736644</ele>
        <time>2025-05-16T13:19:46.112Z</time>
      </trkpt>
      <trkpt lat="51.687866" lon="5.785241">
        <ele>14.583923</ele>
        <time>2025-05-16T13:19:47.104Z</time>
      </trkpt>
      <trkpt lat="51.687824" lon="5.785315">
        <ele>14.478590</ele>
        <time>2025-05-16T13:19:48.070Z</time>
      </trkpt>
      <trkpt lat="51.687885" lon="5.785490">
        <ele>14.267811</ele>
        <time>2025-05-16T13:19:49.435Z</time>
      </trkpt>
      <trkpt lat="51.687917" lon="5.785641">
        <ele>14.100273</ele>
        <time>2025-05-16T13:19:50.507Z</time>
      </trkpt>
      <trkpt lat="51.687921" lon="5.785658">
        <ele>14.081183</ele>
        <time>2025-05-16T13:19:50.627Z</time>
      </trkpt>
      <trkpt lat="51.687971" lon="5.785734">
        <ele>13.964837</ele>
        <time>2025-05-16T13:19:51.378Z</time>
      </trkpt>
      <trkpt lat="51.688330" lon="5.786160">
        <ele>13.210084</ele>
        <time>2025-05-16T13:19:56.352Z</time>
      </trkpt>
      <trkpt lat="51.688437" lon="5.786228">
        <ele>13.015323</ele>
        <time>2025-05-16T13:19:57.702Z</time>
      </trkpt>
      <trkpt lat="51.688517" lon="5.786259">
        <ele>12.875989</ele>
        <time>2025-05-16T13:19:58.677Z</time>
      </trkpt>
      <trkpt lat="51.688596" lon="5.786631">
        <ele>12.464708</ele>
        <time>2025-05-16T13:20:03.007Z</time>
      </trkpt>
      <trkpt lat="51.688598" lon="5.787020">
        <ele>12.260861</ele>
        <time>2025-05-16T13:20:07.332Z</time>
      </trkpt>
      <trkpt lat="51.688616" lon="5.789840">
        <ele>10.890325</ele>
        <time>2025-05-16T13:20:38.199Z</time>
      </trkpt>
      <trkpt lat="51.688724" lon="5.790221">
        <ele>10.815385</ele>
        <time>2025-05-16T13:20:43.047Z</time>
      </trkpt>
      <trkpt lat="51.689736" lon="5.792489">
        <ele>10.363022</ele>
        <time>2025-05-16T13:21:17.243Z</time>
      </trkpt>
      <trkpt lat="51.689773" lon="5.792617">
        <ele>10.348531</ele>
        <time>2025-05-16T13:21:18.962Z</time>
      </trkpt>
      <trkpt lat="51.689725" lon="5.793118">
        <ele>10.296513</ele>
        <time>2025-05-16T13:21:25.139Z</time>
      </trkpt>
      <trkpt lat="51.689748" lon="5.793314">
        <ele>10.276044</ele>
        <time>2025-05-16T13:21:27.551Z</time>
      </trkpt>
      <trkpt lat="51.689798" lon="5.793477">
        <ele>10.257383</ele>
        <time>2025-05-16T13:21:29.759Z</time>
      </trkpt>
      <trkpt lat="51.690070" lon="5.794770">
        <ele>10.121721</ele>
        <time>2025-05-16T13:21:46.189Z</time>
      </trkpt>
      <trkpt lat="51.690240" lon="5.795550">
        <ele>10.068474</ele>
        <time>2025-05-16T13:21:56.301Z</time>
      </trkpt>
      <trkpt lat="51.690240" lon="5.795700">
        <ele>10.058814</ele>
        <time>2025-05-16T13:21:58.126Z</time>
      </trkpt>
      <trkpt lat="51.690238" lon="5.795865">
        <ele>10.048186</ele>
        <time>2025-05-16T13:22:00.138Z</time>
      </trkpt>
      <trkpt lat="51.690178" lon="5.796050">
        <ele>10.034740</ele>
        <time>2025-05-16T13:22:02.699Z</time>
      </trkpt>
      <trkpt lat="51.689890" lon="5.796369">
        <ele>9.998446</ele>
        <time>2025-05-16T13:22:09.694Z</time>
      </trkpt>
      <trkpt lat="51.690121" lon="5.796880">
        <ele>9.957717</ele>
        <time>2025-05-16T13:22:17.601Z</time>
      </trkpt>
      <trkpt lat="51.690149" lon="5.797050">
        <ele>9.946389</ele>
        <time>2025-05-16T13:22:19.218Z</time>
      </trkpt>
      <trkpt lat="51.690681" lon="5.797878">
        <ele>9.977997</ele>
        <time>2025-05-16T13:22:30.259Z</time>
      </trkpt>
      <trkpt lat="51.694072" lon="5.802939">
        <ele>10.166852</ele>
        <time>2025-05-16T13:23:39.726Z</time>
      </trkpt>
      <trkpt lat="51.697404" lon="5.807975">
        <ele>9.880524</ele>
        <time>2025-05-16T13:24:46.063Z</time>
      </trkpt>
      <trkpt lat="51.697488" lon="5.808005">
        <ele>9.880747</ele>
        <time>2025-05-16T13:24:47.351Z</time>
      </trkpt>
      <trkpt lat="51.697509" lon="5.808038">
        <ele>9.880823</ele>
        <time>2025-05-16T13:24:47.962Z</time>
      </trkpt>
      <trkpt lat="51.697677" lon="5.808300">
        <ele>9.881428</ele>
        <time>2025-05-16T13:24:52.696Z</time>
      </trkpt>
      <trkpt lat="51.697769" lon="5.808363">
        <ele>9.881687</ele>
        <time>2025-05-16T13:24:54.737Z</time>
      </trkpt>
      <trkpt lat="51.697875" lon="5.808611">
        <ele>9.882170</ele>
        <time>2025-05-16T13:24:58.527Z</time>
      </trkpt>
      <trkpt lat="51.696066" lon="5.811440">
        <ele>9.860391</ele>
        <time>2025-05-16T13:25:49.269Z</time>
      </trkpt>
      <trkpt lat="51.695556" lon="5.812195">
        <ele>9.909881</ele>
        <time>2025-05-16T13:26:03.581Z</time>
      </trkpt>
      <trkpt lat="51.695040" lon="5.812790">
        <ele>9.955229</ele>
        <time>2025-05-16T13:26:16.707Z</time>
      </trkpt>
      <trkpt lat="51.694583" lon="5.813225">
        <ele>9.857350</ele>
        <time>2025-05-16T13:26:27.420Z</time>
      </trkpt>
      <trkpt lat="51.693750" lon="5.813665">
        <ele>9.686002</ele>
        <time>2025-05-16T13:26:44.356Z</time>
      </trkpt>
      <trkpt lat="51.693193" lon="5.814033">
        <ele>9.581560</ele>
        <time>2025-05-16T13:26:55.637Z</time>
      </trkpt>
      <trkpt lat="51.692564" lon="5.814464">
        <ele>9.495910</ele>
        <time>2025-05-16T13:27:08.818Z</time>
      </trkpt>
      <trkpt lat="51.691263" lon="5.815140">
        <ele>9.428301</ele>
        <time>2025-05-16T13:27:36.853Z</time>
      </trkpt>
      <trkpt lat="51.690924" lon="5.815239">
        <ele>9.466309</ele>
        <time>2025-05-16T13:27:44.112Z</time>
      </trkpt>
      <trkpt lat="51.688330" lon="5.815250">
        <ele>9.569985</ele>
        <time>2025-05-16T13:28:37.218Z</time>
      </trkpt>
      <trkpt lat="51.688350" lon="5.815520">
        <ele>9.569110</ele>
        <time>2025-05-16T13:28:39.539Z</time>
      </trkpt>
      <trkpt lat="51.688495" lon="5.815984">
        <ele>9.548144</ele>
        <time>2025-05-16T13:28:43.994Z</time>
      </trkpt>
      <trkpt lat="51.688557" lon="5.816288">
        <ele>9.533041</ele>
        <time>2025-05-16T13:28:46.748Z</time>
      </trkpt>
      <trkpt lat="51.688577" lon="5.816579">
        <ele>9.519223</ele>
        <time>2025-05-16T13:28:49.291Z</time>
      </trkpt>
      <trkpt lat="51.688610" lon="5.816830">
        <ele>9.507114</ele>
        <time>2025-05-16T13:28:51.521Z</time>
      </trkpt>
      <trkpt lat="51.688670" lon="5.817130">
        <ele>9.492237</ele>
        <time>2025-05-16T13:28:55.329Z</time>
      </trkpt>
      <trkpt lat="51.689020" lon="5.820030">
        <ele>9.514847</ele>
        <time>2025-05-16T13:29:33.388Z</time>
      </trkpt>
      <trkpt lat="51.689150" lon="5.821290">
        <ele>9.573683</ele>
        <time>2025-05-16T13:29:49.376Z</time>
      </trkpt>
      <trkpt lat="51.689483" lon="5.824086">
        <ele>9.478293</ele>
        <time>2025-05-16T13:30:24.461Z</time>
      </trkpt>
      <trkpt lat="51.689821" lon="5.826785">
        <ele>9.786193</ele>
        <time>2025-05-16T13:31:00.488Z</time>
      </trkpt>
      <trkpt lat="51.689960" lon="5.827310">
        <ele>9.817720</ele>
        <time>2025-05-16T13:31:07.840Z</time>
      </trkpt>
      <trkpt lat="51.690560" lon="5.828750">
        <ele>9.878564</ele>
        <time>2025-05-16T13:31:29.630Z</time>
      </trkpt>
      <trkpt lat="51.690560" lon="5.828811">
        <ele>9.880703</ele>
        <time>2025-05-16T13:31:30.383Z</time>
      </trkpt>
      <trkpt lat="51.690560" lon="5.828840">
        <ele>9.881720</ele>
        <time>2025-05-16T13:31:30.652Z</time>
      </trkpt>
      <trkpt lat="51.689723" lon="5.829757">
        <ele>10.002570</ele>
        <time>2025-05-16T13:31:45.735Z</time>
      </trkpt>
      <trkpt lat="51.686326" lon="5.833413">
        <ele>10.502682</ele>
        <time>2025-05-16T13:32:49.375Z</time>
      </trkpt>
      <trkpt lat="51.685917" lon="5.833853">
        <ele>10.510159</ele>
        <time>2025-05-16T13:32:56.395Z</time>
      </trkpt>
      <trkpt lat="51.685662" lon="5.834041">
        <ele>10.497252</ele>
        <time>2025-05-16T13:33:00.307Z</time>
      </trkpt>
      <trkpt lat="51.684190" lon="5.835612">
        <ele>10.065209</ele>
        <time>2025-05-16T13:33:24.710Z</time>
      </trkpt>
      <trkpt lat="51.683129" lon="5.836754">
        <ele>9.942373</ele>
        <time>2025-05-16T13:33:43.423Z</time>
      </trkpt>
      <trkpt lat="51.682896" lon="5.836872">
        <ele>9.918855</ele>
        <time>2025-05-16T13:33:46.992Z</time>
      </trkpt>
      <trkpt lat="51.682796" lon="5.836902">
        <ele>9.909060</ele>
        <time>2025-05-16T13:33:48.458Z</time>
      </trkpt>
      <trkpt lat="51.682725" lon="5.836909">
        <ele>9.902210</ele>
        <time>2025-05-16T13:33:49.863Z</time>
      </trkpt>
      <trkpt lat="51.682757" lon="5.837300">
        <ele>9.855251</ele>
        <time>2025-05-16T13:33:53.353Z</time>
      </trkpt>
      <trkpt lat="51.682870" lon="5.840000">
        <ele>9.474679</ele>
        <time>2025-05-16T13:34:16.577Z</time>
      </trkpt>
      <trkpt lat="51.682847" lon="5.840480">
        <ele>9.475297</ele>
        <time>2025-05-16T13:34:22.510Z</time>
      </trkpt>
      <trkpt lat="51.682729" lon="5.841340">
        <ele>9.476428</ele>
        <time>2025-05-16T13:34:33.627Z</time>
      </trkpt>
      <trkpt lat="51.682654" lon="5.841659">
        <ele>9.476866</ele>
        <time>2025-05-16T13:34:37.972Z</time>
      </trkpt>
      <trkpt lat="51.682486" lon="5.842181">
        <ele>9.477621</ele>
        <time>2025-05-16T13:34:45.524Z</time>
      </trkpt>
      <trkpt lat="51.682400" lon="5.842404">
        <ele>9.477958</ele>
        <time>2025-05-16T13:34:48.864Z</time>
      </trkpt>
      <trkpt lat="51.682354" lon="5.842492">
        <ele>9.478106</ele>
        <time>2025-05-16T13:34:50.314Z</time>
      </trkpt>
      <trkpt lat="51.682178" lon="5.842626">
        <ele>9.470320</ele>
        <time>2025-05-16T13:34:54.308Z</time>
      </trkpt>
      <trkpt lat="51.682026" lon="5.842723">
        <ele>9.457334</ele>
        <time>2025-05-16T13:34:57.644Z</time>
      </trkpt>
      <trkpt lat="51.681973" lon="5.842780">
        <ele>9.452273</ele>
        <time>2025-05-16T13:34:58.594Z</time>
      </trkpt>
      <trkpt lat="51.681939" lon="5.842891">
        <ele>9.446174</ele>
        <time>2025-05-16T13:34:59.754Z</time>
      </trkpt>
      <trkpt lat="51.682001" lon="5.843301">
        <ele>9.425387</ele>
        <time>2025-05-16T13:35:03.618Z</time>
      </trkpt>
      <trkpt lat="51.681975" lon="5.843605">
        <ele>9.410271</ele>
        <time>2025-05-16T13:35:06.343Z</time>
      </trkpt>
      <trkpt lat="51.681150" lon="5.845987">
        <ele>9.391249</ele>
        <time>2025-05-16T13:35:30.415Z</time>
      </trkpt>
      <trkpt lat="51.680786" lon="5.847292">
        <ele>9.457359</ele>
        <time>2025-05-16T13:35:44.178Z</time>
      </trkpt>
      <trkpt lat="51.680294" lon="5.849599">
        <ele>9.764113</ele>
        <time>2025-05-16T13:36:08.941Z</time>
      </trkpt>
      <trkpt lat="51.680023" lon="5.851083">
        <ele>9.760807</ele>
        <time>2025-05-16T13:36:23.003Z</time>
      </trkpt>
      <trkpt lat="51.679919" lon="5.851757">
        <ele>9.675707</ele>
        <time>2025-05-16T13:36:28.749Z</time>
      </trkpt>
      <trkpt lat="51.679822" lon="5.852587">
        <ele>9.572221</ele>
        <time>2025-05-16T13:36:35.831Z</time>
      </trkpt>
      <trkpt lat="51.679788" lon="5.853463">
        <ele>9.530352</ele>
        <time>2025-05-16T13:36:43.470Z</time>
      </trkpt>
      <trkpt lat="51.679778" lon="5.857590">
        <ele>9.842817</ele>
        <time>2025-05-16T13:37:23.385Z</time>
      </trkpt>
      <trkpt lat="51.679792" lon="5.857903">
        <ele>9.869384</ele>
        <time>2025-05-16T13:37:26.383Z</time>
      </trkpt>
      <trkpt lat="51.679841" lon="5.858388">
        <ele>9.910985</ele>
        <time>2025-05-16T13:37:31.010Z</time>
      </trkpt>
      <trkpt lat="51.679925" lon="5.858886">
        <ele>9.954678</ele>
        <time>2025-05-16T13:37:35.945Z</time>
      </trkpt>
      <trkpt lat="51.680037" lon="5.859363">
        <ele>9.918334</ele>
        <time>2025-05-16T13:37:40.789Z</time>
      </trkpt>
      <trkpt lat="51.680202" lon="5.859880">
        <ele>9.874620</ele>
        <time>2025-05-16T13:37:46.094Z</time>
      </trkpt>
      <trkpt lat="51.680474" lon="5.860450">
        <ele>9.820548</ele>
        <time>2025-05-16T13:37:52.390Z</time>
      </trkpt>
      <trkpt lat="51.680689" lon="5.860807">
        <ele>9.783135</ele>
        <time>2025-05-16T13:37:56.589Z</time>
      </trkpt>
      <trkpt lat="51.680730" lon="5.860875">
        <ele>9.776004</ele>
        <time>2025-05-16T13:37:57.369Z</time>
      </trkpt>
      <trkpt lat="51.681080" lon="5.861313">
        <ele>9.758671</ele>
        <time>2025-05-16T13:38:03.354Z</time>
      </trkpt>
      <trkpt lat="51.681656" lon="5.861818">
        <ele>9.867320</ele>
        <time>2025-05-16T13:38:13.300Z</time>
      </trkpt>
      <trkpt lat="51.681694" lon="5.861896">
        <ele>9.877513</ele>
        <time>2025-05-16T13:38:14.220Z</time>
      </trkpt>
      <trkpt lat="51.681746" lon="5.862154">
        <ele>9.905389</ele>
        <time>2025-05-16T13:38:16.840Z</time>
      </trkpt>
      <trkpt lat="51.681801" lon="5.862387">
        <ele>9.931007</ele>
        <time>2025-05-16T13:38:19.288Z</time>
      </trkpt>
      <trkpt lat="51.681851" lon="5.862470">
        <ele>9.942897</ele>
        <time>2025-05-16T13:38:20.481Z</time>
      </trkpt>
      <trkpt lat="51.682026" lon="5.862497">
        <ele>9.972031</ele>
        <time>2025-05-16T13:38:23.327Z</time>
      </trkpt>
      <trkpt lat="51.682048" lon="5.862602">
        <ele>9.983420</ele>
        <time>2025-05-16T13:38:24.406Z</time>
      </trkpt>
      <trkpt lat="51.682156" lon="5.862748">
        <ele>10.006773</ele>
        <time>2025-05-16T13:38:26.745Z</time>
      </trkpt>
      <trkpt lat="51.682212" lon="5.862842">
        <ele>10.020168</ele>
        <time>2025-05-16T13:38:28.150Z</time>
      </trkpt>
      <trkpt lat="51.682243" lon="5.862970">
        <ele>10.034288</ele>
        <time>2025-05-16T13:38:29.559Z</time>
      </trkpt>
      <trkpt lat="51.682160" lon="5.864020">
        <ele>10.226200</ele>
        <time>2025-05-16T13:38:41.013Z</time>
      </trkpt>
      <trkpt lat="51.682314" lon="5.867391">
        <ele>10.682856</ele>
        <time>2025-05-16T13:39:13.028Z</time>
      </trkpt>
      <trkpt lat="51.682236" lon="5.870462">
        <ele>10.813977</ele>
        <time>2025-05-16T13:39:42.228Z</time>
      </trkpt>
      <trkpt lat="51.682130" lon="5.874030">
        <ele>10.768338</ele>
        <time>2025-05-16T13:40:14.326Z</time>
      </trkpt>
      <trkpt lat="51.682120" lon="5.874350">
        <ele>10.759818</ele>
        <time>2025-05-16T13:40:17.303Z</time>
      </trkpt>
      <trkpt lat="51.682060" lon="5.876420">
        <ele>10.905667</ele>
        <time>2025-05-16T13:40:37.226Z</time>
      </trkpt>
      <trkpt lat="51.682070" lon="5.876780">
        <ele>10.935036</ele>
        <time>2025-05-16T13:40:40.692Z</time>
      </trkpt>
      <trkpt lat="51.682120" lon="5.877170">
        <ele>10.967493</ele>
        <time>2025-05-16T13:40:44.490Z</time>
      </trkpt>
      <trkpt lat="51.682440" lon="5.880930">
        <ele>11.104633</ele>
        <time>2025-05-16T13:41:19.912Z</time>
      </trkpt>
      <trkpt lat="51.682519" lon="5.882004">
        <ele>11.127125</ele>
        <time>2025-05-16T13:41:30.224Z</time>
      </trkpt>
      <trkpt lat="51.682770" lon="5.884580">
        <ele>10.960196</ele>
        <time>2025-05-16T13:41:53.673Z</time>
      </trkpt>
      <trkpt lat="51.682960" lon="5.887120">
        <ele>10.711136</ele>
        <time>2025-05-16T13:42:15.192Z</time>
      </trkpt>
      <trkpt lat="51.682962" lon="5.887830">
        <ele>10.682269</ele>
        <time>2025-05-16T13:42:21.630Z</time>
      </trkpt>
      <trkpt lat="51.682914" lon="5.888327">
        <ele>10.661819</ele>
        <time>2025-05-16T13:42:26.365Z</time>
      </trkpt>
      <trkpt lat="51.682839" lon="5.888695">
        <ele>10.646070</ele>
        <time>2025-05-16T13:42:30.156Z</time>
      </trkpt>
      <trkpt lat="51.682700" lon="5.889390">
        <ele>10.759393</ele>
        <time>2025-05-16T13:42:37.501Z</time>
      </trkpt>
      <trkpt lat="51.681682" lon="5.892991">
        <ele>11.603432</ele>
        <time>2025-05-16T13:43:18.120Z</time>
      </trkpt>
      <trkpt lat="51.681264" lon="5.894512">
        <ele>11.733916</ele>
        <time>2025-05-16T13:43:34.102Z</time>
      </trkpt>
      <trkpt lat="51.680810" lon="5.896250">
        <ele>11.278099</ele>
        <time>2025-05-16T13:43:49.834Z</time>
      </trkpt>
      <trkpt lat="51.680640" lon="5.897160">
        <ele>11.063421</ele>
        <time>2025-05-16T13:43:57.244Z</time>
      </trkpt>
      <trkpt lat="51.680480" lon="5.898300">
        <ele>10.853675</ele>
        <time>2025-05-16T13:44:06.869Z</time>
      </trkpt>
      <trkpt lat="51.680266" lon="5.899526">
        <ele>10.625119</ele>
        <time>2025-05-16T13:44:18.099Z</time>
      </trkpt>
      <trkpt lat="51.679220" lon="5.903570">
        <ele>11.019344</ele>
        <time>2025-05-16T13:45:00.726Z</time>
      </trkpt>
      <trkpt lat="51.678858" lon="5.904914">
        <ele>11.127449</ele>
        <time>2025-05-16T13:45:14.249Z</time>
      </trkpt>
      <trkpt lat="51.678031" lon="5.908033">
        <ele>11.447160</ele>
        <time>2025-05-16T13:45:46.860Z</time>
      </trkpt>
      <trkpt lat="51.677830" lon="5.908790">
        <ele>11.551754</ele>
        <time>2025-05-16T13:45:55.259Z</time>
      </trkpt>
      <trkpt lat="51.677573" lon="5.909727">
        <ele>11.681890</ele>
        <time>2025-05-16T13:46:05.592Z</time>
      </trkpt>
      <trkpt lat="51.676800" lon="5.913680">
        <ele>11.306684</ele>
        <time>2025-05-16T13:46:41.991Z</time>
      </trkpt>
      <trkpt lat="51.677930" lon="5.913280">
        <ele>10.912014</ele>
        <time>2025-05-16T13:47:02.942Z</time>
      </trkpt>
      <trkpt lat="51.679685" lon="5.912552">
        <ele>11.172836</ele>
        <time>2025-05-16T13:47:41.729Z</time>
      </trkpt>
      <trkpt lat="51.682066" lon="5.911476">
        <ele>11.680497</ele>
        <time>2025-05-16T13:48:33.923Z</time>
      </trkpt>
      <trkpt lat="51.682074" lon="5.911522">
        <ele>11.685338</ele>
        <time>2025-05-16T13:48:34.543Z</time>
      </trkpt>
      <trkpt lat="51.682254" lon="5.912553">
        <ele>11.793872</ele>
        <time>2025-05-16T13:48:48.392Z</time>
      </trkpt>
      <trkpt lat="51.682610" lon="5.914390">
        <ele>11.936408</ele>
        <time>2025-05-16T13:49:13.112Z</time>
      </trkpt>
      <trkpt lat="51.682680" lon="5.914940">
        <ele>11.952842</ele>
        <time>2025-05-16T13:49:20.242Z</time>
      </trkpt>
      <trkpt lat="51.682742" lon="5.916036">
        <ele>11.985055</ele>
        <time>2025-05-16T13:49:34.149Z</time>
      </trkpt>
      <trkpt lat="51.682747" lon="5.916065">
        <ele>11.985936</ele>
        <time>2025-05-16T13:49:34.518Z</time>
      </trkpt>
      <trkpt lat="51.682948" lon="5.917201">
        <ele>11.990747</ele>
        <time>2025-05-16T13:49:45.270Z</time>
      </trkpt>
      <trkpt lat="51.682940" lon="5.917280">
        <ele>11.989690</ele>
        <time>2025-05-16T13:49:46.262Z</time>
      </trkpt>
      <trkpt lat="51.682900" lon="5.917330">
        <ele>11.988612</ele>
        <time>2025-05-16T13:49:47.284Z</time>
      </trkpt>
      <trkpt lat="51.681655" lon="5.917849">
        <ele>11.953839</ele>
        <time>2025-05-16T13:50:13.287Z</time>
      </trkpt>
      <trkpt lat="51.681072" lon="5.918092">
        <ele>11.739274</ele>
        <time>2025-05-16T13:50:25.219Z</time>
      </trkpt>
      <trkpt lat="51.680765" lon="5.918312">
        <ele>11.619569</ele>
        <time>2025-05-16T13:50:31.664Z</time>
      </trkpt>
      <trkpt lat="51.680480" lon="5.918670">
        <ele>11.490847</ele>
        <time>2025-05-16T13:50:38.391Z</time>
      </trkpt>
      <trkpt lat="51.679930" lon="5.919460">
        <ele>11.194566</ele>
        <time>2025-05-16T13:50:51.660Z</time>
      </trkpt>
      <trkpt lat="51.679780" lon="5.919800">
        <ele>11.068599</ele>
        <time>2025-05-16T13:50:56.238Z</time>
      </trkpt>
      <trkpt lat="51.679750" lon="5.920030">
        <ele>10.997647</ele>
        <time>2025-05-16T13:50:58.831Z</time>
      </trkpt>
      <trkpt lat="51.679780" lon="5.920510">
        <ele>10.852012</ele>
        <time>2025-05-16T13:51:04.197Z</time>
      </trkpt>
      <trkpt lat="51.680208" lon="5.922823">
        <ele>10.627826</ele>
        <time>2025-05-16T13:51:33.393Z</time>
      </trkpt>
      <trkpt lat="51.680694" lon="5.925561">
        <ele>11.175353</ele>
        <time>2025-05-16T13:52:13.085Z</time>
      </trkpt>
      <trkpt lat="51.680758" lon="5.925875">
        <ele>11.251373</ele>
        <time>2025-05-16T13:52:16.414Z</time>
      </trkpt>
      <trkpt lat="51.681432" lon="5.928642">
        <ele>11.756743</ele>
        <time>2025-05-16T13:52:55.352Z</time>
      </trkpt>
      <trkpt lat="51.681896" lon="5.929967">
        <ele>11.908651</ele>
        <time>2025-05-16T13:53:15.227Z</time>
      </trkpt>
      <trkpt lat="51.682550" lon="5.931401">
        <ele>11.784398</ele>
        <time>2025-05-16T13:53:36.894Z</time>
      </trkpt>
      <trkpt lat="51.682700" lon="5.931620">
        <ele>11.761621</ele>
        <time>2025-05-16T13:53:40.744Z</time>
      </trkpt>
      <trkpt lat="51.682863" lon="5.931797">
        <ele>11.739500</ele>
        <time>2025-05-16T13:53:44.528Z</time>
      </trkpt>
      <trkpt lat="51.684276" lon="5.933162">
        <ele>11.583565</ele>
        <time>2025-05-16T13:54:17.452Z</time>
      </trkpt>
      <trkpt lat="51.684486" lon="5.933401">
        <ele>11.560148</ele>
        <time>2025-05-16T13:54:22.629Z</time>
      </trkpt>
      <trkpt lat="51.684876" lon="5.933933">
        <ele>11.537077</ele>
        <time>2025-05-16T13:54:32.619Z</time>
      </trkpt>
      <trkpt lat="51.685435" lon="5.934378">
        <ele>11.522960</ele>
        <time>2025-05-16T13:54:44.839Z</time>
      </trkpt>
      <trkpt lat="51.685702" lon="5.934592">
        <ele>11.516208</ele>
        <time>2025-05-16T13:54:50.873Z</time>
      </trkpt>
      <trkpt lat="51.685899" lon="5.934795">
        <ele>11.510914</ele>
        <time>2025-05-16T13:54:55.687Z</time>
      </trkpt>
      <trkpt lat="51.686256" lon="5.935213">
        <ele>11.525117</ele>
        <time>2025-05-16T13:55:04.964Z</time>
      </trkpt>
      <trkpt lat="51.686502" lon="5.935565">
        <ele>11.574276</ele>
        <time>2025-05-16T13:55:11.861Z</time>
      </trkpt>
      <trkpt lat="51.686717" lon="5.935934">
        <ele>11.621208</ele>
        <time>2025-05-16T13:55:18.544Z</time>
      </trkpt>
      <trkpt lat="51.686902" lon="5.936319">
        <ele>11.666352</ele>
        <time>2025-05-16T13:55:24.952Z</time>
      </trkpt>
      <trkpt lat="51.686620" lon="5.937140">
        <ele>11.753339</ele>
        <time>2025-05-16T13:55:36.540Z</time>
      </trkpt>
      <trkpt lat="51.686497" lon="5.937365">
        <ele>11.775506</ele>
        <time>2025-05-16T13:55:40.253Z</time>
      </trkpt>
      <trkpt lat="51.685737" lon="5.937749">
        <ele>11.812268</ele>
        <time>2025-05-16T13:55:57.129Z</time>
      </trkpt>
      <trkpt lat="51.685720" lon="5.937840">
        <ele>11.814988</ele>
        <time>2025-05-16T13:55:58.396Z</time>
      </trkpt>
      <trkpt lat="51.685931" lon="5.939037">
        <ele>11.850600</ele>
        <time>2025-05-16T13:56:14.508Z</time>
      </trkpt>
      <trkpt lat="51.685928" lon="5.939190">
        <ele>11.854981</ele>
        <time>2025-05-16T13:56:16.434Z</time>
      </trkpt>
      <trkpt lat="51.687645" lon="5.939671">
        <ele>11.298137</ele>
        <time>2025-05-16T13:56:39.358Z</time>
      </trkpt>
      <trkpt lat="51.689714" lon="5.940233">
        <ele>11.788806</ele>
        <time>2025-05-16T13:57:12.783Z</time>
      </trkpt>
      <trkpt lat="51.689997" lon="5.940268">
        <ele>11.921841</ele>
        <time>2025-05-16T13:57:17.712Z</time>
      </trkpt>
      <trkpt lat="51.690678" lon="5.940187">
        <ele>12.241901</ele>
        <time>2025-05-16T13:57:29.608Z</time>
      </trkpt>
      <trkpt lat="51.691288" lon="5.939955">
        <ele>12.525986</ele>
        <time>2025-05-16T13:57:40.248Z</time>
      </trkpt>
      <trkpt lat="51.691492" lon="5.939834">
        <ele>12.496182</ele>
        <time>2025-05-16T13:57:43.678Z</time>
      </trkpt>
      <trkpt lat="51.691783" lon="5.939613">
        <ele>12.452080</ele>
        <time>2025-05-16T13:57:48.561Z</time>
      </trkpt>
      <trkpt lat="51.692003" lon="5.939526">
        <ele>12.421020</ele>
        <time>2025-05-16T13:57:51.847Z</time>
      </trkpt>
      <trkpt lat="51.692406" lon="5.939400">
        <ele>12.364732</ele>
        <time>2025-05-16T13:57:59.699Z</time>
      </trkpt>
      <trkpt lat="51.693067" lon="5.939147">
        <ele>12.278280</ele>
        <time>2025-05-16T13:58:12.199Z</time>
      </trkpt>
      <trkpt lat="51.693349" lon="5.939045">
        <ele>12.265304</ele>
        <time>2025-05-16T13:58:17.563Z</time>
      </trkpt>
      <trkpt lat="51.693386" lon="5.939205">
        <ele>12.260551</ele>
        <time>2025-05-16T13:58:19.023Z</time>
      </trkpt>
      <trkpt lat="51.693456" lon="5.939305">
        <ele>12.256353</ele>
        <time>2025-05-16T13:58:20.321Z</time>
      </trkpt>
      <trkpt lat="51.693529" lon="5.939385">
        <ele>12.252390</ele>
        <time>2025-05-16T13:58:21.591Z</time>
      </trkpt>
      <trkpt lat="51.693584" lon="5.939444">
        <ele>12.249424</ele>
        <time>2025-05-16T13:58:22.516Z</time>
      </trkpt>
      <trkpt lat="51.693340" lon="5.940086">
        <ele>12.228465</ele>
        <time>2025-05-16T13:58:29.416Z</time>
      </trkpt>
      <trkpt lat="51.693197" lon="5.940925">
        <ele>12.204246</ele>
        <time>2025-05-16T13:58:37.985Z</time>
      </trkpt>
      <trkpt lat="51.692969" lon="5.942112">
        <ele>12.037371</ele>
        <time>2025-05-16T13:58:50.825Z</time>
      </trkpt>
      <trkpt lat="51.692953" lon="5.942438">
        <ele>11.989582</ele>
        <time>2025-05-16T13:58:53.866Z</time>
      </trkpt>
      <trkpt lat="51.692855" lon="5.942863">
        <ele>11.923317</ele>
        <time>2025-05-16T13:58:57.745Z</time>
      </trkpt>
      <trkpt lat="51.692838" lon="5.943069">
        <ele>11.892948</ele>
        <time>2025-05-16T13:58:59.435Z</time>
      </trkpt>
      <trkpt lat="51.692810" lon="5.943888">
        <ele>11.762750</ele>
        <time>2025-05-16T13:59:05.769Z</time>
      </trkpt>
      <trkpt lat="51.692855" lon="5.944697">
        <ele>11.310364</ele>
        <time>2025-05-16T13:59:11.725Z</time>
      </trkpt>
      <trkpt lat="51.692889" lon="5.945460">
        <ele>10.884311</ele>
        <time>2025-05-16T13:59:17.278Z</time>
      </trkpt>
      <trkpt lat="51.692911" lon="5.945703">
        <ele>10.747535</ele>
        <time>2025-05-16T13:59:19.107Z</time>
      </trkpt>
      <trkpt lat="51.692984" lon="5.946555">
        <ele>10.268500</ele>
        <time>2025-05-16T13:59:25.885Z</time>
      </trkpt>
      <trkpt lat="51.693027" lon="5.947510">
        <ele>10.226934</ele>
        <time>2025-05-16T13:59:34.644Z</time>
      </trkpt>
      <trkpt lat="51.693013" lon="5.948169">
        <ele>10.284109</ele>
        <time>2025-05-16T13:59:41.207Z</time>
      </trkpt>
      <trkpt lat="51.692984" lon="5.949144">
        <ele>10.368750</ele>
        <time>2025-05-16T13:59:50.960Z</time>
      </trkpt>
      <trkpt lat="51.692970" lon="5.949723">
        <ele>10.420890</ele>
        <time>2025-05-16T13:59:56.670Z</time>
      </trkpt>
      <trkpt lat="51.692986" lon="5.949911">
        <ele>10.442001</ele>
        <time>2025-05-16T13:59:58.510Z</time>
      </trkpt>
      <trkpt lat="51.692967" lon="5.950073">
        <ele>10.460344</ele>
        <time>2025-05-16T14:00:00.098Z</time>
      </trkpt>
      <trkpt lat="51.692955" lon="5.951210">
        <ele>10.586856</ele>
        <time>2025-05-16T14:00:10.646Z</time>
      </trkpt>
      <trkpt lat="51.692969" lon="5.952670">
        <ele>10.770219</ele>
        <time>2025-05-16T14:00:24.892Z</time>
      </trkpt>
      <trkpt lat="51.693068" lon="5.955890">
        <ele>11.568478</ele>
        <time>2025-05-16T14:00:58.569Z</time>
      </trkpt>
      <trkpt lat="51.693083" lon="5.956152">
        <ele>11.588975</ele>
        <time>2025-05-16T14:01:01.140Z</time>
      </trkpt>
      <trkpt lat="51.693259" lon="5.958875">
        <ele>11.885751</ele>
        <time>2025-05-16T14:01:25.939Z</time>
      </trkpt>
      <trkpt lat="51.693386" lon="5.960907">
        <ele>12.355340</ele>
        <time>2025-05-16T14:01:46.643Z</time>
      </trkpt>
      <trkpt lat="51.693536" lon="5.962401">
        <ele>12.966897</ele>
        <time>2025-05-16T14:02:03.749Z</time>
      </trkpt>
      <trkpt lat="51.693572" lon="5.963076">
        <ele>13.271063</ele>
        <time>2025-05-16T14:02:11.427Z</time>
      </trkpt>
      <trkpt lat="51.693588" lon="5.963369">
        <ele>13.403116</ele>
        <time>2025-05-16T14:02:14.831Z</time>
      </trkpt>
      <trkpt lat="51.693627" lon="5.964056">
        <ele>13.712839</ele>
        <time>2025-05-16T14:02:22.289Z</time>
      </trkpt>
      <trkpt lat="51.693646" lon="5.964377">
        <ele>13.796165</ele>
        <time>2025-05-16T14:02:25.573Z</time>
      </trkpt>
      <trkpt lat="51.693696" lon="5.964535">
        <ele>13.837649</ele>
        <time>2025-05-16T14:02:27.386Z</time>
      </trkpt>
      <trkpt lat="51.693715" lon="5.964947">
        <ele>13.934261</ele>
        <time>2025-05-16T14:02:31.634Z</time>
      </trkpt>
      <trkpt lat="51.693718" lon="5.964998">
        <ele>13.946241</ele>
        <time>2025-05-16T14:02:32.165Z</time>
      </trkpt>
      <trkpt lat="51.693770" lon="5.965423">
        <ele>14.047544</ele>
        <time>2025-05-16T14:02:36.661Z</time>
      </trkpt>
      <trkpt lat="51.693829" lon="5.965606">
        <ele>14.095781</ele>
        <time>2025-05-16T14:02:38.850Z</time>
      </trkpt>
      <trkpt lat="51.693914" lon="5.965717">
        <ele>14.137037</ele>
        <time>2025-05-16T14:02:40.731Z</time>
      </trkpt>
      <trkpt lat="51.693904" lon="5.965876">
        <ele>14.174409</ele>
        <time>2025-05-16T14:02:42.452Z</time>
      </trkpt>
      <trkpt lat="51.693924" lon="5.966316">
        <ele>14.277578</ele>
        <time>2025-05-16T14:02:47.007Z</time>
      </trkpt>
      <trkpt lat="51.693942" lon="5.966571">
        <ele>14.337595</ele>
        <time>2025-05-16T14:02:49.459Z</time>
      </trkpt>
      <trkpt lat="51.693956" lon="5.966815">
        <ele>14.394897</ele>
        <time>2025-05-16T14:02:51.651Z</time>
      </trkpt>
      <trkpt lat="51.693960" lon="5.966892">
        <ele>14.404434</ele>
        <time>2025-05-16T14:02:52.336Z</time>
      </trkpt>
      <trkpt lat="51.693959" lon="5.967086">
        <ele>14.373147</ele>
        <time>2025-05-16T14:02:54.046Z</time>
      </trkpt>
      <trkpt lat="51.693827" lon="5.967722">
        <ele>14.264984</ele>
        <time>2025-05-16T14:02:59.888Z</time>
      </trkpt>
      <trkpt lat="51.693864" lon="5.968329">
        <ele>14.166623</ele>
        <time>2025-05-16T14:03:04.988Z</time>
      </trkpt>
      <trkpt lat="51.693952" lon="5.969854">
        <ele>13.921469</ele>
        <time>2025-05-16T14:03:22.906Z</time>
      </trkpt>
      <trkpt lat="51.694078" lon="5.971905">
        <ele>13.619194</ele>
        <time>2025-05-16T14:03:47.943Z</time>
      </trkpt>
      <trkpt lat="51.694046" lon="5.972088">
        <ele>13.591307</ele>
        <time>2025-05-16T14:03:50.260Z</time>
      </trkpt>
      <trkpt lat="51.694061" lon="5.972381">
        <ele>13.548189</ele>
        <time>2025-05-16T14:03:53.785Z</time>
      </trkpt>
      <trkpt lat="51.694050" lon="5.972458">
        <ele>13.536601</ele>
        <time>2025-05-16T14:03:54.738Z</time>
      </trkpt>
      <trkpt lat="51.693983" lon="5.972446">
        <ele>13.520651</ele>
        <time>2025-05-16T14:03:55.673Z</time>
      </trkpt>
      <trkpt lat="51.693920" lon="5.972471">
        <ele>13.509710</ele>
        <time>2025-05-16T14:03:56.564Z</time>
      </trkpt>
      <trkpt lat="51.693822" lon="5.972613">
        <ele>13.493636</ele>
        <time>2025-05-16T14:03:58.383Z</time>
      </trkpt>
      <trkpt lat="51.693798" lon="5.972790">
        <ele>13.479931</ele>
        <time>2025-05-16T14:03:59.930Z</time>
      </trkpt>
      <trkpt lat="51.693827" lon="5.972930">
        <ele>13.468766</ele>
        <time>2025-05-16T14:04:01.186Z</time>
      </trkpt>
      <trkpt lat="51.693876" lon="5.973019">
        <ele>13.459762</ele>
        <time>2025-05-16T14:04:02.202Z</time>
      </trkpt>
      <trkpt lat="51.693975" lon="5.973082">
        <ele>13.446776</ele>
        <time>2025-05-16T14:04:03.651Z</time>
      </trkpt>
      <trkpt lat="51.694044" lon="5.973073">
        <ele>13.438328</ele>
        <time>2025-05-16T14:04:04.595Z</time>
      </trkpt>
      <trkpt lat="51.694111" lon="5.973023">
        <ele>13.429320</ele>
        <time>2025-05-16T14:04:05.613Z</time>
      </trkpt>
      <trkpt lat="51.694165" lon="5.973091">
        <ele>13.420961</ele>
        <time>2025-05-16T14:04:06.900Z</time>
      </trkpt>
      <trkpt lat="51.694213" lon="5.973153">
        <ele>13.413458</ele>
        <time>2025-05-16T14:04:08.075Z</time>
      </trkpt>
      <trkpt lat="51.694431" lon="5.973433">
        <ele>13.379455</ele>
        <time>2025-05-16T14:04:13.417Z</time>
      </trkpt>
      <trkpt lat="51.694466" lon="5.973548">
        <ele>13.369765</ele>
        <time>2025-05-16T14:04:14.981Z</time>
      </trkpt>
      <trkpt lat="51.694496" lon="5.973940">
        <ele>13.339890</ele>
        <time>2025-05-16T14:04:19.958Z</time>
      </trkpt>
      <trkpt lat="51.694513" lon="5.973973">
        <ele>13.336644</ele>
        <time>2025-05-16T14:04:20.520Z</time>
      </trkpt>
      <trkpt lat="51.694536" lon="5.974270">
        <ele>13.314005</ele>
        <time>2025-05-16T14:04:24.382Z</time>
      </trkpt>
      <trkpt lat="51.694560" lon="5.974576">
        <ele>13.306713</ele>
        <time>2025-05-16T14:04:28.333Z</time>
      </trkpt>
      <trkpt lat="51.694648" lon="5.975717">
        <ele>13.547924</ele>
        <time>2025-05-16T14:04:43.779Z</time>
      </trkpt>
      <trkpt lat="51.694662" lon="5.975880">
        <ele>13.582445</ele>
        <time>2025-05-16T14:04:46.076Z</time>
      </trkpt>
      <trkpt lat="51.694679" lon="5.976237">
        <ele>13.657559</ele>
        <time>2025-05-16T14:04:51.087Z</time>
      </trkpt>
      <trkpt lat="51.694714" lon="5.976846">
        <ele>13.785866</ele>
        <time>2025-05-16T14:04:59.430Z</time>
      </trkpt>
      <trkpt lat="51.694679" lon="5.977023">
        <ele>13.824842</ele>
        <time>2025-05-16T14:05:01.907Z</time>
      </trkpt>
      <trkpt lat="51.694723" lon="5.977628">
        <ele>13.885983</ele>
        <time>2025-05-16T14:05:09.916Z</time>
      </trkpt>
      <trkpt lat="51.694773" lon="5.977799">
        <ele>13.871661</ele>
        <time>2025-05-16T14:05:12.360Z</time>
      </trkpt>
      <trkpt lat="51.694815" lon="5.978392">
        <ele>13.826448</ele>
        <time>2025-05-16T14:05:19.813Z</time>
      </trkpt>
      <trkpt lat="51.694860" lon="5.979049">
        <ele>13.776376</ele>
        <time>2025-05-16T14:05:27.741Z</time>
      </trkpt>
      <trkpt lat="51.694884" lon="5.979328">
        <ele>13.755039</ele>
        <time>2025-05-16T14:05:31.034Z</time>
      </trkpt>
      <trkpt lat="51.694890" lon="5.979394">
        <ele>13.749986</ele>
        <time>2025-05-16T14:05:31.805Z</time>
      </trkpt>
      <trkpt lat="51.694944" lon="5.980257">
        <ele>13.684280</ele>
        <time>2025-05-16T14:05:42.043Z</time>
      </trkpt>
      <trkpt lat="51.694994" lon="5.980557">
        <ele>13.693467</ele>
        <time>2025-05-16T14:05:45.807Z</time>
      </trkpt>
      <trkpt lat="51.695071" lon="5.980699">
        <ele>13.699414</ele>
        <time>2025-05-16T14:05:48.128Z</time>
      </trkpt>
      <trkpt lat="51.695106" lon="5.980830">
        <ele>13.703909</ele>
        <time>2025-05-16T14:05:49.903Z</time>
      </trkpt>
      <trkpt lat="51.695113" lon="5.981061">
        <ele>13.711199</ele>
        <time>2025-05-16T14:05:52.803Z</time>
      </trkpt>
      <trkpt lat="51.695259" lon="5.981119">
        <ele>13.718844</ele>
        <time>2025-05-16T14:05:55.847Z</time>
      </trkpt>
      <trkpt lat="51.695456" lon="5.981310">
        <ele>13.730530</ele>
        <time>2025-05-16T14:06:00.569Z</time>
      </trkpt>
      <trkpt lat="51.695741" lon="5.981698">
        <ele>13.749491</ele>
        <time>2025-05-16T14:06:08.283Z</time>
      </trkpt>
      <trkpt lat="51.695851" lon="5.981847">
        <ele>13.756794</ele>
        <time>2025-05-16T14:06:11.299Z</time>
      </trkpt>
      <trkpt lat="51.695898" lon="5.981911">
        <ele>13.759921</ele>
        <time>2025-05-16T14:06:12.606Z</time>
      </trkpt>
      <trkpt lat="51.696174" lon="5.982100">
        <ele>13.775167</ele>
        <time>2025-05-16T14:06:18.965Z</time>
      </trkpt>
      <trkpt lat="51.696900" lon="5.982598">
        <ele>13.763112</ele>
        <time>2025-05-16T14:06:35.444Z</time>
      </trkpt>
      <trkpt lat="51.696980" lon="5.982702">
        <ele>13.761518</ele>
        <time>2025-05-16T14:06:37.464Z</time>
      </trkpt>
      <trkpt lat="51.697027" lon="5.982729">
        <ele>13.760744</ele>
        <time>2025-05-16T14:06:38.458Z</time>
      </trkpt>
      <trkpt lat="51.697393" lon="5.982916">
        <ele>13.754788</ele>
        <time>2025-05-16T14:06:46.056Z</time>
      </trkpt>
      <trkpt lat="51.697928" lon="5.982960">
        <ele>13.747309</ele>
        <time>2025-05-16T14:06:56.598Z</time>
      </trkpt>
      <trkpt lat="51.698010" lon="5.982952">
        <ele>13.747180</ele>
        <time>2025-05-16T14:06:58.185Z</time>
      </trkpt>
      <trkpt lat="51.698022" lon="5.983108">
        <ele>13.747027</ele>
        <time>2025-05-16T14:07:00.082Z</time>
      </trkpt>
      <trkpt lat="51.698051" lon="5.983970">
        <ele>13.746186</ele>
        <time>2025-05-16T14:07:10.545Z</time>
      </trkpt>
      <trkpt lat="51.698017" lon="5.984893">
        <ele>13.745284</ele>
        <time>2025-05-16T14:07:22.374Z</time>
      </trkpt>
      <trkpt lat="51.697991" lon="5.985709">
        <ele>13.736100</ele>
        <time>2025-05-16T14:07:32.901Z</time>
      </trkpt>
      <trkpt lat="51.697991" lon="5.986604">
        <ele>13.650986</ele>
        <time>2025-05-16T14:07:44.098Z</time>
      </trkpt>
      <trkpt lat="51.698147" lon="5.988835">
        <ele>13.462529</ele>
        <time>2025-05-16T14:08:10.833Z</time>
      </trkpt>
      <trkpt lat="51.698152" lon="5.988912">
        <ele>13.461092</ele>
        <time>2025-05-16T14:08:11.766Z</time>
      </trkpt>
      <trkpt lat="51.698189" lon="5.989348">
        <ele>13.452926</ele>
        <time>2025-05-16T14:08:17.102Z</time>
      </trkpt>
      <trkpt lat="51.698237" lon="5.989393">
        <ele>13.451264</ele>
        <time>2025-05-16T14:08:18.172Z</time>
      </trkpt>
      <trkpt lat="51.698251" lon="5.989554">
        <ele>13.448247</ele>
        <time>2025-05-16T14:08:20.185Z</time>
      </trkpt>
      <trkpt lat="51.698261" lon="5.989882">
        <ele>13.442154</ele>
        <time>2025-05-16T14:08:24.223Z</time>
      </trkpt>
      <trkpt lat="51.698219" lon="5.990787">
        <ele>13.425313</ele>
        <time>2025-05-16T14:08:35.845Z</time>
      </trkpt>
      <trkpt lat="51.698054" lon="5.991853">
        <ele>13.470033</ele>
        <time>2025-05-16T14:08:50.295Z</time>
      </trkpt>
      <trkpt lat="51.697675" lon="5.993949">
        <ele>13.697907</ele>
        <time>2025-05-16T14:09:11.102Z</time>
      </trkpt>
      <trkpt lat="51.697471" lon="5.994712">
        <ele>13.865698</ele>
        <time>2025-05-16T14:09:18.977Z</time>
      </trkpt>
      <trkpt lat="51.697273" lon="5.995329">
        <ele>14.025934</ele>
        <time>2025-05-16T14:09:25.749Z</time>
      </trkpt>
      <trkpt lat="51.697147" lon="5.995666">
        <ele>14.116701</ele>
        <time>2025-05-16T14:09:29.655Z</time>
      </trkpt>
      <trkpt lat="51.696623" lon="5.996822">
        <ele>14.470866</ele>
        <time>2025-05-16T14:09:45.187Z</time>
      </trkpt>
      <trkpt lat="51.695615" lon="5.998772">
        <ele>15.289009</ele>
        <time>2025-05-16T14:10:12.576Z</time>
      </trkpt>
      <trkpt lat="51.695285" lon="5.999526">
        <ele>15.269298</ele>
        <time>2025-05-16T14:10:20.638Z</time>
      </trkpt>
      <trkpt lat="51.695148" lon="5.999846">
        <ele>15.244389</ele>
        <time>2025-05-16T14:10:23.938Z</time>
      </trkpt>
      <trkpt lat="51.694807" lon="6.000664">
        <ele>15.181253</ele>
        <time>2025-05-16T14:10:32.239Z</time>
      </trkpt>
      <trkpt lat="51.694276" lon="6.001939">
        <ele>15.142568</ele>
        <time>2025-05-16T14:10:46.338Z</time>
      </trkpt>
      <trkpt lat="51.694167" lon="6.002262">
        <ele>15.145464</ele>
        <time>2025-05-16T14:10:50.014Z</time>
      </trkpt>
      <trkpt lat="51.694010" lon="6.002913">
        <ele>15.150965</ele>
        <time>2025-05-16T14:10:56.885Z</time>
      </trkpt>
      <trkpt lat="51.693965" lon="6.003205">
        <ele>15.153335</ele>
        <time>2025-05-16T14:10:59.724Z</time>
      </trkpt>
      <trkpt lat="51.693889" lon="6.004073">
        <ele>15.069996</ele>
        <time>2025-05-16T14:11:07.555Z</time>
      </trkpt>
      <trkpt lat="51.693847" lon="6.005199">
        <ele>14.487429</ele>
        <time>2025-05-16T14:11:16.742Z</time>
      </trkpt>
      <trkpt lat="51.693848" lon="6.006067">
        <ele>14.039155</ele>
        <time>2025-05-16T14:11:23.204Z</time>
      </trkpt>
      <trkpt lat="51.693956" lon="6.006829">
        <ele>13.633307</ele>
        <time>2025-05-16T14:11:28.940Z</time>
      </trkpt>
      <trkpt lat="51.694071" lon="6.006824">
        <ele>13.529124</ele>
        <time>2025-05-16T14:11:30.881Z</time>
      </trkpt>
      <trkpt lat="51.694516" lon="6.006617">
        <ele>13.109707</ele>
        <time>2025-05-16T14:11:38.744Z</time>
      </trkpt>
      <trkpt lat="51.694838" lon="6.006435">
        <ele>12.800720</ele>
        <time>2025-05-16T14:11:44.624Z</time>
      </trkpt>
      <trkpt lat="51.695175" lon="6.006244">
        <ele>12.477243</ele>
        <time>2025-05-16T14:11:50.845Z</time>
      </trkpt>
      <trkpt lat="51.695480" lon="6.006060">
        <ele>12.182351</ele>
        <time>2025-05-16T14:11:56.809Z</time>
      </trkpt>
      <trkpt lat="51.696117" lon="6.005572">
        <ele>11.920325</ele>
        <time>2025-05-16T14:12:10.240Z</time>
      </trkpt>
      <trkpt lat="51.698438" lon="6.003327">
        <ele>11.609418</ele>
        <time>2025-05-16T14:13:03.839Z</time>
      </trkpt>
      <trkpt lat="51.698840" lon="6.002868">
        <ele>11.610204</ele>
        <time>2025-05-16T14:13:13.972Z</time>
      </trkpt>
      <trkpt lat="51.699604" lon="6.001813">
        <ele>11.705047</ele>
        <time>2025-05-16T14:13:35.173Z</time>
      </trkpt>
      <trkpt lat="51.699828" lon="6.001490">
        <ele>11.733381</ele>
        <time>2025-05-16T14:13:41.408Z</time>
      </trkpt>
      <trkpt lat="51.700034" lon="6.001114">
        <ele>11.762716</ele>
        <time>2025-05-16T14:13:47.711Z</time>
      </trkpt>
      <trkpt lat="51.700268" lon="6.000591">
        <ele>11.671496</ele>
        <time>2025-05-16T14:13:55.572Z</time>
      </trkpt>
      <trkpt lat="51.700377" lon="6.000155">
        <ele>11.594072</ele>
        <time>2025-05-16T14:14:01.155Z</time>
      </trkpt>
      <trkpt lat="51.700520" lon="5.999132">
        <ele>11.421368</ele>
        <time>2025-05-16T14:14:13.293Z</time>
      </trkpt>
      <trkpt lat="51.700693" lon="5.997985">
        <ele>11.196856</ele>
        <time>2025-05-16T14:14:27.435Z</time>
      </trkpt>
      <trkpt lat="51.700767" lon="5.997599">
        <ele>11.097877</ele>
        <time>2025-05-16T14:14:32.314Z</time>
      </trkpt>
      <trkpt lat="51.700887" lon="5.997180">
        <ele>10.984807</ele>
        <time>2025-05-16T14:14:37.865Z</time>
      </trkpt>
      <trkpt lat="51.701028" lon="5.996818">
        <ele>10.880070</ele>
        <time>2025-05-16T14:14:43.008Z</time>
      </trkpt>
      <trkpt lat="51.702717" lon="5.993006">
        <ele>9.693520</ele>
        <time>2025-05-16T14:15:36.307Z</time>
      </trkpt>
      <trkpt lat="51.703023" lon="5.992409">
        <ele>9.773983</ele>
        <time>2025-05-16T14:15:46.160Z</time>
      </trkpt>
      <trkpt lat="51.703239" lon="5.991908">
        <ele>9.837368</ele>
        <time>2025-05-16T14:15:54.690Z</time>
      </trkpt>
      <trkpt lat="51.703409" lon="5.991486">
        <ele>9.889642</ele>
        <time>2025-05-16T14:16:01.642Z</time>
      </trkpt>
      <trkpt lat="51.703527" lon="5.991315">
        <ele>9.916221</ele>
        <time>2025-05-16T14:16:05.171Z</time>
      </trkpt>
      <trkpt lat="51.703635" lon="5.991012">
        <ele>9.964866</ele>
        <time>2025-05-16T14:16:10.005Z</time>
      </trkpt>
      <trkpt lat="51.703691" lon="5.990965">
        <ele>9.984336</ele>
        <time>2025-05-16T14:16:11.461Z</time>
      </trkpt>
      <trkpt lat="51.703758" lon="5.990907">
        <ele>10.007790</ele>
        <time>2025-05-16T14:16:13.181Z</time>
      </trkpt>
      <trkpt lat="51.703808" lon="5.990866">
        <ele>10.025090</ele>
        <time>2025-05-16T14:16:14.478Z</time>
      </trkpt>
      <trkpt lat="51.704194" lon="5.992095">
        <ele>10.288480</ele>
        <time>2025-05-16T14:16:33.117Z</time>
      </trkpt>
      <trkpt lat="51.705036" lon="5.994598">
        <ele>10.443400</ele>
        <time>2025-05-16T14:17:08.920Z</time>
      </trkpt>
      <trkpt lat="51.705404" lon="5.995998">
        <ele>10.407944</ele>
        <time>2025-05-16T14:17:27.749Z</time>
      </trkpt>
      <trkpt lat="51.705805" lon="5.998179">
        <ele>10.382866</ele>
        <time>2025-05-16T14:17:55.032Z</time>
      </trkpt>
      <trkpt lat="51.705969" lon="5.999169">
        <ele>10.793291</ele>
        <time>2025-05-16T14:18:09.756Z</time>
      </trkpt>
      <trkpt lat="51.706051" lon="5.999811">
        <ele>11.133550</ele>
        <time>2025-05-16T14:18:19.766Z</time>
      </trkpt>
      <trkpt lat="51.706175" lon="5.999749">
        <ele>11.242289</ele>
        <time>2025-05-16T14:18:22.413Z</time>
      </trkpt>
      <trkpt lat="51.708200" lon="5.998740">
        <ele>12.720857</ele>
        <time>2025-05-16T14:19:01.483Z</time>
      </trkpt>
      <trkpt lat="51.708259" lon="5.998672">
        <ele>12.765652</ele>
        <time>2025-05-16T14:19:02.565Z</time>
      </trkpt>
      <trkpt lat="51.708254" lon="5.998380">
        <ele>12.877486</ele>
        <time>2025-05-16T14:19:05.193Z</time>
      </trkpt>
      <trkpt lat="51.708125" lon="5.996291">
        <ele>13.061472</ele>
        <time>2025-05-16T14:19:23.755Z</time>
      </trkpt>
      <trkpt lat="51.708158" lon="5.996114">
        <ele>13.068025</ele>
        <time>2025-05-16T14:19:25.512Z</time>
      </trkpt>
      <trkpt lat="51.708218" lon="5.996060">
        <ele>13.071955</ele>
        <time>2025-05-16T14:19:26.594Z</time>
      </trkpt>
      <trkpt lat="51.709590" lon="5.995760">
        <ele>13.195892</ele>
        <time>2025-05-16T14:19:49.013Z</time>
      </trkpt>
      <trkpt lat="51.710555" lon="5.995645">
        <ele>13.273143</ele>
        <time>2025-05-16T14:20:03.231Z</time>
      </trkpt>
      <trkpt lat="51.710600" lon="5.995640">
        <ele>13.249476</ele>
        <time>2025-05-16T14:20:03.854Z</time>
      </trkpt>
      <trkpt lat="51.712346" lon="5.995328">
        <ele>12.321445</ele>
        <time>2025-05-16T14:20:26.930Z</time>
      </trkpt>
      <trkpt lat="51.712316" lon="5.994790">
        <ele>12.100621</ele>
        <time>2025-05-16T14:20:31.058Z</time>
      </trkpt>
      <trkpt lat="51.712485" lon="5.994747">
        <ele>11.987742</ele>
        <time>2025-05-16T14:20:34.000Z</time>
      </trkpt>
      <trkpt lat="51.712940" lon="5.994430">
        <ele>11.660768</ele>
        <time>2025-05-16T14:20:42.704Z</time>
      </trkpt>
      <trkpt lat="51.713547" lon="5.994154">
        <ele>11.244695</ele>
        <time>2025-05-16T14:20:54.324Z</time>
      </trkpt>
      <trkpt lat="51.714040" lon="5.993970">
        <ele>11.162059</ele>
        <time>2025-05-16T14:21:04.096Z</time>
      </trkpt>
      <trkpt lat="51.714570" lon="5.993850">
        <ele>11.157191</ele>
        <time>2025-05-16T14:21:15.041Z</time>
      </trkpt>
      <trkpt lat="51.714680" lon="5.993860">
        <ele>11.156188</ele>
        <time>2025-05-16T14:21:17.397Z</time>
      </trkpt>
      <trkpt lat="51.714780" lon="5.993900">
        <ele>11.155251</ele>
        <time>2025-05-16T14:21:19.595Z</time>
      </trkpt>
      <trkpt lat="51.715943" lon="5.994958">
        <ele>11.291831</ele>
        <time>2025-05-16T14:21:47.005Z</time>
      </trkpt>
      <trkpt lat="51.716316" lon="5.995165">
        <ele>11.375688</ele>
        <time>2025-05-16T14:21:55.269Z</time>
      </trkpt>
      <trkpt lat="51.717810" lon="5.996020">
        <ele>11.658704</ele>
        <time>2025-05-16T14:22:29.300Z</time>
      </trkpt>
      <trkpt lat="51.719030" lon="5.996427">
        <ele>11.799999</ele>
        <time>2025-05-16T14:22:54.492Z</time>
      </trkpt>
      <trkpt lat="51.722529" lon="5.997617">
        <ele>11.751081</ele>
        <time>2025-05-16T14:23:47.572Z</time>
      </trkpt>
      <trkpt lat="51.722633" lon="5.997492">
        <ele>11.734665</ele>
        <time>2025-05-16T14:23:49.402Z</time>
      </trkpt>
      <trkpt lat="51.723935" lon="5.996409">
        <ele>11.559102</ele>
        <time>2025-05-16T14:24:10.130Z</time>
      </trkpt>
      <trkpt lat="51.724123" lon="5.996153">
        <ele>11.561153</ele>
        <time>2025-05-16T14:24:13.718Z</time>
      </trkpt>
      <trkpt lat="51.725214" lon="5.989896">
        <ele>11.733171</ele>
        <time>2025-05-16T14:25:14.355Z</time>
      </trkpt>
      <trkpt lat="51.725622" lon="5.987524">
        <ele>11.854613</ele>
        <time>2025-05-16T14:25:37.586Z</time>
      </trkpt>
      <trkpt lat="51.725750" lon="5.986568">
        <ele>11.884527</ele>
        <time>2025-05-16T14:25:46.803Z</time>
      </trkpt>
      <trkpt lat="51.726267" lon="5.980754">
        <ele>11.975935</ele>
        <time>2025-05-16T14:26:41.072Z</time>
      </trkpt>
      <trkpt lat="51.726384" lon="5.979442">
        <ele>11.965276</ele>
        <time>2025-05-16T14:26:53.248Z</time>
      </trkpt>
      <trkpt lat="51.726996" lon="5.972983">
        <ele>11.389229</ele>
        <time>2025-05-16T14:27:51.501Z</time>
      </trkpt>
      <trkpt lat="51.727007" lon="5.972875">
        <ele>11.368762</ele>
        <time>2025-05-16T14:27:52.355Z</time>
      </trkpt>
      <trkpt lat="51.727179" lon="5.971009">
        <ele>11.027676</ele>
        <time>2025-05-16T14:28:07.920Z</time>
      </trkpt>
      <trkpt lat="51.727401" lon="5.969933">
        <ele>11.076999</ele>
        <time>2025-05-16T14:28:18.255Z</time>
      </trkpt>
      <trkpt lat="51.727971" lon="5.967382">
        <ele>11.266725</ele>
        <time>2025-05-16T14:28:44.901Z</time>
      </trkpt>
      <trkpt lat="51.728923" lon="5.962537">
        <ele>11.686315</ele>
        <time>2025-05-16T14:29:33.271Z</time>
      </trkpt>
      <trkpt lat="51.729484" lon="5.959501">
        <ele>11.508384</ele>
        <time>2025-05-16T14:30:00.595Z</time>
      </trkpt>
      <trkpt lat="51.729494" lon="5.959443">
        <ele>11.516597</ele>
        <time>2025-05-16T14:30:01.128Z</time>
      </trkpt>
      <trkpt lat="51.729929" lon="5.956884">
        <ele>11.837613</ele>
        <time>2025-05-16T14:30:28.213Z</time>
      </trkpt>
      <trkpt lat="51.729970" lon="5.956621">
        <ele>11.842140</ele>
        <time>2025-05-16T14:30:30.947Z</time>
      </trkpt>
      <trkpt lat="51.729986" lon="5.956321">
        <ele>11.847166</ele>
        <time>2025-05-16T14:30:33.926Z</time>
      </trkpt>
      <trkpt lat="51.729997" lon="5.956224">
        <ele>11.848813</ele>
        <time>2025-05-16T14:30:34.871Z</time>
      </trkpt>
      <trkpt lat="51.729946" lon="5.955923">
        <ele>11.854022</ele>
        <time>2025-05-16T14:30:37.896Z</time>
      </trkpt>
      <trkpt lat="51.730016" lon="5.955879">
        <ele>11.856046</ele>
        <time>2025-05-16T14:30:39.032Z</time>
      </trkpt>
      <trkpt lat="51.730430" lon="5.955895">
        <ele>11.867208</ele>
        <time>2025-05-16T14:30:47.425Z</time>
      </trkpt>
      <trkpt lat="51.731648" lon="5.955840">
        <ele>11.603727</ele>
        <time>2025-05-16T14:31:10.371Z</time>
      </trkpt>
      <trkpt lat="51.732907" lon="5.955775">
        <ele>11.163271</ele>
        <time>2025-05-16T14:31:33.901Z</time>
      </trkpt>
      <trkpt lat="51.734194" lon="5.955701">
        <ele>10.924580</ele>
        <time>2025-05-16T14:31:59.000Z</time>
      </trkpt>
      <trkpt lat="51.735188" lon="5.955638">
        <ele>10.964201</ele>
        <time>2025-05-16T14:32:19.607Z</time>
      </trkpt>
      <trkpt lat="51.736009" lon="5.955608">
        <ele>11.084572</ele>
        <time>2025-05-16T14:32:36.760Z</time>
      </trkpt>
      <trkpt lat="51.737025" lon="5.955574">
        <ele>12.469029</ele>
        <time>2025-05-16T14:32:58.006Z</time>
      </trkpt>
      <trkpt lat="51.737354" lon="5.955509">
        <ele>13.091457</ele>
        <time>2025-05-16T14:33:06.479Z</time>
      </trkpt>
      <trkpt lat="51.737637" lon="5.955395">
        <ele>13.639182</ele>
        <time>2025-05-16T14:33:14.747Z</time>
      </trkpt>
      <trkpt lat="51.737925" lon="5.955232">
        <ele>14.212265</ele>
        <time>2025-05-16T14:33:24.742Z</time>
      </trkpt>
      <trkpt lat="51.738045" lon="5.955157">
        <ele>14.453900</ele>
        <time>2025-05-16T14:33:29.419Z</time>
      </trkpt>
      <trkpt lat="51.738292" lon="5.954978">
        <ele>16.286180</ele>
        <time>2025-05-16T14:33:40.331Z</time>
      </trkpt>
      <trkpt lat="51.738447" lon="5.954941">
        <ele>17.435117</ele>
        <time>2025-05-16T14:33:46.384Z</time>
      </trkpt>
      <trkpt lat="51.738601" lon="5.954926">
        <ele>18.566423</ele>
        <time>2025-05-16T14:33:52.820Z</time>
      </trkpt>
      <trkpt lat="51.739062" lon="5.954820">
        <ele>21.980946</ele>
        <time>2025-05-16T14:34:14.431Z</time>
      </trkpt>
      <trkpt lat="51.739424" lon="5.954591">
        <ele>24.831828</ele>
        <time>2025-05-16T14:34:34.186Z</time>
      </trkpt>
      <trkpt lat="51.739597" lon="5.954453">
        <ele>26.246729</ele>
        <time>2025-05-16T14:34:44.046Z</time>
      </trkpt>
      <trkpt lat="51.740098" lon="5.953798">
        <ele>30.454356</ele>
        <time>2025-05-16T14:35:16.710Z</time>
      </trkpt>
      <trkpt lat="51.740488" lon="5.953546">
        <ele>33.046753</ele>
        <time>2025-05-16T14:35:36.110Z</time>
      </trkpt>
      <trkpt lat="51.740888" lon="5.953098">
        <ele>36.050929</ele>
        <time>2025-05-16T14:35:54.925Z</time>
      </trkpt>
      <trkpt lat="51.741005" lon="5.953002">
        <ele>36.860848</ele>
        <time>2025-05-16T14:35:59.056Z</time>
      </trkpt>
      <trkpt lat="51.741147" lon="5.952970">
        <ele>37.745691</ele>
        <time>2025-05-16T14:36:03.144Z</time>
      </trkpt>
      <trkpt lat="51.741502" lon="5.953037">
        <ele>38.754228</ele>
        <time>2025-05-16T14:36:11.823Z</time>
      </trkpt>
      <trkpt lat="51.741648" lon="5.952937">
        <ele>38.718850</ele>
        <time>2025-05-16T14:36:14.962Z</time>
      </trkpt>
      <trkpt lat="51.741952" lon="5.952537">
        <ele>38.631373</ele>
        <time>2025-05-16T14:36:21.129Z</time>
      </trkpt>
      <trkpt lat="51.742117" lon="5.952389">
        <ele>38.589269</ele>
        <time>2025-05-16T14:36:23.557Z</time>
      </trkpt>
      <trkpt lat="51.742440" lon="5.952259">
        <ele>38.515009</ele>
        <time>2025-05-16T14:36:27.368Z</time>
      </trkpt>
      <trkpt lat="51.742679" lon="5.952233">
        <ele>38.461572</ele>
        <time>2025-05-16T14:36:29.898Z</time>
      </trkpt>
      <trkpt lat="51.744396" lon="5.952440">
        <ele>36.156309</ele>
        <time>2025-05-16T14:36:49.182Z</time>
      </trkpt>
      <trkpt lat="51.745490" lon="5.952444">
        <ele>34.689389</ele>
        <time>2025-05-16T14:37:02.980Z</time>
      </trkpt>
      <trkpt lat="51.746145" lon="5.952591">
        <ele>33.883502</ele>
        <time>2025-05-16T14:37:11.044Z</time>
      </trkpt>
      <trkpt lat="51.746600" lon="5.952627">
        <ele>33.276919</ele>
        <time>2025-05-16T14:37:16.174Z</time>
      </trkpt>
      <trkpt lat="51.746962" lon="5.952718">
        <ele>32.304074</ele>
        <time>2025-05-16T14:37:20.149Z</time>
      </trkpt>
      <trkpt lat="51.747540" lon="5.953100">
        <ele>30.645704</ele>
        <time>2025-05-16T14:37:26.576Z</time>
      </trkpt>
      <trkpt lat="51.747818" lon="5.953179">
        <ele>29.896151</ele>
        <time>2025-05-16T14:37:29.437Z</time>
      </trkpt>
      <trkpt lat="51.747937" lon="5.953190">
        <ele>29.579635</ele>
        <time>2025-05-16T14:37:30.648Z</time>
      </trkpt>
      <trkpt lat="51.748073" lon="5.953139">
        <ele>29.208888</ele>
        <time>2025-05-16T14:37:32.064Z</time>
      </trkpt>
      <trkpt lat="51.748230" lon="5.952997">
        <ele>28.731070</ele>
        <time>2025-05-16T14:37:33.907Z</time>
      </trkpt>
      <trkpt lat="51.748706" lon="5.952264">
        <ele>27.565006</ele>
        <time>2025-05-16T14:37:40.812Z</time>
      </trkpt>
      <trkpt lat="51.748835" lon="5.952002">
        <ele>27.212903</ele>
        <time>2025-05-16T14:37:43.057Z</time>
      </trkpt>
      <trkpt lat="51.749359" lon="5.950727">
        <ele>25.603243</ele>
        <time>2025-05-16T14:37:54.509Z</time>
      </trkpt>
      <trkpt lat="51.749409" lon="5.950610">
        <ele>25.524060</ele>
        <time>2025-05-16T14:37:55.685Z</time>
      </trkpt>
      <trkpt lat="51.749654" lon="5.949947">
        <ele>25.374130</ele>
        <time>2025-05-16T14:38:02.074Z</time>
      </trkpt>
      <trkpt lat="51.750298" lon="5.947789">
        <ele>25.126844</ele>
        <time>2025-05-16T14:38:22.890Z</time>
      </trkpt>
      <trkpt lat="51.750729" lon="5.946430">
        <ele>25.796073</ele>
        <time>2025-05-16T14:38:39.075Z</time>
      </trkpt>
      <trkpt lat="51.750825" lon="5.946135">
        <ele>25.942139</ele>
        <time>2025-05-16T14:38:43.034Z</time>
      </trkpt>
      <trkpt lat="51.750959" lon="5.945591">
        <ele>26.198741</ele>
        <time>2025-05-16T14:38:50.227Z</time>
      </trkpt>
      <trkpt lat="51.751272" lon="5.944733">
        <ele>27.016942</ele>
        <time>2025-05-16T14:39:02.949Z</time>
      </trkpt>
      <trkpt lat="51.752090" lon="5.942105">
        <ele>29.456511</ele>
        <time>2025-05-16T14:39:40.586Z</time>
      </trkpt>
      <trkpt lat="51.751637" lon="5.941719">
        <ele>30.065379</ele>
        <time>2025-05-16T14:39:53.110Z</time>
      </trkpt>
      <trkpt lat="51.751238" lon="5.941293">
        <ele>30.633966</ele>
        <time>2025-05-16T14:40:04.596Z</time>
      </trkpt>
      <trkpt lat="51.750525" lon="5.940280">
        <ele>31.957306</ele>
        <time>2025-05-16T14:40:28.122Z</time>
      </trkpt>
      <trkpt lat="51.749421" lon="5.938436">
        <ele>34.477804</ele>
        <time>2025-05-16T14:41:11.023Z</time>
      </trkpt>
      <trkpt lat="51.748987" lon="5.937928">
        <ele>35.473706</ele>
        <time>2025-05-16T14:41:25.590Z</time>
      </trkpt>
      <trkpt lat="51.749593" lon="5.936593">
        <ele>37.465530</ele>
        <time>2025-05-16T14:41:54.560Z</time>
      </trkpt>
      <trkpt lat="51.750145" lon="5.935400">
        <ele>39.488447</ele>
        <time>2025-05-16T14:42:21.660Z</time>
      </trkpt>
      <trkpt lat="51.750280" lon="5.935110">
        <ele>39.981261</ele>
        <time>2025-05-16T14:42:28.432Z</time>
      </trkpt>
      <trkpt lat="51.751615" lon="5.932688">
        <ele>43.789710</ele>
        <time>2025-05-16T14:43:25.120Z</time>
      </trkpt>
      <trkpt lat="51.751519" lon="5.932414">
        <ele>44.134730</ele>
        <time>2025-05-16T14:43:30.033Z</time>
      </trkpt>
      <trkpt lat="51.751512" lon="5.932324">
        <ele>44.189272</ele>
        <time>2025-05-16T14:43:31.423Z</time>
      </trkpt>
      <trkpt lat="51.751527" lon="5.932258">
        <ele>44.231547</ele>
        <time>2025-05-16T14:43:32.513Z</time>
      </trkpt>
      <trkpt lat="51.753715" lon="5.928981">
        <ele>48.364141</ele>
        <time>2025-05-16T14:44:43.112Z</time>
      </trkpt>
      <trkpt lat="51.753883" lon="5.928736">
        <ele>48.799352</ele>
        <time>2025-05-16T14:44:50.368Z</time>
      </trkpt>
      <trkpt lat="51.755358" lon="5.926521">
        <ele>57.385248</ele>
        <time>2025-05-16T14:46:10.550Z</time>
      </trkpt>
      <trkpt lat="51.755752" lon="5.925922">
        <ele>59.104127</ele>
        <time>2025-05-16T14:46:31.358Z</time>
      </trkpt>
      <trkpt lat="51.756220" lon="5.925209">
        <ele>61.031542</ele>
        <time>2025-05-16T14:46:52.681Z</time>
      </trkpt>
      <trkpt lat="51.756370" lon="5.924980">
        <ele>61.649906</ele>
        <time>2025-05-16T14:46:58.719Z</time>
      </trkpt>
      <trkpt lat="51.756521" lon="5.924665">
        <ele>62.388824</ele>
        <time>2025-05-16T14:47:05.510Z</time>
      </trkpt>
      <trkpt lat="51.756536" lon="5.924613">
        <ele>62.495224</ele>
        <time>2025-05-16T14:47:06.432Z</time>
      </trkpt>
      <trkpt lat="51.756720" lon="5.924110">
        <ele>63.157883</ele>
        <time>2025-05-16T14:47:15.449Z</time>
      </trkpt>
      <trkpt lat="51.757206" lon="5.923095">
        <ele>63.639190</ele>
        <time>2025-05-16T14:47:33.227Z</time>
      </trkpt>
      <trkpt lat="51.758307" lon="5.920969">
        <ele>63.825167</ele>
        <time>2025-05-16T14:48:09.779Z</time>
      </trkpt>
      <trkpt lat="51.758343" lon="5.920948">
        <ele>63.811546</ele>
        <time>2025-05-16T14:48:10.535Z</time>
      </trkpt>
      <trkpt lat="51.759425" lon="5.922318">
        <ele>62.859508</ele>
        <time>2025-05-16T14:48:34.349Z</time>
      </trkpt>
      <trkpt lat="51.760170" lon="5.923303">
        <ele>61.629263</ele>
        <time>2025-05-16T14:48:45.750Z</time>
      </trkpt>
      <trkpt lat="51.760720" lon="5.924386">
        <ele>60.076549</ele>
        <time>2025-05-16T14:48:55.672Z</time>
      </trkpt>
      <trkpt lat="51.761520" lon="5.925960">
        <ele>57.414061</ele>
        <time>2025-05-16T14:49:09.145Z</time>
      </trkpt>
      <trkpt lat="51.764535" lon="5.931888">
        <ele>45.502716</ele>
        <time>2025-05-16T14:49:58.788Z</time>
      </trkpt>
      <trkpt lat="51.764920" lon="5.931610">
        <ele>44.633420</ele>
        <time>2025-05-16T14:50:03.833Z</time>
      </trkpt>
      <trkpt lat="51.765160" lon="5.931420">
        <ele>44.109590</ele>
        <time>2025-05-16T14:50:08.639Z</time>
      </trkpt>
      <trkpt lat="51.766285" lon="5.930303">
        <ele>42.359630</ele>
        <time>2025-05-16T14:50:31.725Z</time>
      </trkpt>
      <trkpt lat="51.767297" lon="5.929291">
        <ele>40.784323</ele>
        <time>2025-05-16T14:50:50.193Z</time>
      </trkpt>
      <trkpt lat="51.768836" lon="5.927743">
        <ele>39.610052</ele>
        <time>2025-05-16T14:51:22.573Z</time>
      </trkpt>
      <trkpt lat="51.769014" lon="5.927560">
        <ele>39.669358</ele>
        <time>2025-05-16T14:51:27.013Z</time>
      </trkpt>
      <trkpt lat="51.769627" lon="5.926956">
        <ele>39.871183</ele>
        <time>2025-05-16T14:51:44.014Z</time>
      </trkpt>
      <trkpt lat="51.769825" lon="5.926838">
        <ele>40.107252</ele>
        <time>2025-05-16T14:51:49.661Z</time>
      </trkpt>
      <trkpt lat="51.769916" lon="5.926835">
        <ele>40.287228</ele>
        <time>2025-05-16T14:51:52.126Z</time>
      </trkpt>
      <trkpt lat="51.771067" lon="5.927228">
        <ele>42.613395</ele>
        <time>2025-05-16T14:52:26.412Z</time>
      </trkpt>
      <trkpt lat="51.771648" lon="5.927426">
        <ele>43.753547</ele>
        <time>2025-05-16T14:52:43.591Z</time>
      </trkpt>
      <trkpt lat="51.771729" lon="5.927454">
        <ele>43.900471</ele>
        <time>2025-05-16T14:52:45.838Z</time>
      </trkpt>
      <trkpt lat="51.772522" lon="5.927719">
        <ele>45.336816</ele>
        <time>2025-05-16T14:53:07.288Z</time>
      </trkpt>
      <trkpt lat="51.772878" lon="5.927830">
        <ele>45.979918</ele>
        <time>2025-05-16T14:53:16.637Z</time>
      </trkpt>
      <trkpt lat="51.774350" lon="5.928332">
        <ele>49.828712</ele>
        <time>2025-05-16T14:53:58.921Z</time>
      </trkpt>
      <trkpt lat="51.774411" lon="5.928292">
        <ele>50.014380</ele>
        <time>2025-05-16T14:54:01.223Z</time>
      </trkpt>
      <trkpt lat="51.774492" lon="5.928225">
        <ele>50.271016</ele>
        <time>2025-05-16T14:54:03.917Z</time>
      </trkpt>
      <trkpt lat="51.774374" lon="5.927963">
        <ele>50.836544</ele>
        <time>2025-05-16T14:54:10.151Z</time>
      </trkpt>
      <trkpt lat="51.774437" lon="5.927846">
        <ele>51.107215</ele>
        <time>2025-05-16T14:54:13.791Z</time>
      </trkpt>
      <trkpt lat="51.774424" lon="5.927610">
        <ele>51.520701</ele>
        <time>2025-05-16T14:54:19.344Z</time>
      </trkpt>
      <trkpt lat="51.774416" lon="5.927465">
        <ele>51.800151</ele>
        <time>2025-05-16T14:54:22.772Z</time>
      </trkpt>
      <trkpt lat="51.774391" lon="5.926923">
        <ele>53.196936</ele>
        <time>2025-05-16T14:54:35.723Z</time>
      </trkpt>
      <trkpt lat="51.774421" lon="5.926560">
        <ele>54.138117</ele>
        <time>2025-05-16T14:54:44.611Z</time>
      </trkpt>
      <trkpt lat="51.774416" lon="5.926098">
        <ele>55.325621</ele>
        <time>2025-05-16T14:54:55.952Z</time>
      </trkpt>
      <trkpt lat="51.774371" lon="5.924488">
        <ele>59.309875</ele>
        <time>2025-05-16T14:55:32.306Z</time>
      </trkpt>
      <trkpt lat="51.774347" lon="5.924075">
        <ele>59.767090</ele>
        <time>2025-05-16T14:55:40.488Z</time>
      </trkpt>
      <trkpt lat="51.774330" lon="5.923932">
        <ele>59.927589</ele>
        <time>2025-05-16T14:55:43.315Z</time>
      </trkpt>
      <trkpt lat="51.774324" lon="5.923709">
        <ele>60.173614</ele>
        <time>2025-05-16T14:55:47.529Z</time>
      </trkpt>
      <trkpt lat="51.774358" lon="5.923466">
        <ele>60.448213</ele>
        <time>2025-05-16T14:55:52.072Z</time>
      </trkpt>
      <trkpt lat="51.774359" lon="5.923147">
        <ele>60.799822</ele>
        <time>2025-05-16T14:55:57.679Z</time>
      </trkpt>
      <trkpt lat="51.774334" lon="5.922906">
        <ele>61.069162</ele>
        <time>2025-05-16T14:56:01.789Z</time>
      </trkpt>
      <trkpt lat="51.774339" lon="5.922177">
        <ele>61.872722</ele>
        <time>2025-05-16T14:56:13.348Z</time>
      </trkpt>
      <trkpt lat="51.774306" lon="5.919068">
        <ele>61.831311</ele>
        <time>2025-05-16T14:56:49.380Z</time>
      </trkpt>
      <trkpt lat="51.774262" lon="5.916627">
        <ele>61.486342</ele>
        <time>2025-05-16T14:57:17.191Z</time>
      </trkpt>
      <trkpt lat="51.774228" lon="5.913156">
        <ele>62.498607</ele>
        <time>2025-05-16T14:58:06.577Z</time>
      </trkpt>
      <trkpt lat="51.774185" lon="5.911487">
        <ele>62.854076</ele>
        <time>2025-05-16T14:58:30.001Z</time>
      </trkpt>
      <trkpt lat="51.774199" lon="5.910901">
        <ele>62.965893</ele>
        <time>2025-05-16T14:58:37.753Z</time>
      </trkpt>
      <trkpt lat="51.774150" lon="5.907676">
        <ele>62.553658</ele>
        <time>2025-05-16T14:59:16.154Z</time>
      </trkpt>
      <trkpt lat="51.774146" lon="5.906899">
        <ele>62.369123</ele>
        <time>2025-05-16T14:59:24.754Z</time>
      </trkpt>
      <trkpt lat="51.774098" lon="5.906430">
        <ele>62.255498</ele>
        <time>2025-05-16T14:59:30.022Z</time>
      </trkpt>
      <trkpt lat="51.774125" lon="5.906002">
        <ele>62.152666</ele>
        <time>2025-05-16T14:59:34.778Z</time>
      </trkpt>
      <trkpt lat="51.774103" lon="5.903678">
        <ele>61.906067</ele>
        <time>2025-05-16T15:00:02.781Z</time>
      </trkpt>
      <trkpt lat="51.774045" lon="5.902870">
        <ele>62.132358</ele>
        <time>2025-05-16T15:00:14.075Z</time>
      </trkpt>
      <trkpt lat="51.774089" lon="5.902434">
        <ele>62.255254</ele>
        <time>2025-05-16T15:00:20.470Z</time>
      </trkpt>
      <trkpt lat="51.774078" lon="5.901270">
        <ele>62.511396</ele>
        <time>2025-05-16T15:00:37.429Z</time>
      </trkpt>
      <trkpt lat="51.774050" lon="5.900817">
        <ele>62.357335</ele>
        <time>2025-05-16T15:00:43.644Z</time>
      </trkpt>
      <trkpt lat="51.774073" lon="5.900267">
        <ele>62.170787</ele>
        <time>2025-05-16T15:00:50.765Z</time>
      </trkpt>
      <trkpt lat="51.774043" lon="5.897915">
        <ele>60.690277</ele>
        <time>2025-05-16T15:01:15.614Z</time>
      </trkpt>
      <trkpt lat="51.774009" lon="5.897590">
        <ele>60.177328</ele>
        <time>2025-05-16T15:01:18.763Z</time>
      </trkpt>
      <trkpt lat="51.774130" lon="5.897490">
        <ele>59.835526</ele>
        <time>2025-05-16T15:01:20.207Z</time>
      </trkpt>
      <trkpt lat="51.774226" lon="5.897351">
        <ele>59.511356</ele>
        <time>2025-05-16T15:01:22.163Z</time>
      </trkpt>
      <trkpt lat="51.776632" lon="5.894764">
        <ele>51.071657</ele>
        <time>2025-05-16T15:02:04.422Z</time>
      </trkpt>
      <trkpt lat="51.777263" lon="5.894090">
        <ele>48.749754</ele>
        <time>2025-05-16T15:02:15.400Z</time>
      </trkpt>
      <trkpt lat="51.777348" lon="5.893961">
        <ele>48.391809</ele>
        <time>2025-05-16T15:02:17.104Z</time>
      </trkpt>
      <trkpt lat="51.777695" lon="5.893584">
        <ele>47.108258</ele>
        <time>2025-05-16T15:02:23.186Z</time>
      </trkpt>
      <trkpt lat="51.778004" lon="5.893283">
        <ele>46.000703</ele>
        <time>2025-05-16T15:02:28.504Z</time>
      </trkpt>
      <trkpt lat="51.778200" lon="5.893100">
        <ele>45.595462</ele>
        <time>2025-05-16T15:02:31.917Z</time>
      </trkpt>
      <trkpt lat="51.778256" lon="5.893037">
        <ele>45.490796</ele>
        <time>2025-05-16T15:02:32.970Z</time>
      </trkpt>
      <trkpt lat="51.778519" lon="5.892695">
        <ele>44.972982</ele>
        <time>2025-05-16T15:02:38.287Z</time>
      </trkpt>
      <trkpt lat="51.778834" lon="5.892197">
        <ele>44.297041</ele>
        <time>2025-05-16T15:02:45.543Z</time>
      </trkpt>
      <trkpt lat="51.780055" lon="5.890865">
        <ele>42.234301</ele>
        <time>2025-05-16T15:03:11.832Z</time>
      </trkpt>
      <trkpt lat="51.782482" lon="5.888331">
        <ele>37.863606</ele>
        <time>2025-05-16T15:03:59.016Z</time>
      </trkpt>
      <trkpt lat="51.782826" lon="5.888026">
        <ele>37.149307</ele>
        <time>2025-05-16T15:04:05.102Z</time>
      </trkpt>
      <trkpt lat="51.783017" lon="5.887964">
        <ele>36.794637</ele>
        <time>2025-05-16T15:04:08.143Z</time>
      </trkpt>
      <trkpt lat="51.782990" lon="5.887775">
        <ele>36.576169</ele>
        <time>2025-05-16T15:04:09.449Z</time>
      </trkpt>
      <trkpt lat="51.782920" lon="5.887366">
        <ele>36.098218</ele>
        <time>2025-05-16T15:04:12.321Z</time>
      </trkpt>
      <trkpt lat="51.782775" lon="5.886897">
        <ele>35.507702</ele>
        <time>2025-05-16T15:04:15.921Z</time>
      </trkpt>
      <trkpt lat="51.782781" lon="5.886676">
        <ele>35.258554</ele>
        <time>2025-05-16T15:04:17.458Z</time>
      </trkpt>
      <trkpt lat="51.782806" lon="5.886252">
        <ele>34.778846</ele>
        <time>2025-05-16T15:04:20.475Z</time>
      </trkpt>
      <trkpt lat="51.782807" lon="5.886216">
        <ele>34.738259</ele>
        <time>2025-05-16T15:04:20.726Z</time>
      </trkpt>
      <trkpt lat="51.782809" lon="5.886161">
        <ele>34.676207</ele>
        <time>2025-05-16T15:04:21.121Z</time>
      </trkpt>
      <trkpt lat="51.782809" lon="5.886099">
        <ele>34.606377</ele>
        <time>2025-05-16T15:04:21.566Z</time>
      </trkpt>
      <trkpt lat="51.782746" lon="5.885487">
        <ele>34.119844</ele>
        <time>2025-05-16T15:04:26.047Z</time>
      </trkpt>
      <trkpt lat="51.782599" lon="5.884061">
        <ele>32.996764</ele>
        <time>2025-05-16T15:04:36.785Z</time>
      </trkpt>
      <trkpt lat="51.782573" lon="5.883813">
        <ele>32.801355</ele>
        <time>2025-05-16T15:04:38.644Z</time>
      </trkpt>
      <trkpt lat="51.782374" lon="5.881889">
        <ele>31.132512</ele>
        <time>2025-05-16T15:04:52.934Z</time>
      </trkpt>
      <trkpt lat="51.782241" lon="5.880598">
        <ele>29.966806</ele>
        <time>2025-05-16T15:05:02.251Z</time>
      </trkpt>
      <trkpt lat="51.782118" lon="5.879407">
        <ele>28.630103</ele>
        <time>2025-05-16T15:05:10.547Z</time>
      </trkpt>
      <trkpt lat="51.781944" lon="5.877722">
        <ele>26.642130</ele>
        <time>2025-05-16T15:05:22.113Z</time>
      </trkpt>
      <trkpt lat="51.781922" lon="5.877133">
        <ele>26.064525</ele>
        <time>2025-05-16T15:05:26.239Z</time>
      </trkpt>
      <trkpt lat="51.781993" lon="5.876561">
        <ele>25.568560</ele>
        <time>2025-05-16T15:05:30.425Z</time>
      </trkpt>
      <trkpt lat="51.782083" lon="5.876197">
        <ele>25.235315</ele>
        <time>2025-05-16T15:05:33.283Z</time>
      </trkpt>
      <trkpt lat="51.782170" lon="5.875940">
        <ele>24.986263</ele>
        <time>2025-05-16T15:05:35.452Z</time>
      </trkpt>
      <trkpt lat="51.782246" lon="5.875713">
        <ele>24.766837</ele>
        <time>2025-05-16T15:05:37.384Z</time>
      </trkpt>
      <trkpt lat="51.782605" lon="5.874853">
        <ele>23.885094</ele>
        <time>2025-05-16T15:05:45.063Z</time>
      </trkpt>
      <trkpt lat="51.782844" lon="5.874183">
        <ele>23.268199</ele>
        <time>2025-05-16T15:05:50.566Z</time>
      </trkpt>
      <trkpt lat="51.782923" lon="5.873860">
        <ele>22.991158</ele>
        <time>2025-05-16T15:05:53.031Z</time>
      </trkpt>
      <trkpt lat="51.782947" lon="5.873761">
        <ele>22.906346</ele>
        <time>2025-05-16T15:05:53.789Z</time>
      </trkpt>
      <trkpt lat="51.783041" lon="5.873053">
        <ele>22.328762</ele>
        <time>2025-05-16T15:05:58.989Z</time>
      </trkpt>
      <trkpt lat="51.783085" lon="5.872187">
        <ele>21.635686</ele>
        <time>2025-05-16T15:06:05.366Z</time>
      </trkpt>
      <trkpt lat="51.783086" lon="5.871447">
        <ele>21.281110</ele>
        <time>2025-05-16T15:06:11.086Z</time>
      </trkpt>
      <trkpt lat="51.783087" lon="5.870763">
        <ele>20.980854</ele>
        <time>2025-05-16T15:06:16.763Z</time>
      </trkpt>
      <trkpt lat="51.783110" lon="5.870520">
        <ele>20.872943</ele>
        <time>2025-05-16T15:06:18.792Z</time>
      </trkpt>
      <trkpt lat="51.783190" lon="5.870245">
        <ele>20.739546</ele>
        <time>2025-05-16T15:06:21.264Z</time>
      </trkpt>
      <trkpt lat="51.783400" lon="5.869520">
        <ele>20.388138</ele>
        <time>2025-05-16T15:06:27.652Z</time>
      </trkpt>
      <trkpt lat="51.783468" lon="5.869334">
        <ele>20.293298</ele>
        <time>2025-05-16T15:06:29.353Z</time>
      </trkpt>
      <trkpt lat="51.783430" lon="5.869304">
        <ele>20.246726</ele>
        <time>2025-05-16T15:06:33.912Z</time>
      </trkpt>
      <trkpt lat="51.783710" lon="5.868393">
        <ele>19.553595</ele>
        <time>2025-05-16T15:06:41.577Z</time>
      </trkpt>
      <trkpt lat="51.783740" lon="5.868170">
        <ele>19.398096</ele>
        <time>2025-05-16T15:06:43.244Z</time>
      </trkpt>
      <trkpt lat="51.783842" lon="5.868125">
        <ele>19.281640</ele>
        <time>2025-05-16T15:06:44.476Z</time>
      </trkpt>
      <trkpt lat="51.783896" lon="5.868097">
        <ele>19.219178</ele>
        <time>2025-05-16T15:06:45.152Z</time>
      </trkpt>
      <trkpt lat="51.783984" lon="5.868049">
        <ele>19.116882</ele>
        <time>2025-05-16T15:06:46.225Z</time>
      </trkpt>
      <trkpt lat="51.784412" lon="5.867629">
        <ele>18.565404</ele>
        <time>2025-05-16T15:06:52.148Z</time>
      </trkpt>
      <trkpt lat="51.784778" lon="5.867366">
        <ele>18.170887</ele>
        <time>2025-05-16T15:06:56.999Z</time>
      </trkpt>
      <trkpt lat="51.785278" lon="5.867066">
        <ele>17.729234</ele>
        <time>2025-05-16T15:07:03.541Z</time>
      </trkpt>
      <trkpt lat="51.785383" lon="5.866983">
        <ele>17.632444</ele>
        <time>2025-05-16T15:07:05.007Z</time>
      </trkpt>
      <trkpt lat="51.785590" lon="5.866724">
        <ele>17.415678</ele>
        <time>2025-05-16T15:07:08.333Z</time>
      </trkpt>
      <trkpt lat="51.785759" lon="5.866561">
        <ele>17.252711</ele>
        <time>2025-05-16T15:07:10.870Z</time>
      </trkpt>
      <trkpt lat="51.785659" lon="5.866352">
        <ele>17.117358</ele>
        <time>2025-05-16T15:07:16.563Z</time>
      </trkpt>
      <trkpt lat="51.785714" lon="5.866229">
        <ele>17.039611</ele>
        <time>2025-05-16T15:07:19.830Z</time>
      </trkpt>
      <trkpt lat="51.785975" lon="5.865642">
        <ele>16.726374</ele>
        <time>2025-05-16T15:07:35.437Z</time>
      </trkpt>
      <trkpt lat="51.786202" lon="5.865172">
        <ele>16.534548</ele>
        <time>2025-05-16T15:07:48.343Z</time>
      </trkpt>
      <trkpt lat="51.786435" lon="5.864686">
        <ele>16.336744</ele>
        <time>2025-05-16T15:08:01.585Z</time>
      </trkpt>
      <trkpt lat="51.786483" lon="5.864880">
        <ele>16.269527</ele>
        <time>2025-05-16T15:08:06.075Z</time>
      </trkpt>
      <trkpt lat="51.787116" lon="5.863417">
        <ele>15.787551</ele>
        <time>2025-05-16T15:08:20.906Z</time>
      </trkpt>
      <trkpt lat="51.788168" lon="5.862221">
        <ele>15.440195</ele>
        <time>2025-05-16T15:08:39.186Z</time>
      </trkpt>
      <trkpt lat="51.789178" lon="5.861097">
        <ele>15.018951</ele>
        <time>2025-05-16T15:08:55.775Z</time>
      </trkpt>
      <trkpt lat="51.789677" lon="5.860601">
        <ele>14.812030</ele>
        <time>2025-05-16T15:09:03.550Z</time>
      </trkpt>
      <trkpt lat="51.790126" lon="5.860141">
        <ele>14.807220</ele>
        <time>2025-05-16T15:09:11.182Z</time>
      </trkpt>
      <trkpt lat="51.790330" lon="5.860031">
        <ele>14.829169</ele>
        <time>2025-05-16T15:09:14.439Z</time>
      </trkpt>
      <trkpt lat="51.790435" lon="5.860000">
        <ele>14.840064</ele>
        <time>2025-05-16T15:09:16.117Z</time>
      </trkpt>
      <trkpt lat="51.791135" lon="5.859795">
        <ele>14.912673</ele>
        <time>2025-05-16T15:09:27.772Z</time>
      </trkpt>
      <trkpt lat="51.791744" lon="5.859592">
        <ele>14.835582</ele>
        <time>2025-05-16T15:09:37.480Z</time>
      </trkpt>
      <trkpt lat="51.791497" lon="5.856964">
        <ele>14.097325</ele>
        <time>2025-05-16T15:09:58.879Z</time>
      </trkpt>
      <trkpt lat="51.791489" lon="5.856001">
        <ele>13.770805</ele>
        <time>2025-05-16T15:10:06.544Z</time>
      </trkpt>
      <trkpt lat="51.791494" lon="5.854971">
        <ele>13.421589</ele>
        <time>2025-05-16T15:10:14.914Z</time>
      </trkpt>
      <trkpt lat="51.791326" lon="5.852716">
        <ele>12.726782</ele>
        <time>2025-05-16T15:10:33.747Z</time>
      </trkpt>
      <trkpt lat="51.791291" lon="5.851673">
        <ele>12.424215</ele>
        <time>2025-05-16T15:10:42.163Z</time>
      </trkpt>
      <trkpt lat="51.791341" lon="5.850767">
        <ele>12.171170</ele>
        <time>2025-05-16T15:10:49.847Z</time>
      </trkpt>
      <trkpt lat="51.791440" lon="5.850649">
        <ele>12.117208</ele>
        <time>2025-05-16T15:10:52.176Z</time>
      </trkpt>
      <trkpt lat="51.791500" lon="5.850504">
        <ele>12.069867</ele>
        <time>2025-05-16T15:10:54.205Z</time>
      </trkpt>
      <trkpt lat="51.791553" lon="5.850307">
        <ele>12.011570</ele>
        <time>2025-05-16T15:10:56.695Z</time>
      </trkpt>
      <trkpt lat="51.791565" lon="5.850117">
        <ele>11.959742</ele>
        <time>2025-05-16T15:10:58.903Z</time>
      </trkpt>
      <trkpt lat="51.791572" lon="5.850058">
        <ele>11.943440</ele>
        <time>2025-05-16T15:10:59.601Z</time>
      </trkpt>
      <trkpt lat="51.791626" lon="5.849920">
        <ele>11.899127</ele>
        <time>2025-05-16T15:11:00.937Z</time>
      </trkpt>
      <trkpt lat="51.791701" lon="5.849831">
        <ele>11.858310</ele>
        <time>2025-05-16T15:11:02.174Z</time>
      </trkpt>
      <trkpt lat="51.791692" lon="5.849711">
        <ele>11.825507</ele>
        <time>2025-05-16T15:11:03.167Z</time>
      </trkpt>
      <trkpt lat="51.791684" lon="5.849603">
        <ele>11.795991</ele>
        <time>2025-05-16T15:11:04.060Z</time>
      </trkpt>
      <trkpt lat="51.791620" lon="5.849558">
        <ele>11.765371</ele>
        <time>2025-05-16T15:11:04.990Z</time>
      </trkpt>
      <trkpt lat="51.791591" lon="5.849474">
        <ele>11.739266</ele>
        <time>2025-05-16T15:11:05.782Z</time>
      </trkpt>
      <trkpt lat="51.791589" lon="5.849409">
        <ele>11.721606</ele>
        <time>2025-05-16T15:11:06.531Z</time>
      </trkpt>
      <trkpt lat="51.791554" lon="5.848341">
        <ele>11.424215</ele>
        <time>2025-05-16T15:11:19.052Z</time>
      </trkpt>
      <trkpt lat="51.791427" lon="5.847654">
        <ele>11.216411</ele>
        <time>2025-05-16T15:11:27.200Z</time>
      </trkpt>
      <trkpt lat="51.791179" lon="5.846684">
        <ele>10.912221</ele>
        <time>2025-05-16T15:11:39.270Z</time>
      </trkpt>
      <trkpt lat="51.790719" lon="5.845584">
        <ele>10.579941</ele>
        <time>2025-05-16T15:11:54.699Z</time>
      </trkpt>
      <trkpt lat="51.790624" lon="5.845315">
        <ele>10.518473</ele>
        <time>2025-05-16T15:11:58.267Z</time>
      </trkpt>
      <trkpt lat="51.790556" lon="5.844987">
        <ele>10.449826</ele>
        <time>2025-05-16T15:12:02.251Z</time>
      </trkpt>
      <trkpt lat="51.790478" lon="5.844605">
        <ele>10.369999</ele>
        <time>2025-05-16T15:12:06.858Z</time>
      </trkpt>
      <trkpt lat="51.790092" lon="5.843270">
        <ele>10.150451</ele>
        <time>2025-05-16T15:12:24.580Z</time>
      </trkpt>
      <trkpt lat="51.789994" lon="5.843023">
        <ele>10.199848</ele>
        <time>2025-05-16T15:12:28.372Z</time>
      </trkpt>
      <trkpt lat="51.789977" lon="5.842940">
        <ele>10.214566</ele>
        <time>2025-05-16T15:12:29.516Z</time>
      </trkpt>
      <trkpt lat="51.789901" lon="5.842873">
        <ele>10.238125</ele>
        <time>2025-05-16T15:12:31.365Z</time>
      </trkpt>
      <trkpt lat="51.789823" lon="5.842813">
        <ele>10.261633</ele>
        <time>2025-05-16T15:12:33.199Z</time>
      </trkpt>
      <trkpt lat="51.789776" lon="5.842836">
        <ele>10.274997</ele>
        <time>2025-05-16T15:12:34.255Z</time>
      </trkpt>
      <trkpt lat="51.789552" lon="5.842853">
        <ele>10.336026</ele>
        <time>2025-05-16T15:12:39.094Z</time>
      </trkpt>
      <trkpt lat="51.789408" lon="5.842917">
        <ele>10.376669</ele>
        <time>2025-05-16T15:12:42.339Z</time>
      </trkpt>
      <trkpt lat="51.788898" lon="5.843278">
        <ele>10.528186</ele>
        <time>2025-05-16T15:12:54.717Z</time>
      </trkpt>
      <trkpt lat="51.788651" lon="5.843450">
        <ele>10.601378</ele>
        <time>2025-05-16T15:13:00.724Z</time>
      </trkpt>
      <trkpt lat="51.788403" lon="5.843626">
        <ele>10.582639</ele>
        <time>2025-05-16T15:13:06.471Z</time>
      </trkpt>
      <trkpt lat="51.787591" lon="5.844202">
        <ele>10.498687</ele>
        <time>2025-05-16T15:13:23.562Z</time>
      </trkpt>
      <trkpt lat="51.787016" lon="5.844615">
        <ele>10.439117</ele>
        <time>2025-05-16T15:13:35.950Z</time>
      </trkpt>
      <trkpt lat="51.786811" lon="5.844661">
        <ele>10.461038</ele>
        <time>2025-05-16T15:13:40.066Z</time>
      </trkpt>
      <trkpt lat="51.786681" lon="5.844658">
        <ele>10.479348</ele>
        <time>2025-05-16T15:13:41.950Z</time>
      </trkpt>
      <trkpt lat="51.786518" lon="5.844571">
        <ele>10.503523</ele>
        <time>2025-05-16T15:13:44.433Z</time>
      </trkpt>
      <trkpt lat="51.786436" lon="5.844499">
        <ele>10.516665</ele>
        <time>2025-05-16T15:13:46.277Z</time>
      </trkpt>
      <trkpt lat="51.786306" lon="5.844381">
        <ele>10.537663</ele>
        <time>2025-05-16T15:13:49.298Z</time>
      </trkpt>
      <trkpt lat="51.786172" lon="5.844221">
        <ele>10.561124</ele>
        <time>2025-05-16T15:13:51.858Z</time>
      </trkpt>
      <trkpt lat="51.786014" lon="5.843927">
        <ele>10.595054</ele>
        <time>2025-05-16T15:13:55.719Z</time>
      </trkpt>
      <trkpt lat="51.785842" lon="5.843718">
        <ele>10.625358</ele>
        <time>2025-05-16T15:13:59.242Z</time>
      </trkpt>
      <trkpt lat="51.785275" lon="5.842551">
        <ele>10.818200</ele>
        <time>2025-05-16T15:14:13.739Z</time>
      </trkpt>
      <trkpt lat="51.785078" lon="5.842056">
        <ele>10.919535</ele>
        <time>2025-05-16T15:14:19.529Z</time>
      </trkpt>
      <trkpt lat="51.784088" lon="5.839227">
        <ele>10.996690</ele>
        <time>2025-05-16T15:14:51.972Z</time>
      </trkpt>
      <trkpt lat="51.783624" lon="5.837893">
        <ele>10.673950</ele>
        <time>2025-05-16T15:15:03.894Z</time>
      </trkpt>
      <trkpt lat="51.783327" lon="5.837166">
        <ele>10.150695</ele>
        <time>2025-05-16T15:15:10.235Z</time>
      </trkpt>
      <trkpt lat="51.782815" lon="5.835940">
        <ele>9.262274</ele>
        <time>2025-05-16T15:15:21.357Z</time>
      </trkpt>
      <trkpt lat="51.782647" lon="5.835547">
        <ele>9.048103</ele>
        <time>2025-05-16T15:15:25.135Z</time>
      </trkpt>
      <trkpt lat="51.784530" lon="5.832123">
        <ele>8.057736</ele>
        <time>2025-05-16T15:16:03.832Z</time>
      </trkpt>
      <trkpt lat="51.784660" lon="5.831973">
        <ele>8.022858</ele>
        <time>2025-05-16T15:16:06.179Z</time>
      </trkpt>
      <trkpt lat="51.784780" lon="5.831954">
        <ele>7.996528</ele>
        <time>2025-05-16T15:16:07.964Z</time>
      </trkpt>
      <trkpt lat="51.784812" lon="5.831705">
        <ele>7.962173</ele>
        <time>2025-05-16T15:16:11.138Z</time>
      </trkpt>
      <trkpt lat="51.784962" lon="5.831470">
        <ele>7.921949</ele>
        <time>2025-05-16T15:16:15.378Z</time>
      </trkpt>
      <trkpt lat="51.786284" lon="5.830141">
        <ele>7.983103</ele>
        <time>2025-05-16T15:16:47.030Z</time>
      </trkpt>
      <trkpt lat="51.786563" lon="5.829832">
        <ele>7.986465</ele>
        <time>2025-05-16T15:16:53.859Z</time>
      </trkpt>
      <trkpt lat="51.786689" lon="5.829624">
        <ele>7.978300</ele>
        <time>2025-05-16T15:16:57.516Z</time>
      </trkpt>
      <trkpt lat="51.787146" lon="5.827987">
        <ele>7.927931</ele>
        <time>2025-05-16T15:17:19.927Z</time>
      </trkpt>
      <trkpt lat="51.787472" lon="5.827277">
        <ele>7.878317</ele>
        <time>2025-05-16T15:17:30.789Z</time>
      </trkpt>
      <trkpt lat="51.789210" lon="5.822020">
        <ele>7.108563</ele>
        <time>2025-05-16T15:18:42.391Z</time>
      </trkpt>
      <trkpt lat="51.789672" lon="5.820466">
        <ele>6.947193</ele>
        <time>2025-05-16T15:19:02.926Z</time>
      </trkpt>
      <trkpt lat="51.789991" lon="5.819108">
        <ele>6.931941</ele>
        <time>2025-05-16T15:19:21.381Z</time>
      </trkpt>
      <trkpt lat="51.790066" lon="5.818941">
        <ele>6.949946</ele>
        <time>2025-05-16T15:19:24.108Z</time>
      </trkpt>
      <trkpt lat="51.790667" lon="5.817942">
        <ele>7.071530</ele>
        <time>2025-05-16T15:19:42.224Z</time>
      </trkpt>
      <trkpt lat="51.790801" lon="5.817596">
        <ele>7.107145</ele>
        <time>2025-05-16T15:19:47.395Z</time>
      </trkpt>
      <trkpt lat="51.791011" lon="5.816840">
        <ele>7.169752</ele>
        <time>2025-05-16T15:19:57.894Z</time>
      </trkpt>
      <trkpt lat="51.791144" lon="5.815990">
        <ele>7.231995</ele>
        <time>2025-05-16T15:20:09.032Z</time>
      </trkpt>
      <trkpt lat="51.791210" lon="5.815843">
        <ele>7.244890</ele>
        <time>2025-05-16T15:20:11.332Z</time>
      </trkpt>
      <trkpt lat="51.791350" lon="5.815643">
        <ele>7.266332</ele>
        <time>2025-05-16T15:20:15.223Z</time>
      </trkpt>
      <trkpt lat="51.792760" lon="5.813736">
        <ele>7.530101</ele>
        <time>2025-05-16T15:20:53.813Z</time>
      </trkpt>
      <trkpt lat="51.792786" lon="5.813628">
        <ele>7.541355</ele>
        <time>2025-05-16T15:20:55.271Z</time>
      </trkpt>
      <trkpt lat="51.791165" lon="5.811164">
        <ele>7.678864</ele>
        <time>2025-05-16T15:21:28.477Z</time>
      </trkpt>
      <trkpt lat="51.791154" lon="5.811076">
        <ele>7.680473</ele>
        <time>2025-05-16T15:21:29.313Z</time>
      </trkpt>
      <trkpt lat="51.792384" lon="5.808217">
        <ele>7.578793</ele>
        <time>2025-05-16T15:22:00.894Z</time>
      </trkpt>
      <trkpt lat="51.793108" lon="5.806643">
        <ele>7.483270</ele>
        <time>2025-05-16T15:22:18.323Z</time>
      </trkpt>
      <trkpt lat="51.794080" lon="5.804646">
        <ele>7.710241</ele>
        <time>2025-05-16T15:22:42.186Z</time>
      </trkpt>
      <trkpt lat="51.794318" lon="5.804294">
        <ele>7.768847</ele>
        <time>2025-05-16T15:22:47.485Z</time>
      </trkpt>
      <trkpt lat="51.795459" lon="5.802115">
        <ele>8.433275</ele>
        <time>2025-05-16T15:23:16.975Z</time>
      </trkpt>
      <trkpt lat="51.795563" lon="5.802034">
        <ele>8.478487</ele>
        <time>2025-05-16T15:23:18.748Z</time>
      </trkpt>
      <trkpt lat="51.795657" lon="5.802067">
        <ele>8.518298</ele>
        <time>2025-05-16T15:23:20.226Z</time>
      </trkpt>
      <trkpt lat="51.795897" lon="5.802285">
        <ele>8.638024</ele>
        <time>2025-05-16T15:23:24.500Z</time>
      </trkpt>
      <trkpt lat="51.796222" lon="5.802469">
        <ele>8.787790</ele>
        <time>2025-05-16T15:23:29.885Z</time>
      </trkpt>
      <trkpt lat="51.796627" lon="5.802794">
        <ele>8.984436</ele>
        <time>2025-05-16T15:23:37.145Z</time>
      </trkpt>
      <trkpt lat="51.796691" lon="5.802793">
        <ele>9.012273</ele>
        <time>2025-05-16T15:23:38.231Z</time>
      </trkpt>
      <trkpt lat="51.796909" lon="5.802318">
        <ele>9.171376</ele>
        <time>2025-05-16T15:23:44.519Z</time>
      </trkpt>
      <trkpt lat="51.796941" lon="5.802239">
        <ele>9.196778</ele>
        <time>2025-05-16T15:23:45.510Z</time>
      </trkpt>
      <trkpt lat="51.796119" lon="5.801420">
        <ele>9.857862</ele>
        <time>2025-05-16T15:24:02.904Z</time>
      </trkpt>
      <trkpt lat="51.795828" lon="5.801210">
        <ele>10.095453</ele>
        <time>2025-05-16T15:24:08.707Z</time>
      </trkpt>
      <trkpt lat="51.795373" lon="5.800738">
        <ele>10.498507</ele>
        <time>2025-05-16T15:24:18.409Z</time>
      </trkpt>
      <trkpt lat="51.795230" lon="5.800581">
        <ele>10.623830</ele>
        <time>2025-05-16T15:24:21.456Z</time>
      </trkpt>
      <trkpt lat="51.795101" lon="5.800439">
        <ele>10.683312</ele>
        <time>2025-05-16T15:24:24.158Z</time>
      </trkpt>
      <trkpt lat="51.794887" lon="5.800306">
        <ele>10.770696</ele>
        <time>2025-05-16T15:24:28.131Z</time>
      </trkpt>
      <trkpt lat="51.794582" lon="5.800189">
        <ele>10.890175</ele>
        <time>2025-05-16T15:24:33.608Z</time>
      </trkpt>
      <trkpt lat="51.794310" lon="5.800158">
        <ele>10.994106</ele>
        <time>2025-05-16T15:24:38.186Z</time>
      </trkpt>
      <trkpt lat="51.794087" lon="5.800091">
        <ele>11.080558</ele>
        <time>2025-05-16T15:24:41.872Z</time>
      </trkpt>
      <trkpt lat="51.793907" lon="5.800112">
        <ele>11.149344</ele>
        <time>2025-05-16T15:24:45.760Z</time>
      </trkpt>
      <trkpt lat="51.793447" lon="5.800459">
        <ele>11.283491</ele>
        <time>2025-05-16T15:24:56.066Z</time>
      </trkpt>
      <trkpt lat="51.792885" lon="5.800813">
        <ele>11.146203</ele>
        <time>2025-05-16T15:25:07.416Z</time>
      </trkpt>
      <trkpt lat="51.792689" lon="5.800977">
        <ele>11.095969</ele>
        <time>2025-05-16T15:25:11.560Z</time>
      </trkpt>
      <trkpt lat="51.792290" lon="5.801086">
        <ele>11.003861</ele>
        <time>2025-05-16T15:25:19.139Z</time>
      </trkpt>
      <trkpt lat="51.788753" lon="5.802491">
        <ele>10.797812</ele>
        <time>2025-05-16T15:26:32.012Z</time>
      </trkpt>
      <trkpt lat="51.788662" lon="5.802524">
        <ele>10.799345</ele>
        <time>2025-05-16T15:26:34.000Z</time>
      </trkpt>
      <trkpt lat="51.788320" lon="5.802685">
        <ele>10.805585</ele>
        <time>2025-05-16T15:26:41.590Z</time>
      </trkpt>
      <trkpt lat="51.787348" lon="5.803076">
        <ele>10.839837</ele>
        <time>2025-05-16T15:27:02.424Z</time>
      </trkpt>
      <trkpt lat="51.786405" lon="5.803503">
        <ele>10.838764</ele>
        <time>2025-05-16T15:27:21.726Z</time>
      </trkpt>
      <trkpt lat="51.786263" lon="5.803515">
        <ele>10.819534</ele>
        <time>2025-05-16T15:27:24.568Z</time>
      </trkpt>
      <trkpt lat="51.786108" lon="5.803461">
        <ele>10.798091</ele>
        <time>2025-05-16T15:27:27.716Z</time>
      </trkpt>
      <trkpt lat="51.786032" lon="5.803408">
        <ele>10.786897</ele>
        <time>2025-05-16T15:27:29.344Z</time>
      </trkpt>
      <trkpt lat="51.785914" lon="5.803246">
        <ele>10.765961</ele>
        <time>2025-05-16T15:27:32.418Z</time>
      </trkpt>
      <trkpt lat="51.785462" lon="5.802458">
        <ele>10.676058</ele>
        <time>2025-05-16T15:27:45.491Z</time>
      </trkpt>
      <trkpt lat="51.785409" lon="5.802374">
        <ele>10.666020</ele>
        <time>2025-05-16T15:27:46.941Z</time>
      </trkpt>
      <trkpt lat="51.784407" lon="5.800775">
        <ele>10.639566</ele>
        <time>2025-05-16T15:28:14.275Z</time>
      </trkpt>
      <trkpt lat="51.782362" lon="5.797463">
        <ele>11.295463</ele>
        <time>2025-05-16T15:29:17.154Z</time>
      </trkpt>
      <trkpt lat="51.781521" lon="5.796066">
        <ele>11.446530</ele>
        <time>2025-05-16T15:29:35.341Z</time>
      </trkpt>
      <trkpt lat="51.781419" lon="5.795959">
        <ele>11.461763</ele>
        <time>2025-05-16T15:29:37.085Z</time>
      </trkpt>
      <trkpt lat="51.781501" lon="5.795784">
        <ele>11.464945</ele>
        <time>2025-05-16T15:29:39.032Z</time>
      </trkpt>
      <trkpt lat="51.781659" lon="5.795454">
        <ele>11.429782</ele>
        <time>2025-05-16T15:29:42.773Z</time>
      </trkpt>
      <trkpt lat="51.781964" lon="5.794666">
        <ele>11.351454</ele>
        <time>2025-05-16T15:29:51.198Z</time>
      </trkpt>
      <trkpt lat="51.781978" lon="5.794630">
        <ele>11.347870</ele>
        <time>2025-05-16T15:29:51.581Z</time>
      </trkpt>
      <trkpt lat="51.782108" lon="5.794370">
        <ele>11.319700</ele>
        <time>2025-05-16T15:29:54.552Z</time>
      </trkpt>
      <trkpt lat="51.782498" lon="5.793754">
        <ele>11.245427</ele>
        <time>2025-05-16T15:30:02.268Z</time>
      </trkpt>
      <trkpt lat="51.782587" lon="5.793612">
        <ele>11.228393</ele>
        <time>2025-05-16T15:30:04.006Z</time>
      </trkpt>
      <trkpt lat="51.782921" lon="5.793144">
        <ele>11.125248</ele>
        <time>2025-05-16T15:30:10.037Z</time>
      </trkpt>
      <trkpt lat="51.782941" lon="5.793115">
        <ele>11.118924</ele>
        <time>2025-05-16T15:30:10.392Z</time>
      </trkpt>
      <trkpt lat="51.782888" lon="5.793077">
        <ele>11.105276</ele>
        <time>2025-05-16T15:30:11.177Z</time>
      </trkpt>
      <trkpt lat="51.782962" lon="5.792975">
        <ele>11.082385</ele>
        <time>2025-05-16T15:30:12.472Z</time>
      </trkpt>
      <trkpt lat="51.783578" lon="5.792027">
        <ele>10.882180</ele>
        <time>2025-05-16T15:30:24.087Z</time>
      </trkpt>
      <trkpt lat="51.783816" lon="5.791714">
        <ele>10.809959</ele>
        <time>2025-05-16T15:30:28.511Z</time>
      </trkpt>
      <trkpt lat="51.784753" lon="5.790744">
        <ele>10.806093</ele>
        <time>2025-05-16T15:30:45.713Z</time>
      </trkpt>
      <trkpt lat="51.785192" lon="5.790241">
        <ele>10.807241</ele>
        <time>2025-05-16T15:30:53.799Z</time>
      </trkpt>
      <trkpt lat="51.786305" lon="5.788832">
        <ele>10.433526</ele>
        <time>2025-05-16T15:31:13.300Z</time>
      </trkpt>
      <trkpt lat="51.786394" lon="5.788604">
        <ele>10.383195</ele>
        <time>2025-05-16T15:31:15.594Z</time>
      </trkpt>
      <trkpt lat="51.786448" lon="5.788100">
        <ele>10.287702</ele>
        <time>2025-05-16T15:31:19.940Z</time>
      </trkpt>
      <trkpt lat="51.786474" lon="5.788022">
        <ele>10.271161</ele>
        <time>2025-05-16T15:31:20.693Z</time>
      </trkpt>
      <trkpt lat="51.786697" lon="5.787725">
        <ele>10.100344</ele>
        <time>2025-05-16T15:31:24.617Z</time>
      </trkpt>
      <trkpt lat="51.786915" lon="5.787607">
        <ele>9.959185</ele>
        <time>2025-05-16T15:31:27.668Z</time>
      </trkpt>
      <trkpt lat="51.787073" lon="5.787240">
        <ele>9.789355</ele>
        <time>2025-05-16T15:31:31.241Z</time>
      </trkpt>
      <trkpt lat="51.787332" lon="5.786856">
        <ele>9.573571</ele>
        <time>2025-05-16T15:31:35.651Z</time>
      </trkpt>
      <trkpt lat="51.788047" lon="5.785477">
        <ele>9.084983</ele>
        <time>2025-05-16T15:31:49.770Z</time>
      </trkpt>
      <trkpt lat="51.789303" lon="5.783878">
        <ele>8.956091</ele>
        <time>2025-05-16T15:32:22.054Z</time>
      </trkpt>
      <trkpt lat="51.789676" lon="5.783401">
        <ele>9.161794</ele>
        <time>2025-05-16T15:32:32.665Z</time>
      </trkpt>
      <trkpt lat="51.789811" lon="5.783221">
        <ele>9.237481</ele>
        <time>2025-05-16T15:32:36.608Z</time>
      </trkpt>
      <trkpt lat="51.790198" lon="5.782707">
        <ele>9.454110</ele>
        <time>2025-05-16T15:32:47.913Z</time>
      </trkpt>
      <trkpt lat="51.791461" lon="5.780740">
        <ele>10.183760</ele>
        <time>2025-05-16T15:33:27.378Z</time>
      </trkpt>
      <trkpt lat="51.791948" lon="5.780065">
        <ele>10.234574</ele>
        <time>2025-05-16T15:33:40.840Z</time>
      </trkpt>
      <trkpt lat="51.791189" lon="5.779040">
        <ele>9.530038</ele>
        <time>2025-05-16T15:33:53.387Z</time>
      </trkpt>
      <trkpt lat="51.790706" lon="5.778563">
        <ele>9.126827</ele>
        <time>2025-05-16T15:34:00.122Z</time>
      </trkpt>
      <trkpt lat="51.790554" lon="5.778367">
        <ele>9.055259</ele>
        <time>2025-05-16T15:34:02.454Z</time>
      </trkpt>
      <trkpt lat="51.790307" lon="5.777923">
        <ele>8.968486</ele>
        <time>2025-05-16T15:34:06.936Z</time>
      </trkpt>
      <trkpt lat="51.790140" lon="5.777769">
        <ele>8.923320</ele>
        <time>2025-05-16T15:34:09.340Z</time>
      </trkpt>
      <trkpt lat="51.790066" lon="5.777725">
        <ele>8.904797</ele>
        <time>2025-05-16T15:34:10.333Z</time>
      </trkpt>
      <trkpt lat="51.789450" lon="5.777272">
        <ele>8.745814</ele>
        <time>2025-05-16T15:34:20.266Z</time>
      </trkpt>
      <trkpt lat="51.788609" lon="5.776247">
        <ele>9.142715</ele>
        <time>2025-05-16T15:34:39.500Z</time>
      </trkpt>
      <trkpt lat="51.788502" lon="5.776191">
        <ele>9.218075</ele>
        <time>2025-05-16T15:34:41.533Z</time>
      </trkpt>
      <trkpt lat="51.788086" lon="5.776102">
        <ele>9.499249</ele>
        <time>2025-05-16T15:34:48.975Z</time>
      </trkpt>
      <trkpt lat="51.786950" lon="5.775908">
        <ele>9.884052</ele>
        <time>2025-05-16T15:35:08.423Z</time>
      </trkpt>
      <trkpt lat="51.786945" lon="5.775907">
        <ele>9.884165</ele>
        <time>2025-05-16T15:35:08.504Z</time>
      </trkpt>
      <trkpt lat="51.786552" lon="5.775802">
        <ele>9.893116</ele>
        <time>2025-05-16T15:35:14.601Z</time>
      </trkpt>
      <trkpt lat="51.786306" lon="5.775662">
        <ele>9.898977</ele>
        <time>2025-05-16T15:35:18.484Z</time>
      </trkpt>
      <trkpt lat="51.785179" lon="5.774830">
        <ele>9.559822</ele>
        <time>2025-05-16T15:35:34.619Z</time>
      </trkpt>
      <trkpt lat="51.784449" lon="5.774233">
        <ele>9.144481</ele>
        <time>2025-05-16T15:35:44.953Z</time>
      </trkpt>
      <trkpt lat="51.785320" lon="5.771719">
        <ele>9.011156</ele>
        <time>2025-05-16T15:36:11.976Z</time>
      </trkpt>
      <trkpt lat="51.785499" lon="5.771533">
        <ele>9.013013</ele>
        <time>2025-05-16T15:36:15.294Z</time>
      </trkpt>
      <trkpt lat="51.785877" lon="5.771360">
        <ele>8.913075</ele>
        <time>2025-05-16T15:36:21.161Z</time>
      </trkpt>
      <trkpt lat="51.785963" lon="5.770991">
        <ele>8.831490</ele>
        <time>2025-05-16T15:36:24.621Z</time>
      </trkpt>
      <trkpt lat="51.786213" lon="5.769564">
        <ele>8.524634</ele>
        <time>2025-05-16T15:36:36.821Z</time>
      </trkpt>
      <trkpt lat="51.786649" lon="5.766928">
        <ele>7.977498</ele>
        <time>2025-05-16T15:36:59.053Z</time>
      </trkpt>
      <trkpt lat="51.786705" lon="5.766411">
        <ele>7.873085</ele>
        <time>2025-05-16T15:37:03.872Z</time>
      </trkpt>
      <trkpt lat="51.786764" lon="5.764147">
        <ele>8.175576</ele>
        <time>2025-05-16T15:37:26.732Z</time>
      </trkpt>
      <trkpt lat="51.786795" lon="5.763867">
        <ele>8.222572</ele>
        <time>2025-05-16T15:37:29.609Z</time>
      </trkpt>
      <trkpt lat="51.786831" lon="5.763790">
        <ele>8.238518</ele>
        <time>2025-05-16T15:37:30.556Z</time>
      </trkpt>
      <trkpt lat="51.786938" lon="5.763674">
        <ele>8.272928</ele>
        <time>2025-05-16T15:37:32.602Z</time>
      </trkpt>
      <trkpt lat="51.787079" lon="5.763624">
        <ele>8.311483</ele>
        <time>2025-05-16T15:37:34.867Z</time>
      </trkpt>
      <trkpt lat="51.787176" lon="5.763601">
        <ele>8.305814</ele>
        <time>2025-05-16T15:37:36.393Z</time>
      </trkpt>
      <trkpt lat="51.787513" lon="5.763628">
        <ele>8.273582</ele>
        <time>2025-05-16T15:37:41.613Z</time>
      </trkpt>
      <trkpt lat="51.787870" lon="5.762920">
        <ele>8.219609</ele>
        <time>2025-05-16T15:37:49.955Z</time>
      </trkpt>
      <trkpt lat="51.788180" lon="5.762190">
        <ele>8.167288</ele>
        <time>2025-05-16T15:37:57.576Z</time>
      </trkpt>
      <trkpt lat="51.788218" lon="5.762021">
        <ele>8.156662</ele>
        <time>2025-05-16T15:37:59.068Z</time>
      </trkpt>
      <trkpt lat="51.788228" lon="5.761391">
        <ele>8.033566</ele>
        <time>2025-05-16T15:38:06.340Z</time>
      </trkpt>
      <trkpt lat="51.788168" lon="5.759981">
        <ele>7.637850</ele>
        <time>2025-05-16T15:38:22.521Z</time>
      </trkpt>
      <trkpt lat="51.788098" lon="5.759641">
        <ele>7.537520</ele>
        <time>2025-05-16T15:38:26.603Z</time>
      </trkpt>
      <trkpt lat="51.787768" lon="5.758821">
        <ele>7.328727</ele>
        <time>2025-05-16T15:38:37.902Z</time>
      </trkpt>
      <trkpt lat="51.787728" lon="5.758631">
        <ele>7.329134</ele>
        <time>2025-05-16T15:38:40.284Z</time>
      </trkpt>
      <trkpt lat="51.787724" lon="5.758198">
        <ele>7.330012</ele>
        <time>2025-05-16T15:38:45.530Z</time>
      </trkpt>
      <trkpt lat="51.787888" lon="5.757401">
        <ele>7.331715</ele>
        <time>2025-05-16T15:38:56.202Z</time>
      </trkpt>
      <trkpt lat="51.787888" lon="5.757231">
        <ele>7.332059</ele>
        <time>2025-05-16T15:38:58.423Z</time>
      </trkpt>
      <trkpt lat="51.787509" lon="5.754999">
        <ele>7.173756</ele>
        <time>2025-05-16T15:39:28.705Z</time>
      </trkpt>
      <trkpt lat="51.787140" lon="5.752740">
        <ele>6.912885</ele>
        <time>2025-05-16T15:39:55.352Z</time>
      </trkpt>
      <trkpt lat="51.787078" lon="5.752511">
        <ele>6.892714</ele>
        <time>2025-05-16T15:39:58.234Z</time>
      </trkpt>
      <trkpt lat="51.786978" lon="5.751771">
        <ele>6.831593</ele>
        <time>2025-05-16T15:40:07.271Z</time>
      </trkpt>
      <trkpt lat="51.786671" lon="5.750000">
        <ele>6.778262</ele>
        <time>2025-05-16T15:40:31.245Z</time>
      </trkpt>
      <trkpt lat="51.786433" lon="5.748604">
        <ele>6.873514</ele>
        <time>2025-05-16T15:40:50.097Z</time>
      </trkpt>
      <trkpt lat="51.786350" lon="5.748517">
        <ele>6.884033</ele>
        <time>2025-05-16T15:40:52.093Z</time>
      </trkpt>
      <trkpt lat="51.786237" lon="5.748505">
        <ele>6.896075</ele>
        <time>2025-05-16T15:40:54.374Z</time>
      </trkpt>
      <trkpt lat="51.785608" lon="5.748821">
        <ele>6.871770</ele>
        <time>2025-05-16T15:41:07.337Z</time>
      </trkpt>
      <trkpt lat="51.785108" lon="5.748911">
        <ele>6.796810</ele>
        <time>2025-05-16T15:41:17.069Z</time>
      </trkpt>
      <trkpt lat="51.784918" lon="5.748901">
        <ele>6.768485</ele>
        <time>2025-05-16T15:41:20.755Z</time>
      </trkpt>
      <trkpt lat="51.784618" lon="5.748791">
        <ele>6.722650</ele>
        <time>2025-05-16T15:41:26.754Z</time>
      </trkpt>
      <trkpt lat="51.782608" lon="5.747451">
        <ele>6.522446</ele>
        <time>2025-05-16T15:42:10.085Z</time>
      </trkpt>
      <trkpt lat="51.782438" lon="5.747291">
        <ele>6.511459</ele>
        <time>2025-05-16T15:42:14.122Z</time>
      </trkpt>
      <trkpt lat="51.781698" lon="5.745551">
        <ele>6.449156</ele>
        <time>2025-05-16T15:42:40.595Z</time>
      </trkpt>
      <trkpt lat="51.781576" lon="5.745226">
        <ele>6.437939</ele>
        <time>2025-05-16T15:42:45.197Z</time>
      </trkpt>
      <trkpt lat="51.781537" lon="5.744989">
        <ele>6.437192</ele>
        <time>2025-05-16T15:42:48.117Z</time>
      </trkpt>
      <trkpt lat="51.781478" lon="5.744173">
        <ele>6.498587</ele>
        <time>2025-05-16T15:42:57.803Z</time>
      </trkpt>
      <trkpt lat="51.781348" lon="5.742792">
        <ele>6.602977</ele>
        <time>2025-05-16T15:43:15.326Z</time>
      </trkpt>
      <trkpt lat="51.781301" lon="5.741956">
        <ele>6.737120</ele>
        <time>2025-05-16T15:43:27.288Z</time>
      </trkpt>
      <trkpt lat="51.781292" lon="5.741244">
        <ele>7.029277</ele>
        <time>2025-05-16T15:43:37.735Z</time>
      </trkpt>
      <trkpt lat="51.781350" lon="5.740611">
        <ele>7.291796</ele>
        <time>2025-05-16T15:43:47.313Z</time>
      </trkpt>
      <trkpt lat="51.781370" lon="5.740519">
        <ele>7.331801</ele>
        <time>2025-05-16T15:43:48.751Z</time>
      </trkpt>
      <trkpt lat="51.781385" lon="5.740451">
        <ele>7.361418</ele>
        <time>2025-05-16T15:43:49.818Z</time>
      </trkpt>
      <trkpt lat="51.781057" lon="5.740269">
        <ele>7.591380</ele>
        <time>2025-05-16T15:43:56.107Z</time>
      </trkpt>
      <trkpt lat="51.781030" lon="5.740150">
        <ele>7.643379</ele>
        <time>2025-05-16T15:43:57.484Z</time>
      </trkpt>
      <trkpt lat="51.780938" lon="5.739989">
        <ele>7.733292</ele>
        <time>2025-05-16T15:43:59.795Z</time>
      </trkpt>
      <trkpt lat="51.779895" lon="5.738783">
        <ele>7.835922</ele>
        <time>2025-05-16T15:44:18.776Z</time>
      </trkpt>
      <trkpt lat="51.779333" lon="5.738182">
        <ele>7.831948</ele>
        <time>2025-05-16T15:44:28.401Z</time>
      </trkpt>
      <trkpt lat="51.779035" lon="5.738017">
        <ele>7.855583</ele>
        <time>2025-05-16T15:44:32.906Z</time>
      </trkpt>
      <trkpt lat="51.778547" lon="5.737848">
        <ele>7.893957</ele>
        <time>2025-05-16T15:44:40.244Z</time>
      </trkpt>
      <trkpt lat="51.778354" lon="5.737792">
        <ele>7.909034</ele>
        <time>2025-05-16T15:44:43.252Z</time>
      </trkpt>
      <trkpt lat="51.778150" lon="5.737721">
        <ele>7.925080</ele>
        <time>2025-05-16T15:44:46.490Z</time>
      </trkpt>
      <trkpt lat="51.777102" lon="5.737384">
        <ele>8.088094</ele>
        <time>2025-05-16T15:45:03.516Z</time>
      </trkpt>
      <trkpt lat="51.774182" lon="5.736510">
        <ele>8.729149</ele>
        <time>2025-05-16T15:45:50.302Z</time>
      </trkpt>
      <trkpt lat="51.773915" lon="5.736512">
        <ele>8.753553</ele>
        <time>2025-05-16T15:45:54.275Z</time>
      </trkpt>
      <trkpt lat="51.773874" lon="5.736961">
        <ele>8.744858</ele>
        <time>2025-05-16T15:45:58.451Z</time>
      </trkpt>
      <trkpt lat="51.774013" lon="5.738966">
        <ele>8.706205</ele>
        <time>2025-05-16T15:46:16.619Z</time>
      </trkpt>
      <trkpt lat="51.773780" lon="5.739021">
        <ele>8.720918</ele>
        <time>2025-05-16T15:46:20.005Z</time>
      </trkpt>
      <trkpt lat="51.773282" lon="5.738993">
        <ele>8.831407</ele>
        <time>2025-05-16T15:46:27.155Z</time>
      </trkpt>
      <trkpt lat="51.773061" lon="5.738868">
        <ele>8.883325</ele>
        <time>2025-05-16T15:46:30.510Z</time>
      </trkpt>
      <trkpt lat="51.772841" lon="5.738615">
        <ele>8.943196</ele>
        <time>2025-05-16T15:46:34.431Z</time>
      </trkpt>
      <trkpt lat="51.772496" lon="5.738343">
        <ele>9.028311</ele>
        <time>2025-05-16T15:46:40.567Z</time>
      </trkpt>
      <trkpt lat="51.772335" lon="5.738290">
        <ele>9.064743</ele>
        <time>2025-05-16T15:46:43.338Z</time>
      </trkpt>
      <trkpt lat="51.772181" lon="5.738331">
        <ele>9.099350</ele>
        <time>2025-05-16T15:46:46.127Z</time>
      </trkpt>
      <trkpt lat="51.772029" lon="5.738422">
        <ele>9.262713</ele>
        <time>2025-05-16T15:46:49.145Z</time>
      </trkpt>
      <trkpt lat="51.771939" lon="5.738476">
        <ele>9.361798</ele>
        <time>2025-05-16T15:46:50.993Z</time>
      </trkpt>
      <trkpt lat="51.771466" lon="5.738885">
        <ele>9.915476</ele>
        <time>2025-05-16T15:47:05.001Z</time>
      </trkpt>
      <trkpt lat="51.771464" lon="5.739086">
        <ele>10.043865</ele>
        <time>2025-05-16T15:47:07.699Z</time>
      </trkpt>
      <trkpt lat="51.771418" lon="5.739194">
        <ele>10.127601</ele>
        <time>2025-05-16T15:47:09.500Z</time>
      </trkpt>
      <trkpt lat="51.770865" lon="5.739693">
        <ele>10.781306</ele>
        <time>2025-05-16T15:47:21.574Z</time>
      </trkpt>
      <trkpt lat="51.770739" lon="5.739807">
        <ele>10.930346</ele>
        <time>2025-05-16T15:47:24.073Z</time>
      </trkpt>
      <trkpt lat="51.770482" lon="5.740038">
        <ele>10.995924</ele>
        <time>2025-05-16T15:47:28.918Z</time>
      </trkpt>
      <trkpt lat="51.770249" lon="5.739415">
        <ele>11.061546</ele>
        <time>2025-05-16T15:47:35.805Z</time>
      </trkpt>
      <trkpt lat="51.768975" lon="5.735640">
        <ele>11.181070</ele>
        <time>2025-05-16T15:48:14.588Z</time>
      </trkpt>
      <trkpt lat="51.767985" lon="5.732654">
        <ele>11.374934</ele>
        <time>2025-05-16T15:48:47.226Z</time>
      </trkpt>
      <trkpt lat="51.767807" lon="5.732108">
        <ele>11.277055</ele>
        <time>2025-05-16T15:48:52.613Z</time>
      </trkpt>
      <trkpt lat="51.767813" lon="5.731977">
        <ele>11.256221</ele>
        <time>2025-05-16T15:48:53.746Z</time>
      </trkpt>
      <trkpt lat="51.767895" lon="5.731851">
        <ele>11.227221</ele>
        <time>2025-05-16T15:48:55.269Z</time>
      </trkpt>
      <trkpt lat="51.768006" lon="5.731852">
        <ele>11.198772</ele>
        <time>2025-05-16T15:48:56.738Z</time>
      </trkpt>
      <trkpt lat="51.768166" lon="5.732130">
        <ele>11.138560</ele>
        <time>2025-05-16T15:48:59.878Z</time>
      </trkpt>
      <trkpt lat="51.768204" lon="5.732399">
        <ele>11.094798</ele>
        <time>2025-05-16T15:49:02.292Z</time>
      </trkpt>
      <trkpt lat="51.768202" lon="5.732505">
        <ele>11.077979</ele>
        <time>2025-05-16T15:49:03.203Z</time>
      </trkpt>
      <trkpt lat="51.768157" lon="5.732699">
        <ele>11.045119</ele>
        <time>2025-05-16T15:49:05.042Z</time>
      </trkpt>
      <trkpt lat="51.768042" lon="5.732905">
        <ele>11.001118</ele>
        <time>2025-05-16T15:49:07.508Z</time>
      </trkpt>
      <trkpt lat="51.767883" lon="5.732994">
        <ele>10.957992</ele>
        <time>2025-05-16T15:49:09.852Z</time>
      </trkpt>
      <trkpt lat="51.767789" lon="5.732980">
        <ele>10.933215</ele>
        <time>2025-05-16T15:49:11.129Z</time>
      </trkpt>
      <trkpt lat="51.767727" lon="5.732932">
        <ele>10.901218</ele>
        <time>2025-05-16T15:49:12.068Z</time>
      </trkpt>
      <trkpt lat="51.767671" lon="5.732805">
        <ele>10.856303</ele>
        <time>2025-05-16T15:49:13.349Z</time>
      </trkpt>
      <trkpt lat="51.767643" lon="5.732554">
        <ele>10.782842</ele>
        <time>2025-05-16T15:49:15.432Z</time>
      </trkpt>
      <trkpt lat="51.767600" lon="5.732423">
        <ele>10.740131</ele>
        <time>2025-05-16T15:49:16.657Z</time>
      </trkpt>
      <trkpt lat="51.767379" lon="5.731822">
        <ele>10.538772</ele>
        <time>2025-05-16T15:49:24.469Z</time>
      </trkpt>
      <trkpt lat="51.767209" lon="5.731516">
        <ele>10.420329</ele>
        <time>2025-05-16T15:49:29.082Z</time>
      </trkpt>
      <trkpt lat="51.767042" lon="5.731313">
        <ele>10.323066</ele>
        <time>2025-05-16T15:49:33.097Z</time>
      </trkpt>
      <trkpt lat="51.766746" lon="5.731130">
        <ele>10.175561</ele>
        <time>2025-05-16T15:49:39.076Z</time>
      </trkpt>
      <trkpt lat="51.766537" lon="5.731088">
        <ele>10.090852</ele>
        <time>2025-05-16T15:49:42.984Z</time>
      </trkpt>
      <trkpt lat="51.766288" lon="5.731110">
        <ele>10.052664</ele>
        <time>2025-05-16T15:49:47.634Z</time>
      </trkpt>
      <trkpt lat="51.765191" lon="5.731737">
        <ele>9.874476</ele>
        <time>2025-05-16T15:50:10.731Z</time>
      </trkpt>
      <trkpt lat="51.764423" lon="5.732253">
        <ele>10.002161</ele>
        <time>2025-05-16T15:50:27.479Z</time>
      </trkpt>
      <trkpt lat="51.764148" lon="5.732437">
        <ele>10.111917</ele>
        <time>2025-05-16T15:50:33.739Z</time>
      </trkpt>
      <trkpt lat="51.764052" lon="5.732556">
        <ele>10.156534</ele>
        <time>2025-05-16T15:50:36.342Z</time>
      </trkpt>
      <trkpt lat="51.763982" lon="5.732729">
        <ele>10.203705</ele>
        <time>2025-05-16T15:50:39.146Z</time>
      </trkpt>
      <trkpt lat="51.763955" lon="5.732936">
        <ele>10.251984</ele>
        <time>2025-05-16T15:50:42.092Z</time>
      </trkpt>
      <trkpt lat="51.763950" lon="5.733270">
        <ele>10.328232</ele>
        <time>2025-05-16T15:50:46.806Z</time>
      </trkpt>
      <trkpt lat="51.763914" lon="5.733388">
        <ele>10.358256</ele>
        <time>2025-05-16T15:50:48.679Z</time>
      </trkpt>
      <trkpt lat="51.763826" lon="5.733532">
        <ele>10.404440</ele>
        <time>2025-05-16T15:50:51.593Z</time>
      </trkpt>
      <trkpt lat="51.763730" lon="5.733633">
        <ele>10.446683</ele>
        <time>2025-05-16T15:50:54.243Z</time>
      </trkpt>
      <trkpt lat="51.763572" lon="5.733653">
        <ele>10.505715</ele>
        <time>2025-05-16T15:50:57.953Z</time>
      </trkpt>
      <trkpt lat="51.763426" lon="5.733630">
        <ele>10.561412</ele>
        <time>2025-05-16T15:51:01.421Z</time>
      </trkpt>
      <trkpt lat="51.763114" lon="5.733838">
        <ele>10.689562</ele>
        <time>2025-05-16T15:51:09.240Z</time>
      </trkpt>
      <trkpt lat="51.762764" lon="5.734071">
        <ele>10.833290</ele>
        <time>2025-05-16T15:51:17.330Z</time>
      </trkpt>
      <trkpt lat="51.762374" lon="5.734331">
        <ele>10.993477</ele>
        <time>2025-05-16T15:51:26.062Z</time>
      </trkpt>
      <trkpt lat="51.761897" lon="5.734649">
        <ele>11.176497</ele>
        <time>2025-05-16T15:51:36.583Z</time>
      </trkpt>
      <trkpt lat="51.761234" lon="5.735091">
        <ele>11.283770</ele>
        <time>2025-05-16T15:51:52.144Z</time>
      </trkpt>
      <trkpt lat="51.761255" lon="5.735152">
        <ele>11.290232</ele>
        <time>2025-05-16T15:51:53.085Z</time>
      </trkpt>
      <trkpt lat="51.761296" lon="5.735272">
        <ele>11.302921</ele>
        <time>2025-05-16T15:51:54.966Z</time>
      </trkpt>
      <trkpt lat="51.760970" lon="5.735488">
        <ele>11.355620</ele>
        <time>2025-05-16T15:52:02.649Z</time>
      </trkpt>
      <trkpt lat="51.760840" lon="5.735575">
        <ele>11.376666</ele>
        <time>2025-05-16T15:52:05.607Z</time>
      </trkpt>
      <trkpt lat="51.760584" lon="5.735741">
        <ele>11.417924</ele>
        <time>2025-05-16T15:52:11.007Z</time>
      </trkpt>
      <trkpt lat="51.760370" lon="5.735880">
        <ele>11.416934</ele>
        <time>2025-05-16T15:52:15.433Z</time>
      </trkpt>
      <trkpt lat="51.760266" lon="5.735907">
        <ele>11.396127</ele>
        <time>2025-05-16T15:52:17.463Z</time>
      </trkpt>
      <trkpt lat="51.759958" lon="5.735724">
        <ele>11.331306</ele>
        <time>2025-05-16T15:52:23.729Z</time>
      </trkpt>
      <trkpt lat="51.759942" lon="5.735710">
        <ele>11.327712</ele>
        <time>2025-05-16T15:52:24.063Z</time>
      </trkpt>
      <trkpt lat="51.759887" lon="5.735655">
        <ele>11.314935</ele>
        <time>2025-05-16T15:52:25.283Z</time>
      </trkpt>
      <trkpt lat="51.759838" lon="5.735580">
        <ele>11.301602</ele>
        <time>2025-05-16T15:52:26.574Z</time>
      </trkpt>
      <trkpt lat="51.759725" lon="5.735407">
        <ele>11.270852</ele>
        <time>2025-05-16T15:52:29.500Z</time>
      </trkpt>
      <trkpt lat="51.759705" lon="5.735376">
        <ele>11.265378</ele>
        <time>2025-05-16T15:52:30.013Z</time>
      </trkpt>
      <trkpt lat="51.759640" lon="5.735350">
        <ele>11.252151</ele>
        <time>2025-05-16T15:52:31.276Z</time>
      </trkpt>
      <trkpt lat="51.757604" lon="5.736654">
        <ele>10.558378</ele>
        <time>2025-05-16T15:53:14.352Z</time>
      </trkpt>
      <trkpt lat="51.757431" lon="5.736723">
        <ele>10.488137</ele>
        <time>2025-05-16T15:53:17.548Z</time>
      </trkpt>
      <trkpt lat="51.757371" lon="5.736732">
        <ele>10.464384</ele>
        <time>2025-05-16T15:53:18.605Z</time>
      </trkpt>
      <trkpt lat="51.757280" lon="5.736747">
        <ele>10.428327</ele>
        <time>2025-05-16T15:53:20.228Z</time>
      </trkpt>
      <trkpt lat="51.757192" lon="5.736755">
        <ele>10.393584</ele>
        <time>2025-05-16T15:53:21.757Z</time>
      </trkpt>
      <trkpt lat="51.756918" lon="5.736715">
        <ele>10.218333</ele>
        <time>2025-05-16T15:53:26.482Z</time>
      </trkpt>
      <trkpt lat="51.756623" lon="5.736618">
        <ele>10.009286</ele>
        <time>2025-05-16T15:53:31.597Z</time>
      </trkpt>
      <trkpt lat="51.756356" lon="5.736438">
        <ele>9.808385</ele>
        <time>2025-05-16T15:53:36.561Z</time>
      </trkpt>
      <trkpt lat="51.755977" lon="5.736123">
        <ele>9.512420</ele>
        <time>2025-05-16T15:53:44.329Z</time>
      </trkpt>
      <trkpt lat="51.755773" lon="5.735966">
        <ele>9.355509</ele>
        <time>2025-05-16T15:53:48.556Z</time>
      </trkpt>
      <trkpt lat="51.755427" lon="5.735741">
        <ele>9.123860</ele>
        <time>2025-05-16T15:53:55.571Z</time>
      </trkpt>
      <trkpt lat="51.754956" lon="5.735466">
        <ele>9.123650</ele>
        <time>2025-05-16T15:54:05.484Z</time>
      </trkpt>
      <trkpt lat="51.754550" lon="5.735153">
        <ele>9.123460</ele>
        <time>2025-05-16T15:54:14.811Z</time>
      </trkpt>
      <trkpt lat="51.754416" lon="5.735112">
        <ele>9.123403</ele>
        <time>2025-05-16T15:54:17.614Z</time>
      </trkpt>
      <trkpt lat="51.754395" lon="5.735102">
        <ele>9.123393</ele>
        <time>2025-05-16T15:54:18.059Z</time>
      </trkpt>
      <trkpt lat="51.754326" lon="5.735046">
        <ele>9.123361</ele>
        <time>2025-05-16T15:54:19.637Z</time>
      </trkpt>
      <trkpt lat="51.754263" lon="5.734996">
        <ele>9.123331</ele>
        <time>2025-05-16T15:54:21.062Z</time>
      </trkpt>
      <trkpt lat="51.754165" lon="5.734920">
        <ele>9.123286</ele>
        <time>2025-05-16T15:54:23.301Z</time>
      </trkpt>
      <trkpt lat="51.754045" lon="5.734824">
        <ele>9.123229</ele>
        <time>2025-05-16T15:54:26.066Z</time>
      </trkpt>
      <trkpt lat="51.754026" lon="5.734800">
        <ele>9.123219</ele>
        <time>2025-05-16T15:54:26.432Z</time>
      </trkpt>
      <trkpt lat="51.753939" lon="5.734701">
        <ele>9.123174</ele>
        <time>2025-05-16T15:54:28.076Z</time>
      </trkpt>
      <trkpt lat="51.753500" lon="5.734363">
        <ele>9.186710</ele>
        <time>2025-05-16T15:54:35.679Z</time>
      </trkpt>
      <trkpt lat="51.752876" lon="5.733755">
        <ele>9.316658</ele>
        <time>2025-05-16T15:54:47.019Z</time>
      </trkpt>
      <trkpt lat="51.751085" lon="5.732347">
        <ele>9.579947</ele>
        <time>2025-05-16T15:55:17.956Z</time>
      </trkpt>
      <trkpt lat="51.750854" lon="5.732091">
        <ele>9.609766</ele>
        <time>2025-05-16T15:55:22.084Z</time>
      </trkpt>
      <trkpt lat="51.749290" lon="5.730319">
        <ele>9.505613</ele>
        <time>2025-05-16T15:55:49.432Z</time>
      </trkpt>
      <trkpt lat="51.749069" lon="5.730044">
        <ele>9.527149</ele>
        <time>2025-05-16T15:55:53.737Z</time>
      </trkpt>
      <trkpt lat="51.749133" lon="5.729987">
        <ele>9.542417</ele>
        <time>2025-05-16T15:55:54.869Z</time>
      </trkpt>
      <trkpt lat="51.749181" lon="5.729906">
        <ele>9.556919</ele>
        <time>2025-05-16T15:55:55.989Z</time>
      </trkpt>
      <trkpt lat="51.749214" lon="5.729799">
        <ele>9.572380</ele>
        <time>2025-05-16T15:55:57.171Z</time>
      </trkpt>
      <trkpt lat="51.749225" lon="5.729708">
        <ele>9.584372</ele>
        <time>2025-05-16T15:55:58.101Z</time>
      </trkpt>
      <trkpt lat="51.749206" lon="5.729527">
        <ele>9.608117</ele>
        <time>2025-05-16T15:55:59.959Z</time>
      </trkpt>
      <trkpt lat="51.749181" lon="5.729456">
        <ele>9.618681</ele>
        <time>2025-05-16T15:56:00.800Z</time>
      </trkpt>
      <trkpt lat="51.749125" lon="5.729365">
        <ele>9.635276</ele>
        <time>2025-05-16T15:56:02.103Z</time>
      </trkpt>
      <trkpt lat="51.749075" lon="5.729321">
        <ele>9.647171</ele>
        <time>2025-05-16T15:56:03.038Z</time>
      </trkpt>
      <trkpt lat="51.748976" lon="5.729293">
        <ele>9.668168</ele>
        <time>2025-05-16T15:56:04.690Z</time>
      </trkpt>
      <trkpt lat="51.748899" lon="5.729317">
        <ele>9.684551</ele>
        <time>2025-05-16T15:56:05.986Z</time>
      </trkpt>
      <trkpt lat="51.748860" lon="5.729349">
        <ele>9.693689</ele>
        <time>2025-05-16T15:56:06.689Z</time>
      </trkpt>
      <trkpt lat="51.748798" lon="5.729432">
        <ele>9.710512</ele>
        <time>2025-05-16T15:56:08.006Z</time>
      </trkpt>
      <trkpt lat="51.748761" lon="5.729535">
        <ele>9.725914</ele>
        <time>2025-05-16T15:56:09.210Z</time>
      </trkpt>
      <trkpt lat="51.748745" lon="5.729717">
        <ele>9.749690</ele>
        <time>2025-05-16T15:56:10.984Z</time>
      </trkpt>
      <trkpt lat="51.748757" lon="5.729808">
        <ele>9.761724</ele>
        <time>2025-05-16T15:56:11.833Z</time>
      </trkpt>
      <trkpt lat="51.748640" lon="5.729875">
        <ele>9.787657</ele>
        <time>2025-05-16T15:56:14.329Z</time>
      </trkpt>
      <trkpt lat="51.748487" lon="5.729774">
        <ele>9.822187</ele>
        <time>2025-05-16T15:56:17.772Z</time>
      </trkpt>
      <trkpt lat="51.748314" lon="5.729776">
        <ele>9.858330</ele>
        <time>2025-05-16T15:56:21.445Z</time>
      </trkpt>
      <trkpt lat="51.748243" lon="5.729500">
        <ele>9.862936</ele>
        <time>2025-05-16T15:56:24.358Z</time>
      </trkpt>
      <trkpt lat="51.748127" lon="5.729287">
        <ele>9.850773</ele>
        <time>2025-05-16T15:56:27.078Z</time>
      </trkpt>
      <trkpt lat="51.748051" lon="5.729197">
        <ele>9.844247</ele>
        <time>2025-05-16T15:56:28.549Z</time>
      </trkpt>
      <trkpt lat="51.746439" lon="5.728421">
        <ele>9.709567</ele>
        <time>2025-05-16T15:56:52.534Z</time>
      </trkpt>
      <trkpt lat="51.745000" lon="5.727728">
        <ele>9.506483</ele>
        <time>2025-05-16T15:57:13.665Z</time>
      </trkpt>
      <trkpt lat="51.744258" lon="5.727389">
        <ele>9.625367</ele>
        <time>2025-05-16T15:57:25.760Z</time>
      </trkpt>
      <trkpt lat="51.743333" lon="5.726945">
        <ele>9.782083</ele>
        <time>2025-05-16T15:57:40.955Z</time>
      </trkpt>
      <trkpt lat="51.743047" lon="5.726708">
        <ele>9.828992</ele>
        <time>2025-05-16T15:57:45.877Z</time>
      </trkpt>
      <trkpt lat="51.743116" lon="5.726355">
        <ele>9.861107</ele>
        <time>2025-05-16T15:57:50.693Z</time>
      </trkpt>
      <trkpt lat="51.743139" lon="5.725988">
        <ele>9.893109</ele>
        <time>2025-05-16T15:57:55.502Z</time>
      </trkpt>
      <trkpt lat="51.743110" lon="5.725470">
        <ele>9.938233</ele>
        <time>2025-05-16T15:58:02.212Z</time>
      </trkpt>
      <trkpt lat="51.743004" lon="5.724476">
        <ele>10.025739</ele>
        <time>2025-05-16T15:58:15.279Z</time>
      </trkpt>
      <trkpt lat="51.742908" lon="5.724428">
        <ele>10.039819</ele>
        <time>2025-05-16T15:58:17.410Z</time>
      </trkpt>
      <trkpt lat="51.740590" lon="5.721880">
        <ele>9.838317</ele>
        <time>2025-05-16T15:59:13.169Z</time>
      </trkpt>
      <trkpt lat="51.736760" lon="5.717670">
        <ele>9.819335</ele>
        <time>2025-05-16T16:00:46.409Z</time>
      </trkpt>
      <trkpt lat="51.736140" lon="5.716961">
        <ele>10.125614</ele>
        <time>2025-05-16T16:01:02.268Z</time>
      </trkpt>
      <trkpt lat="51.733810" lon="5.714320">
        <ele>11.708661</ele>
        <time>2025-05-16T16:02:07.520Z</time>
      </trkpt>
      <trkpt lat="51.732570" lon="5.712970">
        <ele>12.288351</ele>
        <time>2025-05-16T16:02:40.352Z</time>
      </trkpt>
      <trkpt lat="51.732680" lon="5.711560">
        <ele>12.360129</ele>
        <time>2025-05-16T16:02:58.116Z</time>
      </trkpt>
      <trkpt lat="51.732650" lon="5.711220">
        <ele>12.368392</ele>
        <time>2025-05-16T16:03:02.352Z</time>
      </trkpt>
      <trkpt lat="51.732327" lon="5.709852">
        <ele>12.416124</ele>
        <time>2025-05-16T16:03:20.474Z</time>
      </trkpt>
      <trkpt lat="51.732296" lon="5.709763">
        <ele>12.427067</ele>
        <time>2025-05-16T16:03:21.740Z</time>
      </trkpt>
      <trkpt lat="51.731946" lon="5.708723">
        <ele>12.553920</ele>
        <time>2025-05-16T16:03:36.573Z</time>
      </trkpt>
      <trkpt lat="51.731848" lon="5.708316">
        <ele>12.600721</ele>
        <time>2025-05-16T16:03:42.154Z</time>
      </trkpt>
      <trkpt lat="51.731900" lon="5.708110">
        <ele>12.624562</ele>
        <time>2025-05-16T16:03:45.104Z</time>
      </trkpt>
      <trkpt lat="51.732129" lon="5.706633">
        <ele>12.894145</ele>
        <time>2025-05-16T16:04:06.123Z</time>
      </trkpt>
      <trkpt lat="51.732182" lon="5.706151">
        <ele>13.019587</ele>
        <time>2025-05-16T16:04:13.244Z</time>
      </trkpt>
      <trkpt lat="51.732364" lon="5.704125">
        <ele>13.421649</ele>
        <time>2025-05-16T16:04:40.459Z</time>
      </trkpt>
      <trkpt lat="51.732500" lon="5.702969">
        <ele>13.306929</ele>
        <time>2025-05-16T16:04:54.601Z</time>
      </trkpt>
      <trkpt lat="51.732667" lon="5.702037">
        <ele>13.212336</ele>
        <time>2025-05-16T16:05:06.153Z</time>
      </trkpt>
      <trkpt lat="51.732785" lon="5.701594">
        <ele>13.158929</ele>
        <time>2025-05-16T16:05:11.931Z</time>
      </trkpt>
      <trkpt lat="51.734387" lon="5.697361">
        <ele>12.218556</ele>
        <time>2025-05-16T16:06:10.776Z</time>
      </trkpt>
      <trkpt lat="51.734479" lon="5.697142">
        <ele>12.167520</ele>
        <time>2025-05-16T16:06:13.874Z</time>
      </trkpt>
      <trkpt lat="51.734750" lon="5.696640">
        <ele>12.071316</ele>
        <time>2025-05-16T16:06:21.670Z</time>
      </trkpt>
      <trkpt lat="51.735007" lon="5.696235">
        <ele>12.080657</ele>
        <time>2025-05-16T16:06:28.611Z</time>
      </trkpt>
      <trkpt lat="51.735079" lon="5.695938">
        <ele>12.085794</ele>
        <time>2025-05-16T16:06:32.507Z</time>
      </trkpt>
      <trkpt lat="51.734839" lon="5.695787">
        <ele>12.092494</ele>
        <time>2025-05-16T16:06:36.215Z</time>
      </trkpt>
      <trkpt lat="51.734757" lon="5.695696">
        <ele>12.095082</ele>
        <time>2025-05-16T16:06:37.717Z</time>
      </trkpt>
      <trkpt lat="51.734709" lon="5.695549">
        <ele>12.097758</ele>
        <time>2025-05-16T16:06:39.261Z</time>
      </trkpt>
      <trkpt lat="51.734692" lon="5.695372">
        <ele>12.100644</ele>
        <time>2025-05-16T16:06:40.927Z</time>
      </trkpt>
      <trkpt lat="51.735065" lon="5.690427">
        <ele>13.107631</ele>
        <time>2025-05-16T16:07:30.898Z</time>
      </trkpt>
      <trkpt lat="51.735715" lon="5.681862">
        <ele>15.854235</ele>
        <time>2025-05-16T16:09:01.745Z</time>
      </trkpt>
      <trkpt lat="51.735720" lon="5.681590">
        <ele>15.933991</ele>
        <time>2025-05-16T16:09:04.593Z</time>
      </trkpt>
      <trkpt lat="51.735746" lon="5.681463">
        <ele>15.973195</ele>
        <time>2025-05-16T16:09:05.997Z</time>
      </trkpt>
      <trkpt lat="51.735036" lon="5.681553">
        <ele>16.310251</ele>
        <time>2025-05-16T16:09:55.514Z</time>
      </trkpt>
      <trkpt lat="51.733587" lon="5.681738">
        <ele>16.914155</ele>
        <time>2025-05-16T16:11:36.530Z</time>
      </trkpt>
      <trkpt lat="51.732970" lon="5.681816">
        <ele>17.141019</ele>
        <time>2025-05-16T16:12:19.535Z</time>
      </trkpt>
      <trkpt lat="51.731363" lon="5.682021">
        <ele>17.379153</ele>
        <time>2025-05-16T16:14:11.570Z</time>
      </trkpt>
      <trkpt lat="51.729553" lon="5.682252">
        <ele>17.485625</ele>
        <time>2025-05-16T16:16:17.726Z</time>
      </trkpt>
      <trkpt lat="51.726482" lon="5.682647">
        <ele>17.485389</ele>
        <time>2025-05-16T16:19:51.853Z</time>
      </trkpt>
      <trkpt lat="51.723657" lon="5.683010">
        <ele>17.348819</ele>
        <time>2025-05-16T16:23:08.829Z</time>
      </trkpt>
      <trkpt lat="51.723653" lon="5.682908">
        <ele>17.339994</ele>
        <time>2025-05-16T16:23:11.151Z</time>
      </trkpt>
      <trkpt lat="51.719260" lon="5.683480">
        <ele>16.672014</ele>
        <time>2025-05-16T16:24:13.704Z</time>
      </trkpt>
      <trkpt lat="51.718882" lon="5.683570">
        <ele>16.603225</ele>
        <time>2025-05-16T16:24:19.087Z</time>
      </trkpt>
      <trkpt lat="51.718766" lon="5.683635">
        <ele>16.580047</ele>
        <time>2025-05-16T16:24:20.821Z</time>
      </trkpt>
      <trkpt lat="51.717866" lon="5.684753">
        <ele>16.329004</ele>
        <time>2025-05-16T16:24:36.727Z</time>
      </trkpt>
      <trkpt lat="51.717405" lon="5.685253">
        <ele>16.206230</ele>
        <time>2025-05-16T16:24:44.529Z</time>
      </trkpt>
      <trkpt lat="51.716868" lon="5.685426">
        <ele>16.164677</ele>
        <time>2025-05-16T16:24:52.271Z</time>
      </trkpt>
      <trkpt lat="51.716185" lon="5.685587">
        <ele>16.129798</ele>
        <time>2025-05-16T16:25:02.341Z</time>
      </trkpt>
      <trkpt lat="51.715964" lon="5.685608">
        <ele>16.118612</ele>
        <time>2025-05-16T16:25:05.649Z</time>
      </trkpt>
      <trkpt lat="51.715699" lon="5.685554">
        <ele>16.105115</ele>
        <time>2025-05-16T16:25:09.687Z</time>
      </trkpt>
      <trkpt lat="51.713591" lon="5.684894">
        <ele>16.328326</ele>
        <time>2025-05-16T16:25:42.576Z</time>
      </trkpt>
      <trkpt lat="51.713331" lon="5.684783">
        <ele>16.363877</ele>
        <time>2025-05-16T16:25:46.771Z</time>
      </trkpt>
      <trkpt lat="51.713140" lon="5.684773">
        <ele>16.389138</ele>
        <time>2025-05-16T16:25:49.736Z</time>
      </trkpt>
      <trkpt lat="51.712271" lon="5.684506">
        <ele>16.506071</ele>
        <time>2025-05-16T16:26:03.352Z</time>
      </trkpt>
      <trkpt lat="51.712128" lon="5.684412">
        <ele>16.526481</ele>
        <time>2025-05-16T16:26:05.704Z</time>
      </trkpt>
      <trkpt lat="51.712034" lon="5.684423">
        <ele>16.538939</ele>
        <time>2025-05-16T16:26:07.127Z</time>
      </trkpt>
      <trkpt lat="51.710871" lon="5.684067">
        <ele>16.633957</ele>
        <time>2025-05-16T16:26:24.944Z</time>
      </trkpt>
      <trkpt lat="51.710731" lon="5.684037">
        <ele>16.645228</ele>
        <time>2025-05-16T16:26:27.082Z</time>
      </trkpt>
      <trkpt lat="51.710114" lon="5.683881">
        <ele>16.690410</ele>
        <time>2025-05-16T16:26:36.666Z</time>
      </trkpt>
      <trkpt lat="51.709486" lon="5.683656">
        <ele>16.720402</ele>
        <time>2025-05-16T16:26:46.535Z</time>
      </trkpt>
      <trkpt lat="51.709359" lon="5.683546">
        <ele>16.727122</ele>
        <time>2025-05-16T16:26:48.723Z</time>
      </trkpt>
      <trkpt lat="51.709311" lon="5.683535">
        <ele>16.729382</ele>
        <time>2025-05-16T16:26:49.457Z</time>
      </trkpt>
      <trkpt lat="51.709251" lon="5.683584">
        <ele>16.732517</ele>
        <time>2025-05-16T16:26:50.462Z</time>
      </trkpt>
      <trkpt lat="51.706939" lon="5.682843">
        <ele>16.787928</ele>
        <time>2025-05-16T16:27:24.919Z</time>
      </trkpt>
      <trkpt lat="51.706814" lon="5.682752">
        <ele>16.789658</ele>
        <time>2025-05-16T16:27:27.195Z</time>
      </trkpt>
      <trkpt lat="51.706673" lon="5.682587">
        <ele>16.809753</ele>
        <time>2025-05-16T16:27:30.034Z</time>
      </trkpt>
      <trkpt lat="51.706557" lon="5.682194">
        <ele>16.855232</ele>
        <time>2025-05-16T16:27:34.313Z</time>
      </trkpt>
      <trkpt lat="51.706602" lon="5.682016">
        <ele>16.875317</ele>
        <time>2025-05-16T16:27:36.803Z</time>
      </trkpt>
      <trkpt lat="51.706598" lon="5.681584">
        <ele>16.920456</ele>
        <time>2025-05-16T16:27:42.256Z</time>
      </trkpt>
      <trkpt lat="51.706479" lon="5.681480">
        <ele>16.943272</ele>
        <time>2025-05-16T16:27:44.284Z</time>
      </trkpt>
      <trkpt lat="51.706413" lon="5.681388">
        <ele>16.957976</ele>
        <time>2025-05-16T16:27:45.624Z</time>
      </trkpt>
      <trkpt lat="51.706372" lon="5.681324">
        <ele>16.967593</ele>
        <time>2025-05-16T16:27:46.481Z</time>
      </trkpt>
      <trkpt lat="51.706175" lon="5.681345">
        <ele>17.000879</ele>
        <time>2025-05-16T16:27:49.534Z</time>
      </trkpt>
      <trkpt lat="51.705891" lon="5.680711">
        <ele>17.082611</ele>
        <time>2025-05-16T16:27:57.136Z</time>
      </trkpt>
      <trkpt lat="51.705832" lon="5.680682">
        <ele>17.093010</ele>
        <time>2025-05-16T16:27:58.097Z</time>
      </trkpt>
      <trkpt lat="51.705813" lon="5.680636">
        <ele>17.102222</ele>
        <time>2025-05-16T16:27:58.622Z</time>
      </trkpt>
      <trkpt lat="51.705544" lon="5.679984">
        <ele>17.238822</ele>
        <time>2025-05-16T16:28:06.151Z</time>
      </trkpt>
      <trkpt lat="51.705387" lon="5.679770">
        <ele>17.296658</ele>
        <time>2025-05-16T16:28:09.386Z</time>
      </trkpt>
      <trkpt lat="51.705342" lon="5.679534">
        <ele>17.339720</ele>
        <time>2025-05-16T16:28:11.863Z</time>
      </trkpt>
      <trkpt lat="51.705325" lon="5.679226">
        <ele>17.393647</ele>
        <time>2025-05-16T16:28:15.018Z</time>
      </trkpt>
      <trkpt lat="51.705366" lon="5.679147">
        <ele>17.411617</ele>
        <time>2025-05-16T16:28:16.095Z</time>
      </trkpt>
      <trkpt lat="51.705361" lon="5.679044">
        <ele>17.429635</ele>
        <time>2025-05-16T16:28:17.195Z</time>
      </trkpt>
      <trkpt lat="51.705318" lon="5.678980">
        <ele>17.446098</ele>
        <time>2025-05-16T16:28:18.189Z</time>
      </trkpt>
      <trkpt lat="51.705273" lon="5.678972">
        <ele>17.458838</ele>
        <time>2025-05-16T16:28:18.971Z</time>
      </trkpt>
      <trkpt lat="51.705212" lon="5.679041">
        <ele>17.479802</ele>
        <time>2025-05-16T16:28:20.208Z</time>
      </trkpt>
      <trkpt lat="51.705049" lon="5.678980">
        <ele>17.526891</ele>
        <time>2025-05-16T16:28:23.032Z</time>
      </trkpt>
      <trkpt lat="51.705000" lon="5.678875">
        <ele>17.549814</ele>
        <time>2025-05-16T16:28:24.415Z</time>
      </trkpt>
      <trkpt lat="51.704479" lon="5.677448">
        <ele>17.699477</ele>
        <time>2025-05-16T16:28:40.472Z</time>
      </trkpt>
      <trkpt lat="51.704234" lon="5.677123">
        <ele>17.736719</ele>
        <time>2025-05-16T16:28:45.126Z</time>
      </trkpt>
      <trkpt lat="51.703210" lon="5.676080">
        <ele>17.811022</ele>
        <time>2025-05-16T16:29:03.135Z</time>
      </trkpt>
      <trkpt lat="51.702980" lon="5.675940">
        <ele>17.811022</ele>
        <time>2025-05-16T16:29:06.818Z</time>
      </trkpt>
      <trkpt lat="51.702650" lon="5.675830">
        <ele>17.811022</ele>
        <time>2025-05-16T16:29:11.886Z</time>
      </trkpt>
      <trkpt lat="51.702639" lon="5.675829">
        <ele>17.811022</ele>
        <time>2025-05-16T16:29:12.045Z</time>
      </trkpt>
    </trkseg>
  </trk>
</gpx>